Darstellungsparameter: Aktuell verwendete Einstellungen:
Skalierung der Graphiken ... ?
xyx+y,   Skalierungsfaktor:      Skalierung: Modus: x, Faktor: 1
Darstellungszeitraum ... ?
Vom - - bis: - -   Zeitraum: 03.04.2019 - 01.05.2019
Min/Max/Avg-Anzeige ... ?
Zeige MMA aktuell
Zeige MMA Monat
Zeige MMA alles
Zeige --A aktuell
Zeige --A Monat
Zeige --A alles
Keine MMA-Anzeige
MMA:
Average (ber die Originaldaten)
MMA-Basis: 03.04.2019 - 01.05.2019
Quicknavigation für Darstellung... ?
Tage:      1T, 2T, 3T, 5T -1T -2T -3T -5T +1T +2T +3T +5T
Wochen: 1W, 2W, 3W -1W -2W -3W +1W +2W +3W
Monate: 1M, 3M, 6M -1M -3M -6M +1M +3M +6M
Jahre:    1J, 3J, 5J, 10J -1J -3J -5J -10J +1J +3J +5J +10J
Nutze für die Darstellung ... ?
Originaldaten oder Mittelwerte auf ...
Stundenbasis Tagesbasis Wochenbasis
Monatsbasis Jahresbasis      Datenbasis: Original-Daten
Darstellen als:
Statistik (Auto) Statistik J:M      Darstellung:
Zur Graphik,    zurück zur Übersicht aller Sensoren.
 
Tabellarische Datenbersicht: ?
 
Sensor: Nr:Datum:Temp:Feuchte:
Aussen-T/F 1 03-04-2019 00:09:17 9.8 C 27 %
2 03-04-2019 00:21:17 9.7 C 27 %
3 03-04-2019 00:33:17 9.9 C 27 %
4 03-04-2019 00:45:18 9.9 C 27 %
5 03-04-2019 00:57:18 10 C 26 %
6 03-04-2019 01:09:17 9.8 C 27 %
7 03-04-2019 01:21:18 9.8 C 27 %
8 03-04-2019 01:33:17 9.2 C 29 %
9 03-04-2019 01:45:17 9 C 30 %
10 03-04-2019 01:57:17 9.1 C 31 %
11 03-04-2019 02:09:17 9.1 C 31 %
12 03-04-2019 02:21:17 9.2 C 30 %
13 03-04-2019 02:33:17 9.5 C 30 %
14 03-04-2019 02:45:18 9.3 C 30 %
15 03-04-2019 02:57:18 8.4 C 33 %
16 03-04-2019 03:09:17 8.1 C 35 %
17 03-04-2019 03:21:17 7.9 C 35 %
18 03-04-2019 03:33:17 7.9 C 37 %
19 03-04-2019 03:45:18 8.4 C 36 %
20 03-04-2019 03:57:18 8.4 C 36 %
21 03-04-2019 04:09:17 8.6 C 35 %
22 03-04-2019 04:21:17 8.5 C 35 %
23 03-04-2019 04:33:17 8.2 C 36 %
24 03-04-2019 04:45:17 8 C 36 %
25 03-04-2019 04:57:17 8 C 37 %
Sensor: Nr:Datum:Temp:Feuchte:
Aussen-T/F 26 03-04-2019 05:09:18 8 C 37 %
27 03-04-2019 05:21:17 7.9 C 38 %
28 03-04-2019 05:33:17 7.9 C 39 %
29 03-04-2019 05:45:17 7.6 C 38 %
30 03-04-2019 05:57:17 7.2 C 40 %
31 03-04-2019 06:09:18 7.2 C 41 %
32 03-04-2019 06:21:17 7.4 C 41 %
33 03-04-2019 06:33:17 7.8 C 39 %
34 03-04-2019 06:45:18 8 C 37 %
35 03-04-2019 06:57:18 8 C 36 %
36 03-04-2019 07:09:17 8.1 C 34 %
37 03-04-2019 07:21:17 7.9 C 35 %
38 03-04-2019 07:33:17 8.1 C 34 %
39 03-04-2019 07:45:18 8.2 C 35 %
40 03-04-2019 07:57:18 8.4 C 35 %
41 03-04-2019 08:09:17 8.5 C 34 %
42 03-04-2019 08:21:17 8.5 C 33 %
43 03-04-2019 08:33:18 8.1 C 36 %
44 03-04-2019 08:45:17 7.9 C 41 %
45 03-04-2019 08:57:17 7.5 C 45 %
46 03-04-2019 09:09:18 7.1 C 46 %
47 03-04-2019 09:21:17 6.8 C 47 %
48 03-04-2019 09:33:18 6.8 C 48 %
49 03-04-2019 09:45:17 6.5 C 45 %
50 03-04-2019 09:57:17 6.4 C 45 %
Sensor: Nr:Datum:Temp:Feuchte:
Aussen-T/F 51 03-04-2019 10:09:18 6.5 C 47 %
52 03-04-2019 10:21:17 6.5 C 47 %
53 03-04-2019 10:33:17 6.3 C 44 %
54 03-04-2019 10:45:17 6.2 C 44 %
55 03-04-2019 10:57:17 6.4 C 44 %
56 03-04-2019 11:09:17 6.6 C 46 %
57 03-04-2019 11:21:17 6.9 C 47 %
58 03-04-2019 11:33:18 7.3 C 42 %
59 03-04-2019 11:45:17 7.6 C 42 %
60 03-04-2019 11:57:17 7.5 C 39 %
61 03-04-2019 12:09:18 7.9 C 38 %
62 03-04-2019 12:21:17 8.1 C 35 %
63 03-04-2019 12:33:18 8.6 C 34 %
64 03-04-2019 12:45:17 9.2 C 31 %
65 03-04-2019 12:57:17 10 C 27 %
66 03-04-2019 13:09:18 10.5 C 26 %
67 03-04-2019 13:21:17 10.2 C 25 %
68 03-04-2019 13:33:17 9.8 C 25 %
69 03-04-2019 13:45:17 9.9 C 25 %
70 03-04-2019 13:57:17 9.7 C 25 %
71 03-04-2019 14:09:17 9.5 C 26 %
72 03-04-2019 14:21:18 9.8 C 26 %
73 03-04-2019 14:33:17 9.8 C 25 %
74 03-04-2019 14:45:17 10 C 25 %
75 03-04-2019 14:57:17 10.2 C 21 %
Sensor: Nr:Datum:Temp:Feuchte:
Aussen-T/F 76 03-04-2019 15:09:17 10.4 C 22 %
77 03-04-2019 15:21:17 10.7 C 21 %
78 03-04-2019 15:33:17 10.2 C 20 %
79 03-04-2019 15:45:17 10.3 C 20 %
80 03-04-2019 15:57:17 10.2 C 20 %
81 03-04-2019 16:09:17 10.4 C 20 %
82 03-04-2019 16:21:17 10.2 C 21 %
83 03-04-2019 16:33:17 10.1 C 20 %
84 03-04-2019 16:45:17 10.2 C 22 %
85 03-04-2019 16:57:17 9.7 C 25 %
86 03-04-2019 17:09:18 9.4 C 26 %
87 03-04-2019 17:21:17 9.1 C 27 %
88 03-04-2019 17:33:18 8.4 C 33 %
89 03-04-2019 17:45:17 7.8 C 39 %
90 03-04-2019 17:57:17 7.5 C 46 %
91 03-04-2019 18:09:18 7.4 C 50 %
92 03-04-2019 18:21:17 6.9 C 49 %
93 03-04-2019 18:33:17 6.9 C 51 %
94 03-04-2019 18:45:17 6.7 C 51 %
95 03-04-2019 18:57:17 6.5 C 51 %
96 03-04-2019 19:09:17 6.4 C 51 %
97 03-04-2019 19:21:17 6.4 C 52 %
98 03-04-2019 19:33:17 6.3 C 53 %
99 03-04-2019 19:45:17 6.2 C 53 %
100 03-04-2019 19:57:17 6 C 52 %
Sensor: Nr:Datum:Temp:Feuchte:
Aussen-T/F 101 03-04-2019 20:09:17 5.8 C 53 %
102 03-04-2019 20:21:17 5.7 C 53 %
103 03-04-2019 20:33:17 5.7 C 54 %
104 03-04-2019 20:45:18 5.7 C 54 %
105 03-04-2019 20:57:18 5.7 C 54 %
106 03-04-2019 21:09:17 5.6 C 54 %
107 03-04-2019 21:21:17 5.6 C 54 %
108 03-04-2019 21:33:18 5.6 C 54 %
109 03-04-2019 21:45:17 5.5 C 54 %
110 03-04-2019 21:57:17 5.4 C 54 %
111 03-04-2019 22:09:17 5.3 C 54 %
112 03-04-2019 22:21:18 5.2 C 54 %
113 03-04-2019 22:33:17 5.1 C 55 %
114 03-04-2019 22:45:17 5.1 C 55 %
115 03-04-2019 22:57:17 5 C 56 %
116 03-04-2019 23:09:17 5 C 58 %
117 03-04-2019 23:21:17 5 C 61 %
118 03-04-2019 23:33:18 5 C 63 %
119 03-04-2019 23:45:17 5 C 63 %
120 03-04-2019 23:57:17 5 C 64 %
121 04-04-2019 00:09:18 5 C 65 %
122 04-04-2019 00:21:17 5.1 C 66 %
123 04-04-2019 00:33:18 5 C 65 %
124 04-04-2019 00:45:18 4.9 C 64 %
125 04-04-2019 00:57:18 4.7 C 63 %
Sensor: Nr:Datum:Temp:Feuchte:
Aussen-T/F 126 04-04-2019 01:09:17 4.7 C 63 %
127 04-04-2019 01:21:18 4.7 C 64 %
128 04-04-2019 01:33:17 4.7 C 65 %
129 04-04-2019 01:45:17 4.8 C 66 %
130 04-04-2019 01:57:17 4.7 C 65 %
131 04-04-2019 02:09:17 4.7 C 65 %
132 04-04-2019 02:21:18 4.8 C 64 %
133 04-04-2019 02:33:17 5 C 60 %
134 04-04-2019 02:45:17 5 C 53 %
135 04-04-2019 02:57:17 5.1 C 51 %
136 04-04-2019 03:09:17 5.1 C 51 %
137 04-04-2019 03:21:18 5 C 50 %
138 04-04-2019 03:33:17 5 C 50 %
139 04-04-2019 03:45:17 5 C 50 %
140 04-04-2019 03:57:17 4.9 C 50 %
141 04-04-2019 04:09:18 4.9 C 51 %
142 04-04-2019 04:21:17 5 C 52 %
143 04-04-2019 04:33:18 5 C 52 %
144 04-04-2019 04:45:17 5 C 53 %
145 04-04-2019 04:57:18 5 C 54 %
146 04-04-2019 05:09:17 5.1 C 55 %
147 04-04-2019 05:21:17 5 C 55 %
148 04-04-2019 05:33:17 5 C 54 %
149 04-04-2019 05:45:17 5 C 54 %
150 04-04-2019 05:57:17 5 C 55 %
Sensor: Nr:Datum:Temp:Feuchte:
Aussen-T/F 151 04-04-2019 06:09:18 5 C 55 %
152 04-04-2019 06:21:18 4.9 C 56 %
153 04-04-2019 06:33:17 4.8 C 56 %
154 04-04-2019 06:45:17 4.8 C 57 %
155 04-04-2019 06:57:17 4.8 C 57 %
156 04-04-2019 07:09:17 4.8 C 58 %
157 04-04-2019 07:21:17 4.8 C 59 %
158 04-04-2019 07:33:18 4.8 C 60 %
159 04-04-2019 07:45:17 4.9 C 60 %
160 04-04-2019 07:57:17 5 C 60 %
161 04-04-2019 08:09:18 5 C 62 %
162 04-04-2019 08:21:17 5.1 C 62 %
163 04-04-2019 08:33:17 5.1 C 63 %
164 04-04-2019 08:45:17 5.1 C 63 %
165 04-04-2019 08:57:17 5.2 C 65 %
166 04-04-2019 09:09:17 5.4 C 66 %
167 04-04-2019 09:21:17 5.4 C 65 %
168 04-04-2019 09:33:17 5.5 C 64 %
169 04-04-2019 09:45:18 5.5 C 61 %
170 04-04-2019 09:57:18 5.3 C 59 %
171 04-04-2019 10:09:17 5.4 C 53 %
172 04-04-2019 10:21:17 5.8 C 49 %
173 04-04-2019 10:33:18 5.9 C 45 %
174 04-04-2019 10:45:17 6.1 C 41 %
175 04-04-2019 10:57:17 6.2 C 39 %
Sensor: Nr:Datum:Temp:Feuchte:
Aussen-T/F 176 04-04-2019 11:09:18 6.5 C 36 %
177 04-04-2019 11:21:17 6.7 C 35 %
178 04-04-2019 11:33:17 7.1 C 33 %
179 04-04-2019 11:45:17 7 C 33 %
180 04-04-2019 11:57:17 7.2 C 31 %
181 04-04-2019 12:09:17 7.2 C 30 %
182 04-04-2019 12:21:17 7 C 32 %
183 04-04-2019 12:33:17 6.6 C 34 %
184 04-04-2019 12:45:17 6.4 C 36 %
185 04-04-2019 12:57:18 6.2 C 37 %
186 04-04-2019 13:09:17 6.1 C 39 %
187 04-04-2019 13:21:17 5.9 C 41 %
188 04-04-2019 13:33:17 6.1 C 42 %
189 04-04-2019 13:45:18 6 C 40 %
190 04-04-2019 13:57:18 6 C 41 %
191 04-04-2019 14:09:17 6.1 C 40 %
192 04-04-2019 14:21:17 5.9 C 40 %
193 04-04-2019 14:33:17 6 C 40 %
194 04-04-2019 14:45:17 6 C 40 %
195 04-04-2019 14:57:18 6.3 C 39 %
196 04-04-2019 15:09:17 6.2 C 37 %
197 04-04-2019 15:21:17 6.4 C 39 %
198 04-04-2019 15:33:18 6.3 C 38 %
199 04-04-2019 15:45:18 6.5 C 41 %
200 04-04-2019 15:57:18 6.4 C 41 %
Sensor: Nr:Datum:Temp:Feuchte:
Aussen-T/F 201 04-04-2019 16:09:17 6.6 C 41 %
202 04-04-2019 16:21:17 6.7 C 41 %
203 04-04-2019 16:33:17 6.4 C 40 %
204 04-04-2019 16:45:17 6.4 C 39 %
205 04-04-2019 16:57:17 6.9 C 40 %
206 04-04-2019 17:09:17 7.1 C 36 %
207 04-04-2019 17:21:17 7.2 C 36 %
208 04-04-2019 17:33:17 7.5 C 35 %
209 04-04-2019 17:45:17 8.1 C 32 %
210 04-04-2019 17:57:17 7.8 C 30 %
211 04-04-2019 18:09:17 7.5 C 30 %
212 04-04-2019 18:21:17 7.3 C 31 %
213 04-04-2019 18:33:17 7.3 C 31 %
214 04-04-2019 18:45:17 7.4 C 32 %
215 04-04-2019 18:57:17 7.4 C 32 %
216 04-04-2019 19:09:18 7.3 C 33 %
217 04-04-2019 19:21:17 7.1 C 33 %
218 04-04-2019 19:33:17 6.6 C 37 %
219 04-04-2019 19:45:18 6 C 43 %
220 04-04-2019 19:57:18 5.7 C 45 %
221 04-04-2019 20:09:17 5.4 C 47 %
222 04-04-2019 20:21:17 5.2 C 49 %
223 04-04-2019 20:33:17 5.2 C 50 %
224 04-04-2019 20:45:17 5.1 C 50 %
225 04-04-2019 20:57:17 4.9 C 51 %
Sensor: Nr:Datum:Temp:Feuchte:
Aussen-T/F 226 04-04-2019 21:09:17 4.8 C 51 %
227 04-04-2019 21:21:17 4.7 C 51 %
228 04-04-2019 21:33:17 4.6 C 51 %
229 04-04-2019 21:45:17 4.5 C 51 %
230 04-04-2019 21:57:18 4.5 C 52 %
231 04-04-2019 22:09:17 4.5 C 52 %
232 04-04-2019 22:21:17 4.5 C 52 %
233 04-04-2019 22:33:17 4.5 C 52 %
234 04-04-2019 22:45:17 4.4 C 52 %
235 04-04-2019 22:57:17 4.3 C 53 %
236 04-04-2019 23:09:17 4.1 C 52 %
237 04-04-2019 23:21:18 3.7 C 53 %
238 04-04-2019 23:33:17 3.6 C 54 %
239 04-04-2019 23:45:18 3.3 C 54 %
240 04-04-2019 23:57:18 3.5 C 55 %
241 05-04-2019 00:09:17 3.4 C 55 %
242 05-04-2019 00:21:18 3.1 C 55 %
243 05-04-2019 00:33:17 3 C 55 %
244 05-04-2019 00:45:17 2.8 C 55 %
245 05-04-2019 00:57:17 2.6 C 55 %
246 05-04-2019 01:09:17 2.4 C 55 %
247 05-04-2019 01:21:17 2.4 C 56 %
248 05-04-2019 01:33:18 2.6 C 58 %
249 05-04-2019 01:45:17 2.9 C 61 %
250 05-04-2019 01:57:17 3.1 C 63 %
Sensor: Nr:Datum:Temp:Feuchte:
Aussen-T/F 251 05-04-2019 02:09:17 3.2 C 65 %
252 05-04-2019 02:21:17 3.1 C 64 %
253 05-04-2019 02:33:18 2.9 C 63 %
254 05-04-2019 02:45:17 2.9 C 65 %
255 05-04-2019 02:57:18 3 C 65 %
256 05-04-2019 03:09:17 3.2 C 68 %
257 05-04-2019 03:21:17 3.3 C 68 %
258 05-04-2019 03:33:18 3.4 C 68 %
259 05-04-2019 03:45:18 3.4 C 68 %
260 05-04-2019 03:57:18 3.4 C 68 %
261 05-04-2019 04:09:17 3.4 C 68 %
262 05-04-2019 04:21:17 3.4 C 68 %
263 05-04-2019 04:33:17 3.4 C 68 %
264 05-04-2019 04:45:17 3.4 C 68 %
265 05-04-2019 04:57:17 3.4 C 68 %
266 05-04-2019 05:09:17 3.4 C 67 %
267 05-04-2019 05:21:18 3.3 C 67 %
268 05-04-2019 05:33:17 3.3 C 67 %
269 05-04-2019 05:45:17 3.2 C 66 %
270 05-04-2019 05:57:17 3.4 C 68 %
271 05-04-2019 06:09:18 3.4 C 68 %
272 05-04-2019 06:21:17 3.3 C 68 %
273 05-04-2019 06:33:17 3.3 C 67 %
274 05-04-2019 06:45:17 3.3 C 67 %
275 05-04-2019 06:57:17 3.3 C 68 %
Sensor: Nr:Datum:Temp:Feuchte:
Aussen-T/F 276 05-04-2019 07:09:17 3.4 C 69 %
277 05-04-2019 07:21:17 3.6 C 69 %
278 05-04-2019 07:33:17 3.7 C 70 %
279 05-04-2019 07:45:17 3.8 C 69 %
280 05-04-2019 07:57:17 3.9 C 69 %
281 05-04-2019 08:09:17 4.2 C 68 %
282 05-04-2019 08:21:17 4.3 C 67 %
283 05-04-2019 08:33:17 4.4 C 66 %
284 05-04-2019 08:45:17 4.6 C 63 %
285 05-04-2019 08:57:17 4.6 C 57 %
286 05-04-2019 09:09:18 5 C 51 %
287 05-04-2019 09:21:17 5.1 C 49 %
288 05-04-2019 09:33:18 5.3 C 46 %
289 05-04-2019 09:45:17 5.6 C 45 %
290 05-04-2019 09:57:17 5.8 C 42 %
291 05-04-2019 10:09:17 5.9 C 41 %
292 05-04-2019 10:21:18 6.1 C 39 %
293 05-04-2019 10:33:17 6.7 C 37 %
294 05-04-2019 10:45:18 7.1 C 34 %
295 05-04-2019 10:57:18 7.5 C 32 %
296 05-04-2019 11:09:17 7.7 C 32 %
297 05-04-2019 11:21:17 8 C 30 %
298 05-04-2019 11:33:18 7.8 C 30 %
299 05-04-2019 11:45:17 8.2 C 30 %
300 05-04-2019 11:57:17 8.1 C 29 %
Sensor: Nr:Datum:Temp:Feuchte:
Aussen-T/F 301 05-04-2019 12:09:17 8.4 C 28 %
302 05-04-2019 12:21:17 8.5 C 28 %
303 05-04-2019 12:33:17 8.5 C 28 %
304 05-04-2019 12:45:17 8.2 C 28 %
305 05-04-2019 12:57:17 8.1 C 29 %
306 05-04-2019 13:09:17 8.1 C 30 %
307 05-04-2019 13:21:17 8.1 C 30 %
308 05-04-2019 13:33:17 8.1 C 29 %
309 05-04-2019 13:45:17 8.2 C 29 %
310 05-04-2019 13:57:17 8.4 C 29 %
311 05-04-2019 14:09:17 8.4 C 28 %
312 05-04-2019 14:21:17 8.4 C 29 %
313 05-04-2019 14:33:17 8.4 C 29 %
314 05-04-2019 14:45:17 8.4 C 29 %
315 05-04-2019 14:57:17 8.2 C 29 %
316 05-04-2019 15:09:18 8.3 C 30 %
317 05-04-2019 15:21:17 8.3 C 29 %
318 05-04-2019 15:33:17 8.5 C 30 %
319 05-04-2019 15:45:17 8.4 C 30 %
320 05-04-2019 15:57:17 8.4 C 30 %
321 05-04-2019 16:09:17 8.4 C 30 %
322 05-04-2019 16:21:17 8.4 C 30 %
323 05-04-2019 16:33:17 8.2 C 31 %
324 05-04-2019 16:45:17 8.1 C 31 %
325 05-04-2019 16:57:17 8.1 C 32 %
Sensor: Nr:Datum:Temp:Feuchte:
Aussen-T/F 326 05-04-2019 17:09:17 8.1 C 32 %
327 05-04-2019 17:21:17 8.1 C 33 %
328 05-04-2019 17:33:17 8.1 C 34 %
329 05-04-2019 17:45:18 8 C 35 %
330 05-04-2019 17:57:18 7.9 C 35 %
331 05-04-2019 18:09:17 7.9 C 36 %
332 05-04-2019 18:21:17 7.9 C 36 %
333 05-04-2019 18:33:17 7.9 C 37 %
334 05-04-2019 18:45:17 7.8 C 37 %
335 05-04-2019 18:57:17 7.8 C 38 %
336 05-04-2019 19:09:17 7.8 C 39 %
337 05-04-2019 19:21:17 7.6 C 40 %
338 05-04-2019 19:33:17 7.5 C 41 %
339 05-04-2019 19:45:17 7.4 C 41 %
340 05-04-2019 19:57:17 7.4 C 43 %
341 05-04-2019 20:09:17 7.2 C 44 %
342 05-04-2019 20:21:17 7.1 C 46 %
343 05-04-2019 20:33:18 7.1 C 46 %
344 05-04-2019 20:45:17 7 C 48 %
345 05-04-2019 20:57:17 7.1 C 48 %
346 05-04-2019 21:09:17 7.1 C 48 %
347 05-04-2019 21:21:17 7.1 C 48 %
348 05-04-2019 21:33:17 6.9 C 49 %
349 05-04-2019 21:45:17 6.9 C 49 %
350 05-04-2019 21:57:17 7 C 49 %
Sensor: Nr:Datum:Temp:Feuchte:
Aussen-T/F 351 05-04-2019 22:09:17 6.9 C 50 %
352 05-04-2019 22:21:17 6.9 C 50 %
353 05-04-2019 22:33:18 6.9 C 51 %
354 05-04-2019 22:45:18 6.9 C 51 %
355 05-04-2019 22:57:18 6.9 C 52 %
356 05-04-2019 23:09:17 6.8 C 52 %
357 05-04-2019 23:21:17 6.9 C 53 %
358 05-04-2019 23:33:17 6.8 C 53 %
359 05-04-2019 23:45:17 6.8 C 53 %
360 05-04-2019 23:57:17 6.8 C 53 %
361 06-04-2019 00:09:17 6.7 C 53 %
362 06-04-2019 00:21:17 6.6 C 53 %
363 06-04-2019 00:33:17 6.6 C 53 %
364 06-04-2019 00:45:17 6.7 C 53 %
365 06-04-2019 00:57:17 6.7 C 53 %
366 06-04-2019 01:09:18 6.7 C 53 %
367 06-04-2019 01:21:17 6.8 C 53 %
368 06-04-2019 01:33:17 6.8 C 53 %
369 06-04-2019 01:45:17 6.7 C 53 %
370 06-04-2019 01:57:17 6.7 C 53 %
371 06-04-2019 02:09:17 6.7 C 53 %
372 06-04-2019 02:21:17 6.7 C 53 %
373 06-04-2019 02:33:17 6.3 C 53 %
374 06-04-2019 02:45:17 6.1 C 53 %
375 06-04-2019 02:57:17 6 C 54 %
Sensor: Nr:Datum:Temp:Feuchte:
Aussen-T/F 376 06-04-2019 03:09:17 5.6 C 55 %
377 06-04-2019 03:21:17 5.1 C 55 %
378 06-04-2019 03:33:18 5 C 56 %
379 06-04-2019 03:45:18 4.9 C 59 %
380 06-04-2019 03:57:18 4.6 C 60 %
381 06-04-2019 04:09:17 4.4 C 61 %
382 06-04-2019 04:21:17 4.3 C 63 %
383 06-04-2019 04:33:17 4.1 C 63 %
384 06-04-2019 04:45:17 4 C 64 %
385 06-04-2019 04:57:17 4.1 C 67 %
386 06-04-2019 05:09:17 4.3 C 70 %
387 06-04-2019 05:21:17 4.2 C 70 %
388 06-04-2019 05:33:17 4 C 69 %
389 06-04-2019 05:45:17 4 C 70 %
390 06-04-2019 05:57:17 3.7 C 69 %
391 06-04-2019 06:09:17 3.3 C 67 %
392 06-04-2019 06:21:17 3.3 C 68 %
393 06-04-2019 06:33:17 3.5 C 71 %
394 06-04-2019 06:45:17 3.8 C 72 %
395 06-04-2019 06:57:17 4 C 72 %
396 06-04-2019 07:09:17 4.1 C 72 %
397 06-04-2019 07:21:17 4.5 C 73 %
398 06-04-2019 07:33:17 4.7 C 73 %
399 06-04-2019 07:45:17 5.1 C 73 %
400 06-04-2019 07:57:17 5.1 C 71 %
Sensor: Nr:Datum:Temp:Feuchte:
Aussen-T/F 401 06-04-2019 08:09:17 5.3 C 71 %
402 06-04-2019 08:21:17 5.3 C 70 %
403 06-04-2019 08:33:18 5.5 C 70 %
404 06-04-2019 08:45:18 5.4 C 68 %
405 06-04-2019 08:57:18 5.4 C 67 %
406 06-04-2019 09:09:17 5.5 C 67 %
407 06-04-2019 09:21:17 5.6 C 65 %
408 06-04-2019 09:33:17 5.7 C 62 %
409 06-04-2019 09:45:17 6 C 62 %
410 06-04-2019 09:57:17 6 C 63 %
411 06-04-2019 10:09:17 6.6 C 63 %
412 06-04-2019 10:21:18 6.9 C 62 %
413 06-04-2019 10:33:17 7.4 C 64 %
414 06-04-2019 10:45:17 8.3 C 58 %
415 06-04-2019 10:57:17 9.5 C 56 %
416 06-04-2019 11:09:17 9.8 C 41 %
417 06-04-2019 11:21:17 11.1 C 29 %
418 06-04-2019 11:33:17 12.6 C 21 %
419 06-04-2019 11:45:17 12.8 C 20 %
420 06-04-2019 11:57:17 13.1 C 20 %
421 06-04-2019 12:09:17 13 C 20 %
422 06-04-2019 12:21:17 13.9 C 20 %
423 06-04-2019 12:33:17 13.5 C 20 %
424 06-04-2019 12:45:17 14 C 20 %
425 06-04-2019 12:57:17 13.6 C 20 %
Sensor: Nr:Datum:Temp:Feuchte:
Aussen-T/F 426 06-04-2019 13:09:17 14.1 C 20 %
427 06-04-2019 13:21:18 14.4 C 20 %
428 06-04-2019 13:33:18 15 C 20 %
429 06-04-2019 13:45:17 15.2 C 20 %
430 06-04-2019 13:57:18 15.2 C 20 %
431 06-04-2019 14:09:17 15.8 C 20 %
432 06-04-2019 14:21:17 16.5 C 20 %
433 06-04-2019 14:33:18 17.4 C 20 %
434 06-04-2019 14:45:18 16.7 C 20 %
435 06-04-2019 14:57:18 16.5 C 20 %
436 06-04-2019 15:09:17 16.6 C 20 %
437 06-04-2019 15:21:17 15.9 C 20 %
438 06-04-2019 15:33:17 16 C 20 %
439 06-04-2019 15:45:17 15.8 C 20 %
440 06-04-2019 15:57:17 15.6 C 20 %
441 06-04-2019 16:09:17 15.8 C 20 %
442 06-04-2019 16:21:17 16.2 C 20 %
443 06-04-2019 16:33:18 16.1 C 20 %
444 06-04-2019 16:45:17 16.1 C 20 %
445 06-04-2019 16:57:18 16.4 C 20 %
446 06-04-2019 17:09:17 16.4 C 20 %
447 06-04-2019 17:21:17 16.4 C 20 %
448 06-04-2019 17:33:18 16.6 C 20 %
449 06-04-2019 17:45:17 16.8 C 20 %
450 06-04-2019 17:57:18 17 C 20 %
Sensor: Nr:Datum:Temp:Feuchte:
Aussen-T/F 451 06-04-2019 18:09:18 18.1 C 20 %
452 06-04-2019 18:21:17 18.2 C 20 %
453 06-04-2019 18:33:17 17.5 C 20 %
454 06-04-2019 18:45:17 19.2 C 20 %
455 06-04-2019 18:57:17 19.9 C 20 %
456 06-04-2019 19:09:17 17.1 C 20 %
457 06-04-2019 19:21:17 16 C 20 %
458 06-04-2019 19:33:17 15.3 C 20 %
459 06-04-2019 19:45:17 13.4 C 20 %
460 06-04-2019 19:57:17 12.7 C 21 %
461 06-04-2019 20:09:17 11.9 C 25 %
462 06-04-2019 20:21:17 11.4 C 26 %
463 06-04-2019 20:33:17 11.2 C 27 %
464 06-04-2019 20:45:17 10.7 C 28 %
465 06-04-2019 20:57:17 10.5 C 30 %
466 06-04-2019 21:09:17 10.4 C 30 %
467 06-04-2019 21:21:17 10.1 C 32 %
468 06-04-2019 21:33:17 10.1 C 33 %
469 06-04-2019 21:45:17 9.5 C 34 %
470 06-04-2019 21:57:17 9.1 C 35 %
471 06-04-2019 22:09:17 8.9 C 37 %
472 06-04-2019 22:21:18 9 C 38 %
473 06-04-2019 22:33:17 8.6 C 39 %
474 06-04-2019 22:45:17 8.7 C 41 %
475 06-04-2019 22:57:17 8.7 C 41 %
Sensor: Nr:Datum:Temp:Feuchte:
Aussen-T/F 476 06-04-2019 23:09:17 8.6 C 41 %
477 06-04-2019 23:21:17 8.6 C 42 %
478 06-04-2019 23:33:17 8.5 C 41 %
479 06-04-2019 23:45:17 7.8 C 41 %
480 06-04-2019 23:57:17 7.5 C 43 %
481 07-04-2019 00:09:18 7.4 C 45 %
482 07-04-2019 00:21:17 7.4 C 46 %
483 07-04-2019 00:33:17 7.1 C 46 %
484 07-04-2019 00:45:17 7.2 C 47 %
485 07-04-2019 00:57:17 6.8 C 47 %
486 07-04-2019 01:09:17 6.7 C 47 %
487 07-04-2019 01:21:17 6.6 C 49 %
488 07-04-2019 01:33:17 6.4 C 50 %
489 07-04-2019 01:45:17 6.5 C 50 %
490 07-04-2019 01:57:17 6.4 C 50 %
491 07-04-2019 02:09:17 6.1 C 50 %
492 07-04-2019 02:21:17 6 C 50 %
493 07-04-2019 02:33:17 6 C 51 %
494 07-04-2019 02:45:17 5.9 C 52 %
495 07-04-2019 02:57:17 5.9 C 52 %
496 07-04-2019 03:09:17 5.6 C 52 %
497 07-04-2019 03:21:17 5.6 C 52 %
498 07-04-2019 03:33:18 5.6 C 52 %
499 07-04-2019 03:45:18 5.5 C 52 %
500 07-04-2019 03:57:18 5.2 C 52 %
Sensor: Nr:Datum:Temp:Feuchte:
Aussen-T/F 501 07-04-2019 04:09:17 4.9 C 53 %
502 07-04-2019 04:21:17 4.8 C 53 %
503 07-04-2019 04:33:17 4.8 C 54 %
504 07-04-2019 04:45:17 4.8 C 54 %
505 07-04-2019 04:57:17 4.8 C 54 %
506 07-04-2019 05:09:17 4.6 C 54 %
507 07-04-2019 05:21:17 4.4 C 54 %
508 07-04-2019 05:33:17 4.3 C 55 %
509 07-04-2019 05:45:17 4.4 C 56 %
510 07-04-2019 05:57:17 4.3 C 56 %
511 07-04-2019 06:09:17 4.2 C 56 %
512 07-04-2019 06:21:17 4.3 C 57 %
513 07-04-2019 06:33:18 4.1 C 57 %
514 07-04-2019 06:45:17 4 C 57 %
515 07-04-2019 06:57:17 3.8 C 57 %
516 07-04-2019 07:09:17 3.6 C 59 %
517 07-04-2019 07:21:17 3.6 C 60 %
518 07-04-2019 07:33:17 3.6 C 62 %
519 07-04-2019 07:45:17 3.8 C 63 %
520 07-04-2019 07:57:17 4.2 C 65 %
521 07-04-2019 08:09:17 4.2 C 64 %
522 07-04-2019 08:21:17 4.4 C 64 %
523 07-04-2019 08:33:17 4.6 C 65 %
524 07-04-2019 08:45:17 4.8 C 65 %
525 07-04-2019 08:57:17 5 C 65 %
Sensor: Nr:Datum:Temp:Feuchte:
Aussen-T/F 526 07-04-2019 09:09:17 5.2 C 65 %
527 07-04-2019 09:21:17 5.4 C 66 %
528 07-04-2019 09:33:17 5.6 C 66 %
529 07-04-2019 09:45:17 6 C 67 %
530 07-04-2019 09:57:17 6.4 C 67 %
531 07-04-2019 10:09:17 6.9 C 68 %
532 07-04-2019 10:21:17 7.3 C 68 %
533 07-04-2019 10:33:18 8.6 C 68 %
534 07-04-2019 10:45:17 9.7 C 60 %
535 07-04-2019 10:57:17 11.2 C 45 %
536 07-04-2019 11:09:17 13.2 C 25 %
537 07-04-2019 11:21:17 14 C 20 %
538 07-04-2019 11:33:17 15.3 C 20 %
539 07-04-2019 11:45:17 15.4 C 20 %
540 07-04-2019 11:57:17 16.2 C 20 %
541 07-04-2019 12:09:17 16.8 C 20 %
542 07-04-2019 12:21:17 16.1 C 20 %
543 07-04-2019 12:33:17 16.1 C 20 %
544 07-04-2019 12:45:17 16.3 C 20 %
545 07-04-2019 12:57:17 16.1 C 20 %
546 07-04-2019 13:09:17 16.1 C 20 %
547 07-04-2019 13:21:18 16.4 C 20 %
548 07-04-2019 13:33:18 17 C 20 %
549 07-04-2019 13:45:17 17 C 20 %
550 07-04-2019 13:57:17 17.4 C 20 %
Sensor: Nr:Datum:Temp:Feuchte:
Aussen-T/F 551 07-04-2019 14:09:17 17.7 C 20 %
552 07-04-2019 14:21:17 17.9 C 20 %
553 07-04-2019 14:33:17 18.4 C 20 %
554 07-04-2019 14:45:17 18.4 C 20 %
555 07-04-2019 14:57:17 18.9 C 20 %
556 07-04-2019 15:09:18 18.8 C 20 %
557 07-04-2019 15:21:17 19.1 C 20 %
558 07-04-2019 15:33:18 19.6 C 20 %
559 07-04-2019 15:45:18 19.5 C 20 %
560 07-04-2019 15:57:18 19.8 C 20 %
561 07-04-2019 16:09:17 19.8 C 20 %
562 07-04-2019 16:21:17 20.1 C 20 %
563 07-04-2019 16:33:17 20.3 C 20 %
564 07-04-2019 16:45:17 20.7 C 20 %
565 07-04-2019 16:57:17 20.8 C 20 %
566 07-04-2019 17:09:17 21.1 C 20 %
567 07-04-2019 17:21:17 20.7 C 20 %
568 07-04-2019 17:33:17 21.3 C 20 %
569 07-04-2019 17:45:17 20.4 C 20 %
570 07-04-2019 17:57:17 20.2 C 20 %
571 07-04-2019 18:09:17 19.7 C 20 %
572 07-04-2019 18:21:17 19.1 C 20 %
573 07-04-2019 18:33:17 18.7 C 20 %
574 07-04-2019 18:45:17 18.2 C 20 %
575 07-04-2019 18:57:17 17.6 C 20 %
Sensor: Nr:Datum:Temp:Feuchte:
Aussen-T/F 576 07-04-2019 19:09:18 17.1 C 20 %
577 07-04-2019 19:21:17 16.3 C 20 %
578 07-04-2019 19:33:17 15.7 C 20 %
579 07-04-2019 19:45:17 15.3 C 20 %
580 07-04-2019 19:57:17 14.8 C 20 %
581 07-04-2019 20:09:17 14.7 C 20 %
582 07-04-2019 20:21:17 14.4 C 20 %
583 07-04-2019 20:33:18 14.3 C 20 %
584 07-04-2019 20:45:18 14.2 C 20 %
585 07-04-2019 20:57:18 14.1 C 20 %
586 07-04-2019 21:09:17 14.1 C 20 %
587 07-04-2019 21:21:17 13.8 C 20 %
588 07-04-2019 21:33:17 13.8 C 20 %
589 07-04-2019 21:45:17 13.7 C 20 %
590 07-04-2019 21:57:17 13.4 C 20 %
591 07-04-2019 22:09:18 13.2 C 20 %
592 07-04-2019 22:21:17 13.3 C 20 %
593 07-04-2019 22:33:17 13.4 C 20 %
594 07-04-2019 22:45:17 13.1 C 20 %
595 07-04-2019 22:57:17 12.9 C 20 %
596 07-04-2019 23:09:18 12.7 C 21 %
597 07-04-2019 23:21:17 12.7 C 23 %
598 07-04-2019 23:33:17 12.5 C 25 %
599 07-04-2019 23:45:17 12.5 C 25 %
600 07-04-2019 23:57:18 12.3 C 26 %
Sensor: Nr:Datum:Temp:Feuchte:
Aussen-T/F 601 08-04-2019 00:09:17 12.2 C 26 %
602 08-04-2019 00:21:17 12.2 C 26 %
603 08-04-2019 00:33:17 12.1 C 27 %
604 08-04-2019 00:45:17 12 C 27 %
605 08-04-2019 00:57:17 11.9 C 29 %
606 08-04-2019 01:09:17 11.8 C 30 %
607 08-04-2019 01:21:17 11.7 C 30 %
608 08-04-2019 01:33:17 11.7 C 30 %
609 08-04-2019 01:45:17 11.6 C 30 %
610 08-04-2019 01:57:17 11.4 C 30 %
611 08-04-2019 02:09:17 11.2 C 31 %
612 08-04-2019 02:21:17 11.2 C 31 %
613 08-04-2019 02:33:17 11.2 C 31 %
614 08-04-2019 02:45:17 11.1 C 32 %
615 08-04-2019 02:57:18 11.1 C 31 %
616 08-04-2019 03:09:17 11.2 C 31 %
617 08-04-2019 03:21:17 11 C 31 %
618 08-04-2019 03:33:17 10.8 C 33 %
619 08-04-2019 03:45:17 10.7 C 34 %
620 08-04-2019 03:57:17 10.7 C 34 %
621 08-04-2019 04:09:17 10.7 C 35 %
622 08-04-2019 04:21:18 10.7 C 34 %
623 08-04-2019 04:33:18 10.6 C 35 %
624 08-04-2019 04:45:18 10.6 C 35 %
625 08-04-2019 04:57:18 10.5 C 35 %
Sensor: Nr:Datum:Temp:Feuchte:
Aussen-T/F 626 08-04-2019 05:09:18 10.5 C 36 %
627 08-04-2019 05:21:17 10.5 C 36 %
628 08-04-2019 05:33:17 10.4 C 36 %
629 08-04-2019 05:45:17 10.4 C 36 %
630 08-04-2019 05:57:17 10.4 C 37 %
631 08-04-2019 06:09:18 10.2 C 37 %
632 08-04-2019 06:21:17 10 C 38 %
633 08-04-2019 06:33:18 9.7 C 39 %
634 08-04-2019 06:45:17 9.5 C 40 %
635 08-04-2019 06:57:17 9.2 C 40 %
636 08-04-2019 07:09:17 9 C 41 %
637 08-04-2019 07:21:17 9 C 42 %
638 08-04-2019 07:33:17 9.1 C 43 %
639 08-04-2019 07:45:18 9.4 C 44 %
640 08-04-2019 07:57:18 9.9 C 44 %
641 08-04-2019 08:09:17 9.8 C 43 %
642 08-04-2019 08:21:17 9.9 C 43 %
643 08-04-2019 08:33:17 10.5 C 43 %
644 08-04-2019 08:45:18 11.1 C 40 %
645 08-04-2019 08:57:18 11.4 C 36 %
646 08-04-2019 09:09:17 11.5 C 36 %
647 08-04-2019 09:21:17 11.7 C 32 %
648 08-04-2019 09:33:17 11.6 C 32 %
649 08-04-2019 09:45:17 11.8 C 32 %
650 08-04-2019 09:57:17 12.2 C 30 %
Sensor: Nr:Datum:Temp:Feuchte:
Aussen-T/F 651 08-04-2019 10:09:17 12.8 C 29 %
652 08-04-2019 10:21:17 12.9 C 27 %
653 08-04-2019 10:33:17 13.1 C 26 %
654 08-04-2019 10:45:17 13.2 C 26 %
655 08-04-2019 10:57:17 13.4 C 26 %
656 08-04-2019 11:09:17 13.7 C 26 %
657 08-04-2019 11:21:17 13.6 C 25 %
658 08-04-2019 11:33:17 13.6 C 25 %
659 08-04-2019 11:45:17 13.4 C 25 %
660 08-04-2019 11:57:17 13.3 C 26 %
661 08-04-2019 12:09:17 13 C 26 %
662 08-04-2019 12:21:18 13 C 26 %
663 08-04-2019 12:33:18 13.1 C 27 %
664 08-04-2019 12:45:17 13.2 C 27 %
665 08-04-2019 12:57:17 13.1 C 27 %
666 08-04-2019 13:09:17 13.3 C 27 %
667 08-04-2019 13:21:17 13.4 C 27 %
668 08-04-2019 13:33:17 13.8 C 26 %
669 08-04-2019 13:45:17 14.4 C 25 %
670 08-04-2019 13:57:17 15 C 21 %
671 08-04-2019 14:09:17 15.6 C 21 %
672 08-04-2019 14:21:17 16 C 20 %
673 08-04-2019 14:33:17 16.7 C 20 %
674 08-04-2019 14:45:17 17 C 20 %
675 08-04-2019 14:57:17 16.5 C 20 %
Sensor: Nr:Datum:Temp:Feuchte:
Aussen-T/F 676 08-04-2019 15:09:17 17.1 C 20 %
677 08-04-2019 15:21:17 17.4 C 20 %
678 08-04-2019 15:33:18 17.7 C 20 %
679 08-04-2019 15:45:18 18.7 C 20 %
680 08-04-2019 15:57:18 17.7 C 20 %
681 08-04-2019 16:09:17 17.8 C 20 %
682 08-04-2019 16:21:17 17.5 C 20 %
683 08-04-2019 16:33:17 17.1 C 20 %
684 08-04-2019 16:45:17 16.3 C 20 %
685 08-04-2019 16:57:17 15.5 C 20 %
686 08-04-2019 17:09:17 13.7 C 30 %
687 08-04-2019 17:21:17 13.6 C 36 %
688 08-04-2019 17:33:18 13.4 C 40 %
689 08-04-2019 17:45:17 13.4 C 40 %
690 08-04-2019 17:57:17 13.6 C 40 %
691 08-04-2019 18:09:17 13.7 C 40 %
692 08-04-2019 18:21:17 13.8 C 33 %
693 08-04-2019 18:33:17 13.8 C 35 %
694 08-04-2019 18:45:17 14 C 35 %
695 08-04-2019 18:57:17 13.8 C 35 %
696 08-04-2019 19:09:18 13.5 C 35 %
697 08-04-2019 19:21:17 13.2 C 35 %
698 08-04-2019 19:33:17 12.7 C 36 %
699 08-04-2019 19:45:17 12.5 C 40 %
700 08-04-2019 19:57:17 12.4 C 40 %
Sensor: Nr:Datum:Temp:Feuchte:
Aussen-T/F 701 08-04-2019 20:09:17 12.2 C 41 %
702 08-04-2019 20:21:17 12.5 C 40 %
703 08-04-2019 20:33:17 12.1 C 40 %
704 08-04-2019 20:45:17 12 C 41 %
705 08-04-2019 20:57:17 11.4 C 46 %
706 08-04-2019 21:09:17 11 C 48 %
707 08-04-2019 21:21:17 10.7 C 50 %
708 08-04-2019 21:33:18 10.5 C 51 %
709 08-04-2019 21:45:18 10.6 C 51 %
710 08-04-2019 21:57:18 10.5 C 51 %
711 08-04-2019 22:09:18 10.4 C 51 %
712 08-04-2019 22:21:17 10.4 C 51 %
713 08-04-2019 22:33:17 10.4 C 51 %
714 08-04-2019 22:45:17 10.5 C 51 %
715 08-04-2019 22:57:17 10.4 C 50 %
716 08-04-2019 23:09:17 10.4 C 51 %
717 08-04-2019 23:21:17 10.4 C 51 %
718 08-04-2019 23:33:17 10.4 C 50 %
719 08-04-2019 23:45:17 10.1 C 50 %
720 08-04-2019 23:57:17 9.8 C 50 %
721 09-04-2019 00:09:17 9.5 C 50 %
722 09-04-2019 00:21:17 9.5 C 50 %
723 09-04-2019 00:33:17 9.3 C 51 %
724 09-04-2019 00:45:18 9 C 51 %
725 09-04-2019 00:57:18 9 C 51 %
Sensor: Nr:Datum:Temp:Feuchte:
Aussen-T/F 726 09-04-2019 01:09:18 9.3 C 53 %
727 09-04-2019 01:21:17 9.5 C 55 %
728 09-04-2019 01:33:17 9.6 C 56 %
729 09-04-2019 01:45:17 9.8 C 58 %
730 09-04-2019 01:57:17 9.7 C 58 %
731 09-04-2019 02:09:17 9.7 C 59 %
732 09-04-2019 02:21:17 9.9 C 61 %
733 09-04-2019 02:33:17 9.9 C 62 %
734 09-04-2019 02:45:17 9.8 C 60 %
735 09-04-2019 02:57:17 9.7 C 60 %
736 09-04-2019 03:09:17 9.6 C 59 %
737 09-04-2019 03:21:17 9.5 C 58 %
738 09-04-2019 03:33:17 9.2 C 56 %
739 09-04-2019 03:45:17 9 C 57 %
740 09-04-2019 03:57:17 9.1 C 61 %
741 09-04-2019 04:09:18 9.3 C 64 %
742 09-04-2019 04:21:17 9.2 C 62 %
743 09-04-2019 04:33:17 8.6 C 58 %
744 09-04-2019 04:45:17 8.4 C 58 %
745 09-04-2019 04:57:17 8.3 C 58 %
746 09-04-2019 05:09:17 8.1 C 60 %
747 09-04-2019 05:21:17 7.9 C 61 %
748 09-04-2019 05:33:18 7.9 C 63 %
749 09-04-2019 05:45:18 8.1 C 65 %
750 09-04-2019 05:57:18 8.1 C 66 %
Sensor: Nr:Datum:Temp:Feuchte:
Aussen-T/F 751 09-04-2019 06:09:18 8.1 C 66 %
752 09-04-2019 06:21:18 8.2 C 67 %
753 09-04-2019 06:33:18 8.2 C 67 %
754 09-04-2019 06:45:18 8.4 C 68 %
755 09-04-2019 06:57:18 8.5 C 69 %
756 09-04-2019 07:09:17 8.6 C 68 %
757 09-04-2019 07:21:17 8.8 C 69 %
758 09-04-2019 07:33:18 9 C 68 %
759 09-04-2019 07:45:18 9.2 C 68 %
760 09-04-2019 07:57:18 9.3 C 67 %
761 09-04-2019 08:09:17 9.2 C 65 %
762 09-04-2019 08:21:17 9.5 C 65 %
763 09-04-2019 08:33:17 9.7 C 64 %
764 09-04-2019 08:45:17 10 C 64 %
765 09-04-2019 08:57:17 10.1 C 58 %
766 09-04-2019 09:09:17 10.5 C 54 %
767 09-04-2019 09:21:17 10.3 C 49 %
768 09-04-2019 09:33:17 10.5 C 47 %
769 09-04-2019 09:45:17 10.7 C 45 %
770 09-04-2019 09:57:17 11.1 C 43 %
771 09-04-2019 10:09:17 11.4 C 42 %
772 09-04-2019 10:21:17 11.6 C 40 %
773 09-04-2019 10:33:17 11.9 C 39 %
774 09-04-2019 10:45:17 11.7 C 36 %
775 09-04-2019 10:57:17 11.7 C 36 %
Sensor: Nr:Datum:Temp:Feuchte:
Aussen-T/F 776 09-04-2019 11:09:17 12 C 37 %
777 09-04-2019 11:21:17 12.2 C 36 %
778 09-04-2019 11:33:18 12.3 C 36 %
779 09-04-2019 11:45:17 12.5 C 36 %
780 09-04-2019 11:57:17 12.5 C 36 %
781 09-04-2019 12:09:17 13 C 34 %
782 09-04-2019 12:21:17 13.2 C 34 %
783 09-04-2019 12:33:17 14.1 C 30 %
784 09-04-2019 12:45:17 14.4 C 30 %
785 09-04-2019 12:57:17 15 C 27 %
786 09-04-2019 13:09:17 15.1 C 26 %
787 09-04-2019 13:21:17 15 C 26 %
788 09-04-2019 13:33:17 15.2 C 27 %
789 09-04-2019 13:45:17 16 C 25 %
790 09-04-2019 13:57:17 16.5 C 24 %
791 09-04-2019 14:09:17 16.5 C 22 %
792 09-04-2019 14:21:17 16.8 C 22 %
793 09-04-2019 14:33:17 17 C 20 %
794 09-04-2019 14:45:17 17.7 C 20 %
795 09-04-2019 14:57:17 17.4 C 20 %
796 09-04-2019 15:09:17 16.8 C 20 %
797 09-04-2019 15:21:18 16.4 C 20 %
798 09-04-2019 15:33:17 16.6 C 21 %
799 09-04-2019 15:45:17 16.4 C 20 %
800 09-04-2019 15:57:17 16.4 C 21 %
Sensor: Nr:Datum:Temp:Feuchte:
Aussen-T/F 801 09-04-2019 16:09:17 16.2 C 22 %
802 09-04-2019 16:21:17 16 C 23 %
803 09-04-2019 16:33:17 16.1 C 22 %
804 09-04-2019 16:45:17 16.3 C 22 %
805 09-04-2019 16:57:17 15.9 C 22 %
806 09-04-2019 17:09:17 15.8 C 24 %
807 09-04-2019 17:21:17 15.7 C 25 %
808 09-04-2019 17:33:17 15.4 C 25 %
809 09-04-2019 17:45:17 15.2 C 25 %
810 09-04-2019 17:57:18 14.9 C 28 %
811 09-04-2019 18:09:17 14.8 C 30 %
812 09-04-2019 18:21:17 14.8 C 31 %
813 09-04-2019 18:33:17 14.8 C 31 %
814 09-04-2019 18:45:17 14.7 C 31 %
815 09-04-2019 18:57:17 14.5 C 31 %
816 09-04-2019 19:09:17 14.2 C 30 %
817 09-04-2019 19:21:17 14 C 30 %
818 09-04-2019 19:33:18 13.8 C 30 %
819 09-04-2019 19:45:17 14 C 27 %
820 09-04-2019 19:57:17 13.6 C 27 %
821 09-04-2019 20:09:17 13.6 C 27 %
822 09-04-2019 20:21:17 13.1 C 30 %
823 09-04-2019 20:33:17 12.8 C 31 %
824 09-04-2019 20:45:17 12.6 C 32 %
825 09-04-2019 20:57:17 12.3 C 33 %
Sensor: Nr:Datum:Temp:Feuchte:
Aussen-T/F 826 09-04-2019 21:09:17 12.1 C 34 %
827 09-04-2019 21:21:17 11.9 C 33 %
828 09-04-2019 21:33:17 11.7 C 31 %
829 09-04-2019 21:45:17 11.7 C 30 %
830 09-04-2019 21:57:17 11.8 C 32 %
831 09-04-2019 22:09:17 12 C 24 %
832 09-04-2019 22:21:18 12.3 C 20 %
833 09-04-2019 22:33:18 12.3 C 20 %
834 09-04-2019 22:45:18 12.2 C 20 %
835 09-04-2019 22:57:18 12 C 20 %
836 09-04-2019 23:09:18 12.1 C 20 %
837 09-04-2019 23:21:17 11.9 C 20 %
838 09-04-2019 23:33:17 11.8 C 20 %
839 09-04-2019 23:45:17 11.7 C 20 %
840 09-04-2019 23:57:17 11.1 C 20 %
841 10-04-2019 00:09:17 10.7 C 26 %
842 10-04-2019 00:21:17 10.1 C 30 %
843 10-04-2019 00:33:18 9.8 C 31 %
844 10-04-2019 00:45:17 10 C 28 %
845 10-04-2019 00:57:17 9.9 C 28 %
846 10-04-2019 01:09:17 10.2 C 25 %
847 10-04-2019 01:21:17 10.2 C 25 %
848 10-04-2019 01:33:17 10.2 C 22 %
849 10-04-2019 01:45:17 10.1 C 25 %
850 10-04-2019 01:57:17 9.7 C 28 %
Sensor: Nr:Datum:Temp:Feuchte:
Aussen-T/F 851 10-04-2019 02:09:17 9.4 C 29 %
852 10-04-2019 02:21:17 9.5 C 28 %
853 10-04-2019 02:33:18 9.5 C 29 %
854 10-04-2019 02:45:17 9.5 C 27 %
855 10-04-2019 02:57:17 9.5 C 27 %
856 10-04-2019 03:09:17 9.6 C 26 %
857 10-04-2019 03:21:17 9.5 C 25 %
858 10-04-2019 03:33:17 9.4 C 25 %
859 10-04-2019 03:45:17 9.1 C 27 %
860 10-04-2019 03:57:17 8.8 C 27 %
861 10-04-2019 04:09:17 8.3 C 30 %
862 10-04-2019 04:21:17 7.9 C 31 %
863 10-04-2019 04:33:17 7.5 C 34 %
864 10-04-2019 04:45:17 7.3 C 35 %
865 10-04-2019 04:57:17 7.1 C 36 %
866 10-04-2019 05:09:17 7.1 C 35 %
867 10-04-2019 05:21:17 6.9 C 35 %
868 10-04-2019 05:33:17 6.4 C 36 %
869 10-04-2019 05:45:17 6.1 C 37 %
870 10-04-2019 05:57:17 5.8 C 39 %
871 10-04-2019 06:09:18 5.9 C 40 %
872 10-04-2019 06:21:17 5.8 C 40 %
873 10-04-2019 06:33:17 5.8 C 38 %
874 10-04-2019 06:45:17 5.9 C 36 %
875 10-04-2019 06:57:17 5.8 C 36 %
Sensor: Nr:Datum:Temp:Feuchte:
Aussen-T/F 876 10-04-2019 07:09:17 5.9 C 35 %
877 10-04-2019 07:21:17 6.1 C 34 %
878 10-04-2019 07:33:17 6.2 C 33 %
879 10-04-2019 07:45:17 6.4 C 34 %
880 10-04-2019 07:57:17 6.8 C 29 %
881 10-04-2019 08:09:17 7.2 C 25 %
882 10-04-2019 08:21:17 7.6 C 20 %
883 10-04-2019 08:33:18 7.9 C 20 %
884 10-04-2019 08:45:17 8 C 20 %
885 10-04-2019 08:57:18 8.1 C 20 %
886 10-04-2019 09:09:18 8.2 C 20 %
887 10-04-2019 09:21:17 8.3 C 20 %
888 10-04-2019 09:33:17 8.4 C 20 %
889 10-04-2019 09:45:17 8.7 C 20 %
890 10-04-2019 09:57:17 8.9 C 20 %
891 10-04-2019 10:09:17 9.4 C 20 %
892 10-04-2019 10:21:17 9.4 C 20 %
893 10-04-2019 10:33:17 9.6 C 20 %
894 10-04-2019 10:45:17 10.2 C 20 %
895 10-04-2019 10:57:17 10.8 C 20 %
896 10-04-2019 11:09:17 11.4 C 20 %
897 10-04-2019 11:21:17 11.5 C 20 %
898 10-04-2019 11:33:18 12.2 C 20 %
899 10-04-2019 11:45:18 12.3 C 20 %
900 10-04-2019 11:57:18 12.5 C 20 %
Sensor: Nr:Datum:Temp:Feuchte:
Aussen-T/F 901 10-04-2019 12:09:17 12.4 C 20 %
902 10-04-2019 12:21:17 12.5 C 20 %
903 10-04-2019 12:33:17 12.8 C 20 %
904 10-04-2019 12:45:17 13 C 20 %
905 10-04-2019 12:57:17 13.2 C 20 %
906 10-04-2019 13:09:17 13.5 C 20 %
907 10-04-2019 13:21:17 13.6 C 20 %
908 10-04-2019 13:33:18 14.1 C 20 %
909 10-04-2019 13:45:17 14.1 C 20 %
910 10-04-2019 13:57:17 14.1 C 20 %
911 10-04-2019 14:09:17 13.8 C 20 %
912 10-04-2019 14:21:17 14 C 20 %
913 10-04-2019 14:33:17 14.4 C 20 %
914 10-04-2019 14:45:17 14.8 C 20 %
915 10-04-2019 14:57:17 15 C 20 %
916 10-04-2019 15:09:17 15.2 C 20 %
917 10-04-2019 15:21:17 15.4 C 20 %
918 10-04-2019 15:33:17 15.4 C 20 %
919 10-04-2019 15:45:17 15.8 C 20 %
920 10-04-2019 15:57:17 15.8 C 20 %
921 10-04-2019 16:09:17 16.6 C 20 %
922 10-04-2019 16:21:17 16.3 C 20 %
923 10-04-2019 16:33:17 16.4 C 20 %
924 10-04-2019 16:45:17 16.5 C 20 %
925 10-04-2019 16:57:17 16.3 C 20 %
Sensor: Nr:Datum:Temp:Feuchte:
Aussen-T/F 926 10-04-2019 17:09:18 17.1 C 20 %
927 10-04-2019 17:21:17 17.1 C 20 %
928 10-04-2019 17:33:17 17.2 C 20 %
929 10-04-2019 17:45:17 16.3 C 20 %
930 10-04-2019 17:57:17 16.8 C 20 %
931 10-04-2019 18:09:17 16.7 C 20 %
932 10-04-2019 18:21:17 17 C 20 %
933 10-04-2019 18:33:17 16.7 C 20 %
934 10-04-2019 18:45:17 16.4 C 20 %
935 10-04-2019 18:57:18 16.3 C 20 %
936 10-04-2019 19:09:17 14.8 C 20 %
937 10-04-2019 19:21:17 14.2 C 20 %
938 10-04-2019 19:33:17 13.8 C 20 %
939 10-04-2019 19:45:17 13.5 C 20 %
940 10-04-2019 19:57:17 12.9 C 20 %
941 10-04-2019 20:09:17 11.8 C 20 %
942 10-04-2019 20:21:17 11.3 C 20 %
943 10-04-2019 20:33:17 10.1 C 20 %
944 10-04-2019 20:45:17 9.6 C 20 %
945 10-04-2019 20:57:17 9.3 C 20 %
946 10-04-2019 21:09:17 8.6 C 20 %
947 10-04-2019 21:21:18 8.2 C 20 %
948 10-04-2019 21:33:17 7.7 C 20 %
949 10-04-2019 21:45:17 7.4 C 20 %
950 10-04-2019 21:57:17 7.3 C 20 %
Sensor: Nr:Datum:Temp:Feuchte:
Aussen-T/F 951 10-04-2019 22:09:17 7.1 C 20 %
952 10-04-2019 22:21:17 6.6 C 20 %
953 10-04-2019 22:33:18 6.3 C 20 %
954 10-04-2019 22:45:17 6.3 C 21 %
955 10-04-2019 22:57:17 6.1 C 21 %
956 10-04-2019 23:09:17 5.8 C 23 %
957 10-04-2019 23:21:18 5.8 C 21 %
958 10-04-2019 23:33:18 5.8 C 21 %
959 10-04-2019 23:45:17 5.6 C 23 %
960 10-04-2019 23:57:17 5.4 C 25 %
961 11-04-2019 00:09:17 5.2 C 25 %
962 11-04-2019 00:21:17 5 C 25 %
963 11-04-2019 00:33:17 4.7 C 27 %
964 11-04-2019 00:45:17 5 C 23 %
965 11-04-2019 00:57:18 4.6 C 26 %
966 11-04-2019 01:09:18 4.3 C 26 %
967 11-04-2019 01:21:17 4.3 C 27 %
968 11-04-2019 01:33:17 4.3 C 27 %
969 11-04-2019 01:45:17 3.9 C 28 %
970 11-04-2019 01:57:17 3.9 C 27 %
971 11-04-2019 02:09:17 3.7 C 28 %
972 11-04-2019 02:21:17 3.5 C 30 %
973 11-04-2019 02:33:17 3.5 C 30 %
974 11-04-2019 02:45:17 3.4 C 29 %
975 11-04-2019 02:57:17 3.2 C 30 %
Sensor: Nr:Datum:Temp:Feuchte:
Aussen-T/F 976 11-04-2019 03:09:17 3.2 C 28 %
977 11-04-2019 03:21:17 3.1 C 28 %
978 11-04-2019 03:33:17 3 C 28 %
979 11-04-2019 03:45:17 2.7 C 30 %
980 11-04-2019 03:57:17 2.5 C 30 %
981 11-04-2019 04:09:17 2.1 C 31 %
982 11-04-2019 04:21:17 1.7 C 33 %
983 11-04-2019 04:33:17 1.5 C 35 %
984 11-04-2019 04:45:17 1.4 C 35 %
985 11-04-2019 04:57:17 1.3 C 36 %
986 11-04-2019 05:09:18 1.1 C 37 %
987 11-04-2019 05:21:17 1.3 C 37 %
988 11-04-2019 05:33:17 1.3 C 36 %
989 11-04-2019 05:45:18 1.1 C 36 %
990 11-04-2019 05:57:18 0.9 C 37 %
991 11-04-2019 06:09:17 0.8 C 38 %
992 11-04-2019 06:21:17 0.6 C 38 %
993 11-04-2019 06:33:17 0.6 C 40 %
994 11-04-2019 06:45:17 0.6 C 40 %
995 11-04-2019 06:57:17 0.3 C 39 %
996 11-04-2019 07:09:17 0.3 C 40 %
997 11-04-2019 07:21:17 0.2 C 41 %
998 11-04-2019 07:33:17 0.2 C 42 %
999 11-04-2019 07:45:17 0.4 C 42 %
1000 11-04-2019 07:57:17 0.8 C 41 %
Sensor: Nr:Datum:Temp:Feuchte:
Aussen-T/F 1001 11-04-2019 08:09:17 1 C 39 %
1002 11-04-2019 08:21:18 1.1 C 38 %
1003 11-04-2019 08:33:18 1.3 C 38 %
1004 11-04-2019 08:45:18 1.5 C 38 %
1005 11-04-2019 08:57:18 2 C 36 %
1006 11-04-2019 09:09:17 2.4 C 32 %
1007 11-04-2019 09:21:17 4 C 20 %
1008 11-04-2019 09:33:17 4.4 C 20 %
1009 11-04-2019 09:45:17 5 C 20 %
1010 11-04-2019 09:57:17 5.4 C 20 %
1011 11-04-2019 10:09:17 6.1 C 20 %
1012 11-04-2019 10:21:17 7.2 C 20 %
1013 11-04-2019 10:33:17 6.9 C 20 %
1014 11-04-2019 10:45:17 7.3 C 20 %
1015 11-04-2019 10:57:17 7.5 C 20 %
1016 11-04-2019 11:09:17 8.7 C 20 %
1017 11-04-2019 11:21:17 8 C 20 %
1018 11-04-2019 11:33:17 8.8 C 20 %
1019 11-04-2019 11:45:17 8.7 C 20 %
1020 11-04-2019 11:57:17 9 C 20 %
1021 11-04-2019 12:09:17 9.1 C 20 %
1022 11-04-2019 12:21:17 9 C 20 %
1023 11-04-2019 12:33:17 9 C 20 %
1024 11-04-2019 12:45:17 8.9 C 20 %
1025 11-04-2019 12:57:17 9.2 C 20 %
Sensor: Nr:Datum:Temp:Feuchte:
Aussen-T/F 1026 11-04-2019 13:09:17 9.4 C 20 %
1027 11-04-2019 13:21:18 9.6 C 20 %
1028 11-04-2019 13:33:18 9.7 C 20 %
1029 11-04-2019 13:45:18 9.9 C 20 %
1030 11-04-2019 13:57:18 10.1 C 20 %
1031 11-04-2019 14:09:18 10.7 C 20 %
1032 11-04-2019 14:21:17 10.4 C 20 %
1033 11-04-2019 14:33:17 11.1 C 20 %
1034 11-04-2019 14:45:17 11.3 C 20 %
1035 11-04-2019 14:57:17 11.8 C 20 %
1036 11-04-2019 15:09:17 12.2 C 20 %
1037 11-04-2019 15:21:17 12 C 20 %
1038 11-04-2019 15:33:17 12.7 C 20 %
1039 11-04-2019 15:45:17 12.1 C 20 %
1040 11-04-2019 15:57:17 12.5 C 20 %
1041 11-04-2019 16:09:17 12.9 C 20 %
1042 11-04-2019 16:21:18 12.7 C 20 %
1043 11-04-2019 16:33:18 13.1 C 20 %
1044 11-04-2019 16:45:18 13 C 20 %
1045 11-04-2019 16:57:18 12.8 C 20 %
1046 11-04-2019 17:09:17 13 C 20 %
1047 11-04-2019 17:21:17 13.1 C 20 %
1048 11-04-2019 17:33:18 13.7 C 20 %
1049 11-04-2019 17:45:17 13 C 20 %
1050 11-04-2019 17:57:18 13.9 C 20 %
Sensor: Nr:Datum:Temp:Feuchte:
Aussen-T/F 1051 11-04-2019 18:09:17 13.3 C 20 %
1052 11-04-2019 18:21:17 13.3 C 20 %
1053 11-04-2019 18:33:17 14.1 C 20 %
1054 11-04-2019 18:45:17 15.7 C 20 %
1055 11-04-2019 18:57:17 14.4 C 20 %
1056 11-04-2019 19:09:17 12.5 C 20 %
1057 11-04-2019 19:21:17 11.8 C 20 %
1058 11-04-2019 19:33:17 11.2 C 20 %
1059 11-04-2019 19:45:17 10.7 C 20 %
1060 11-04-2019 19:57:17 10.2 C 20 %
1061 11-04-2019 20:09:18 9.4 C 20 %
1062 11-04-2019 20:21:17 8.4 C 20 %
1063 11-04-2019 20:33:17 7.2 C 20 %
1064 11-04-2019 20:45:17 6.7 C 20 %
1065 11-04-2019 20:57:17 6.2 C 20 %
1066 11-04-2019 21:09:17 6 C 20 %
1067 11-04-2019 21:21:17 5.6 C 20 %
1068 11-04-2019 21:33:18 5.4 C 20 %
1069 11-04-2019 21:45:17 5.1 C 20 %
1070 11-04-2019 21:57:18 5 C 20 %
1071 11-04-2019 22:09:18 4.8 C 20 %
1072 11-04-2019 22:21:17 4.6 C 20 %
1073 11-04-2019 22:33:17 4.5 C 20 %
1074 11-04-2019 22:45:17 4.3 C 20 %
1075 11-04-2019 22:57:17 5.6 C 20 %
Sensor: Nr:Datum:Temp:Feuchte:
Aussen-T/F 1076 11-04-2019 23:09:17 5.2 C 20 %
1077 11-04-2019 23:21:17 5.8 C 20 %
1078 11-04-2019 23:33:17 4.5 C 20 %
1079 11-04-2019 23:45:17 4.2 C 20 %
1080 11-04-2019 23:57:17 4.1 C 20 %
1081 12-04-2019 00:09:17 3.6 C 20 %
1082 12-04-2019 00:21:17 3.8 C 20 %
1083 12-04-2019 00:33:17 4 C 20 %
1084 12-04-2019 00:45:17 3.8 C 20 %
1085 12-04-2019 00:57:17 3.6 C 20 %
1086 12-04-2019 01:09:17 3.4 C 20 %
1087 12-04-2019 01:21:17 2.5 C 20 %
1088 12-04-2019 01:33:18 1.9 C 20 %
1089 12-04-2019 01:45:17 2.4 C 20 %
1090 12-04-2019 01:57:17 1.8 C 20 %
1091 12-04-2019 02:09:17 1.5 C 20 %
1092 12-04-2019 02:21:17 1.4 C 20 %
1093 12-04-2019 02:33:18 1.1 C 20 %
1094 12-04-2019 02:45:17 0.9 C 20 %
1095 12-04-2019 02:57:18 0.8 C 20 %
1096 12-04-2019 03:09:18 0.9 C 20 %
1097 12-04-2019 03:21:17 0.8 C 20 %
1098 12-04-2019 03:33:17 0.9 C 20 %
1099 12-04-2019 03:45:17 0.9 C 20 %
1100 12-04-2019 03:57:17 0.8 C 20 %
Sensor: Nr:Datum:Temp:Feuchte:
Aussen-T/F 1101 12-04-2019 04:09:17 1.3 C 20 %
1102 12-04-2019 04:21:17 1.4 C 20 %
1103 12-04-2019 04:33:17 1.9 C 20 %
1104 12-04-2019 04:45:18 2 C 20 %
1105 12-04-2019 04:57:18 2.1 C 20 %
1106 12-04-2019 05:09:17 2.2 C 20 %
1107 12-04-2019 05:21:17 2.2 C 20 %
1108 12-04-2019 05:33:17 2.2 C 20 %
1109 12-04-2019 05:45:17 2.3 C 20 %
1110 12-04-2019 05:57:17 2.3 C 20 %
1111 12-04-2019 06:09:18 2.4 C 20 %
1112 12-04-2019 06:21:17 2.4 C 20 %
1113 12-04-2019 06:33:18 2.5 C 20 %
1114 12-04-2019 06:45:17 2.5 C 20 %
1115 12-04-2019 06:57:17 2.4 C 20 %
1116 12-04-2019 07:09:17 2.5 C 20 %
1117 12-04-2019 07:21:17 2.9 C 20 %
1118 12-04-2019 07:33:17 3.3 C 20 %
1119 12-04-2019 07:45:17 3.8 C 20 %
1120 12-04-2019 07:57:17 4 C 20 %
1121 12-04-2019 08:09:17 4.1 C 20 %
1122 12-04-2019 08:21:18 4.2 C 20 %
1123 12-04-2019 08:33:18 4.4 C 20 %
1124 12-04-2019 08:45:17 4.5 C 20 %
1125 12-04-2019 08:57:17 4.6 C 20 %
Sensor: Nr:Datum:Temp:Feuchte:
Aussen-T/F 1126 12-04-2019 09:09:17 4.6 C 20 %
1127 12-04-2019 09:21:17 4.7 C 20 %
1128 12-04-2019 09:33:18 4.7 C 20 %
1129 12-04-2019 09:45:17 5 C 20 %
1130 12-04-2019 09:57:17 5 C 20 %
1131 12-04-2019 10:09:17 5.2 C 20 %
1132 12-04-2019 10:21:17 5.3 C 20 %
1133 12-04-2019 10:33:17 5.6 C 20 %
1134 12-04-2019 10:45:17 5.5 C 20 %
1135 12-04-2019 10:57:17 5.5 C 20 %
1136 12-04-2019 11:09:17 5.7 C 20 %
1137 12-04-2019 11:21:17 6 C 20 %
1138 12-04-2019 11:33:18 6.1 C 20 %
1139 12-04-2019 11:45:17 6.2 C 20 %
1140 12-04-2019 11:57:17 6.7 C 20 %
1141 12-04-2019 12:09:17 7.6 C 20 %
1142 12-04-2019 12:21:17 6.9 C 20 %
1143 12-04-2019 12:33:17 7.4 C 20 %
1144 12-04-2019 12:45:17 7.4 C 20 %
1145 12-04-2019 12:57:17 7.6 C 20 %
1146 12-04-2019 13:09:17 7.5 C 20 %
1147 12-04-2019 13:21:17 7.8 C 20 %
1148 12-04-2019 13:33:18 7.2 C 20 %
1149 12-04-2019 13:45:18 7.4 C 20 %
1150 12-04-2019 13:57:18 7.4 C 20 %
Sensor: Nr:Datum:Temp:Feuchte:
Aussen-T/F 1151 12-04-2019 14:09:17 7.6 C 20 %
1152 12-04-2019 14:21:17 7.6 C 20 %
1153 12-04-2019 14:33:17 7.6 C 20 %
1154 12-04-2019 14:45:17 7.5 C 20 %
1155 12-04-2019 14:57:17 8 C 20 %
1156 12-04-2019 15:09:17 7.9 C 20 %
1157 12-04-2019 15:21:17 7.8 C 20 %
1158 12-04-2019 15:33:18 8.1 C 20 %
1159 12-04-2019 15:45:18 7.5 C 20 %
1160 12-04-2019 15:57:18 7.5 C 20 %
1161 12-04-2019 16:09:17 7.5 C 20 %
1162 12-04-2019 16:21:17 7.4 C 20 %
1163 12-04-2019 16:33:17 7.1 C 20 %
1164 12-04-2019 16:45:17 6.9 C 20 %
1165 12-04-2019 16:57:17 7 C 20 %
1166 12-04-2019 17:09:17 7 C 20 %
1167 12-04-2019 17:21:18 7 C 20 %
1168 12-04-2019 17:33:17 6.9 C 20 %
1169 12-04-2019 17:45:17 6.9 C 20 %
1170 12-04-2019 17:57:17 6.9 C 20 %
1171 12-04-2019 18:09:17 6.6 C 20 %
1172 12-04-2019 18:21:17 6.5 C 20 %
1173 12-04-2019 18:33:17 6.5 C 20 %
1174 12-04-2019 18:45:17 6.5 C 20 %
1175 12-04-2019 18:57:17 6.5 C 20 %
Sensor: Nr:Datum:Temp:Feuchte:
Aussen-T/F 1176 12-04-2019 19:09:17 6.4 C 20 %
1177 12-04-2019 19:21:17 6.2 C 20 %
1178 12-04-2019 19:33:18 6.1 C 20 %
1179 12-04-2019 19:45:17 6 C 20 %
1180 12-04-2019 19:57:17 5.9 C 20 %
1181 12-04-2019 20:09:17 5.8 C 20 %
1182 12-04-2019 20:21:17 5.8 C 20 %
1183 12-04-2019 20:33:17 5.5 C 20 %
1184 12-04-2019 20:45:17 5.5 C 20 %
1185 12-04-2019 20:57:17 5.3 C 20 %
1186 12-04-2019 21:09:18 5.3 C 20 %
1187 12-04-2019 21:21:17 5.1 C 20 %
1188 12-04-2019 21:33:17 5.1 C 20 %
1189 12-04-2019 21:45:17 4.9 C 20 %
1190 12-04-2019 21:57:17 4.3 C 20 %
1191 12-04-2019 22:09:17 3.8 C 20 %
1192 12-04-2019 22:21:17 3.6 C 20 %
1193 12-04-2019 22:33:18 3.5 C 20 %
1194 12-04-2019 22:45:17 3.1 C 20 %
1195 12-04-2019 22:57:18 3.1 C 20 %
1196 12-04-2019 23:09:18 2.9 C 20 %
1197 12-04-2019 23:21:17 3.2 C 20 %
1198 12-04-2019 23:33:17 3 C 20 %
1199 12-04-2019 23:45:17 2.6 C 20 %
1200 12-04-2019 23:57:17 2.3 C 20 %
Sensor: Nr:Datum:Temp:Feuchte:
Aussen-T/F 1201 13-04-2019 00:09:17 2.2 C 20 %
1202 13-04-2019 00:21:17 2.2 C 20 %
1203 13-04-2019 00:33:18 2.2 C 20 %
1204 13-04-2019 00:45:18 2.2 C 20 %
1205 13-04-2019 00:57:18 2.4 C 20 %
1206 13-04-2019 01:09:18 2.5 C 20 %
1207 13-04-2019 01:21:17 2.2 C 20 %
1208 13-04-2019 01:33:17 2.1 C 20 %
1209 13-04-2019 01:45:17 2.2 C 20 %
1210 13-04-2019 01:57:17 2.2 C 20 %
1211 13-04-2019 02:09:17 2 C 20 %
1212 13-04-2019 02:21:18 2.1 C 20 %
1213 13-04-2019 02:33:17 2.1 C 20 %
1214 13-04-2019 02:45:17 1.5 C 20 %
1215 13-04-2019 02:57:17 1.5 C 23 %
1216 13-04-2019 03:09:17 1.6 C 21 %
1217 13-04-2019 03:21:17 1.6 C 20 %
1218 13-04-2019 03:33:17 1.7 C 21 %
1219 13-04-2019 03:45:17 1.8 C 20 %
1220 13-04-2019 03:57:17 1.7 C 21 %
1221 13-04-2019 04:09:17 2.2 C 20 %
1222 13-04-2019 04:21:17 2.2 C 20 %
1223 13-04-2019 04:33:17 2.1 C 20 %
1224 13-04-2019 04:45:17 2.3 C 20 %
1225 13-04-2019 04:57:17 2.6 C 20 %
Sensor: Nr:Datum:Temp:Feuchte:
Aussen-T/F 1226 13-04-2019 05:09:18 2.1 C 20 %
1227 13-04-2019 05:21:17 2 C 20 %
1228 13-04-2019 05:33:17 1.7 C 21 %
1229 13-04-2019 05:45:17 1.6 C 23 %
1230 13-04-2019 05:57:17 1.5 C 25 %
1231 13-04-2019 06:09:17 1.8 C 23 %
1232 13-04-2019 06:21:18 1.8 C 25 %
1233 13-04-2019 06:33:18 1.6 C 28 %
1234 13-04-2019 06:45:17 1.6 C 28 %
1235 13-04-2019 06:57:17 2 C 21 %
1236 13-04-2019 07:09:17 1.8 C 25 %
1237 13-04-2019 07:21:17 2 C 23 %
1238 13-04-2019 07:33:17 2.2 C 20 %
1239 13-04-2019 07:45:17 2.4 C 20 %
1240 13-04-2019 07:57:17 2.5 C 20 %
1241 13-04-2019 08:09:17 2.7 C 20 %
1242 13-04-2019 08:21:17 3 C 20 %
1243 13-04-2019 08:33:17 3 C 20 %
1244 13-04-2019 08:45:17 3 C 20 %
1245 13-04-2019 08:57:17 3.3 C 20 %
1246 13-04-2019 09:09:17 3.3 C 20 %
1247 13-04-2019 09:21:17 3.4 C 20 %
1248 13-04-2019 09:33:17 3.5 C 20 %
1249 13-04-2019 09:45:18 3.3 C 20 %
1250 13-04-2019 09:57:18 3.6 C 20 %
Sensor: Nr:Datum:Temp:Feuchte:
Aussen-T/F 1251 13-04-2019 10:09:17 4.2 C 20 %
1252 13-04-2019 10:21:17 5.2 C 20 %
1253 13-04-2019 10:33:17 5.2 C 20 %
1254 13-04-2019 10:45:17 5.1 C 20 %
1255 13-04-2019 10:57:17 5.2 C 20 %
1256 13-04-2019 11:09:17 5.3 C 20 %
1257 13-04-2019 11:21:17 5.1 C 20 %
1258 13-04-2019 11:33:18 5.3 C 20 %
1259 13-04-2019 11:45:18 6 C 20 %
1260 13-04-2019 11:57:18 5.7 C 20 %
1261 13-04-2019 12:09:18 5.5 C 20 %
1262 13-04-2019 12:21:17 6.4 C 20 %
1263 13-04-2019 12:33:17 7.3 C 20 %
1264 13-04-2019 12:45:17 6.4 C 20 %
1265 13-04-2019 12:57:17 6.4 C 20 %
1266 13-04-2019 13:09:17 5.5 C 20 %
1267 13-04-2019 13:21:17 6.6 C 20 %
1268 13-04-2019 13:33:17 6.4 C 20 %
1269 13-04-2019 13:45:17 5.6 C 20 %
1270 13-04-2019 13:57:17 5.8 C 20 %
1271 13-04-2019 14:09:17 6.3 C 20 %
1272 13-04-2019 14:21:17 6 C 20 %
1273 13-04-2019 14:33:18 3.7 C 25 %
1274 13-04-2019 14:45:17 4.3 C 26 %
1275 13-04-2019 14:57:17 4.8 C 20 %
Sensor: Nr:Datum:Temp:Feuchte:
Aussen-T/F 1276 13-04-2019 15:09:17 4.8 C 20 %
1277 13-04-2019 15:21:17 6.4 C 20 %
1278 13-04-2019 15:33:17 8.2 C 20 %
1279 13-04-2019 15:45:17 6.9 C 20 %
1280 13-04-2019 15:57:17 7.1 C 20 %
1281 13-04-2019 16:09:17 7.3 C 20 %
1282 13-04-2019 16:21:17 7.3 C 20 %
1283 13-04-2019 16:33:18 6.7 C 20 %
1284 13-04-2019 16:45:18 6.4 C 20 %
1285 13-04-2019 16:57:18 4.1 C 26 %
1286 13-04-2019 17:09:18 3.5 C 36 %
1287 13-04-2019 17:21:17 3.8 C 36 %
1288 13-04-2019 17:33:17 4.5 C 32 %
1289 13-04-2019 17:45:17 6 C 25 %
1290 13-04-2019 17:57:17 6.8 C 20 %
1291 13-04-2019 18:09:18 8.8 C 20 %
1292 13-04-2019 18:21:17 7.4 C 20 %
1293 13-04-2019 18:33:17 4.7 C 26 %
1294 13-04-2019 18:45:17 4.6 C 29 %
1295 13-04-2019 18:57:17 5.1 C 20 %
1296 13-04-2019 19:09:17 5.6 C 20 %
1297 13-04-2019 19:21:17 5.1 C 20 %
1298 13-04-2019 19:33:17 5.1 C 23 %
1299 13-04-2019 19:45:17 4.8 C 26 %
1300 13-04-2019 19:57:17 4.5 C 28 %
Sensor: Nr:Datum:Temp:Feuchte:
Aussen-T/F 1301 13-04-2019 20:09:17 4.1 C 30 %
1302 13-04-2019 20:21:17 4.2 C 26 %
1303 13-04-2019 20:33:17 3.9 C 26 %
1304 13-04-2019 20:45:17 3.7 C 29 %
1305 13-04-2019 20:57:17 3.5 C 30 %
1306 13-04-2019 21:09:17 2.8 C 32 %
1307 13-04-2019 21:21:17 2.5 C 35 %
1308 13-04-2019 21:33:17 2.2 C 35 %
1309 13-04-2019 21:45:17 1.7 C 37 %
1310 13-04-2019 21:57:17 1.2 C 39 %
1311 13-04-2019 22:09:17 0.9 C 42 %
1312 13-04-2019 22:21:17 0.6 C 45 %
1313 13-04-2019 22:33:17 0.5 C 45 %
1314 13-04-2019 22:45:17 0.5 C 46 %
1315 13-04-2019 22:57:17 0.3 C 47 %
1316 13-04-2019 23:09:17 0.5 C 48 %
1317 13-04-2019 23:21:17 0.3 C 47 %
1318 13-04-2019 23:33:17 0 C 47 %
1319 13-04-2019 23:45:17 0.1 C 49 %
1320 13-04-2019 23:57:17 -0.2 C 49 %
1321 14-04-2019 00:09:18 -0.3 C 49 %
1322 14-04-2019 00:21:17 -0.5 C 49 %
1323 14-04-2019 00:33:17 -0.6 C 50 %
1324 14-04-2019 00:45:17 -0.6 C 51 %
1325 14-04-2019 00:57:17 -0.6 C 51 %
Sensor: Nr:Datum:Temp:Feuchte:
Aussen-T/F 1326 14-04-2019 01:09:17 -0.5 C 52 %
1327 14-04-2019 01:21:17 -0.2 C 52 %
1328 14-04-2019 01:33:17 0.1 C 53 %
1329 14-04-2019 01:45:17 0.5 C 53 %
1330 14-04-2019 01:57:17 0.6 C 52 %
1331 14-04-2019 02:09:18 0.9 C 51 %
1332 14-04-2019 02:21:17 1 C 49 %
1333 14-04-2019 02:33:17 1.1 C 48 %
1334 14-04-2019 02:45:17 1.1 C 47 %
1335 14-04-2019 02:57:17 1.1 C 46 %
1336 14-04-2019 03:09:18 1.2 C 46 %
1337 14-04-2019 03:22:17 1.2 C 45 %
1338 14-04-2019 03:33:17 1 C 45 %
1339 14-04-2019 03:45:17 1 C 47 %
1340 14-04-2019 03:57:17 1 C 48 %
1341 14-04-2019 04:09:17 1 C 48 %
1342 14-04-2019 04:21:17 1 C 48 %
1343 14-04-2019 04:33:17 1 C 49 %
1344 14-04-2019 04:45:17 1.1 C 50 %
1345 14-04-2019 04:57:17 1.2 C 50 %
1346 14-04-2019 05:09:17 1.2 C 50 %
1347 14-04-2019 05:21:17 1 C 50 %
1348 14-04-2019 05:33:17 0.7 C 50 %
1349 14-04-2019 05:45:17 0.4 C 51 %
1350 14-04-2019 05:57:17 0.3 C 51 %
Sensor: Nr:Datum:Temp:Feuchte:
Aussen-T/F 1351 14-04-2019 06:09:18 0.4 C 52 %
1352 14-04-2019 06:21:17 0.4 C 53 %
1353 14-04-2019 06:33:18 0.3 C 53 %
1354 14-04-2019 06:45:18 0.3 C 53 %
1355 14-04-2019 06:57:18 0.2 C 54 %
1356 14-04-2019 07:09:18 0.3 C 54 %
1357 14-04-2019 07:22:17 0.2 C 54 %
1358 14-04-2019 07:34:17 0.3 C 55 %
1359 14-04-2019 07:46:17 0.4 C 55 %
1360 14-04-2019 07:58:17 0.5 C 55 %
1361 14-04-2019 08:09:17 0.5 C 55 %
1362 14-04-2019 08:21:17 0.7 C 55 %
1363 14-04-2019 08:33:18 0.9 C 55 %
1364 14-04-2019 08:46:17 1.1 C 54 %
1365 14-04-2019 08:58:17 1.7 C 54 %
1366 14-04-2019 09:10:17 2 C 50 %
1367 14-04-2019 09:22:17 2.3 C 49 %
1368 14-04-2019 09:33:17 2.3 C 48 %
1369 14-04-2019 09:46:17 2.5 C 48 %
1370 14-04-2019 09:57:17 3.4 C 49 %
1371 14-04-2019 10:09:17 3.6 C 49 %
1372 14-04-2019 10:21:17 4.1 C 48 %
1373 14-04-2019 10:34:17 4.6 C 39 %
1374 14-04-2019 10:46:17 5.4 C 31 %
1375 14-04-2019 10:58:17 5.9 C 30 %
Sensor: Nr:Datum:Temp:Feuchte:
Aussen-T/F 1376 14-04-2019 11:10:17 7.5 C 27 %
1377 14-04-2019 11:22:17 6.3 C 26 %
1378 14-04-2019 11:34:17 6.3 C 21 %
1379 14-04-2019 11:46:17 7 C 20 %
1380 14-04-2019 11:58:17 7.1 C 20 %
1381 14-04-2019 12:10:17 7.3 C 20 %
1382 14-04-2019 12:22:17 8.4 C 20 %
1383 14-04-2019 12:34:17 8.2 C 20 %
1384 14-04-2019 12:46:17 8.5 C 20 %
1385 14-04-2019 12:58:17 8.4 C 20 %
1386 14-04-2019 13:09:17 8.7 C 20 %
1387 14-04-2019 13:22:17 8.5 C 20 %
1388 14-04-2019 13:34:17 9.2 C 20 %
1389 14-04-2019 13:46:17 9.7 C 20 %
1390 14-04-2019 13:58:17 9.7 C 20 %
1391 14-04-2019 14:10:17 10.3 C 20 %
1392 14-04-2019 14:21:18 10.6 C 20 %
1393 14-04-2019 14:33:18 10.6 C 20 %
1394 14-04-2019 14:46:17 10.9 C 20 %
1395 14-04-2019 14:58:17 11.1 C 20 %
1396 14-04-2019 15:10:17 11.8 C 20 %
1397 14-04-2019 15:21:17 11.7 C 20 %
1398 14-04-2019 15:33:18 11.8 C 20 %
1399 14-04-2019 15:45:18 12.1 C 20 %
1400 14-04-2019 15:57:18 11.5 C 20 %
Sensor: Nr:Datum:Temp:Feuchte:
Aussen-T/F 1401 14-04-2019 16:09:18 12.5 C 20 %
1402 14-04-2019 16:22:17 11.4 C 20 %
1403 14-04-2019 16:34:17 11.9 C 20 %
1404 14-04-2019 16:46:17 12.9 C 20 %
1405 14-04-2019 16:58:17 12 C 20 %
1406 14-04-2019 17:10:17 13.1 C 20 %
1407 14-04-2019 17:22:17 12.4 C 20 %
1408 14-04-2019 17:34:17 13.2 C 20 %
1409 14-04-2019 17:46:17 12.5 C 20 %
1410 14-04-2019 17:58:17 11.6 C 20 %
1411 14-04-2019 18:10:18 13.2 C 20 %
1412 14-04-2019 18:22:17 12.5 C 20 %
1413 14-04-2019 18:34:17 13.1 C 20 %
1414 14-04-2019 18:46:17 12.4 C 20 %
1415 14-04-2019 18:58:17 13.2 C 20 %
1416 14-04-2019 19:10:17 11.4 C 20 %
1417 14-04-2019 19:22:17 10.6 C 20 %
1418 14-04-2019 19:34:17 10 C 20 %
1419 14-04-2019 19:46:17 9.7 C 20 %
1420 14-04-2019 19:58:17 9.2 C 20 %
1421 14-04-2019 20:10:17 8.5 C 20 %
1422 14-04-2019 20:22:18 7.3 C 20 %
1423 14-04-2019 20:34:18 6.7 C 20 %
1424 14-04-2019 20:46:17 6.2 C 20 %
1425 14-04-2019 20:58:18 6.3 C 20 %
Sensor: Nr:Datum:Temp:Feuchte:
Aussen-T/F 1426 14-04-2019 21:10:17 5.9 C 20 %
1427 14-04-2019 21:22:17 5.2 C 20 %
1428 14-04-2019 21:34:17 5 C 21 %
1429 14-04-2019 21:46:17 4.4 C 26 %
1430 14-04-2019 21:58:17 4.3 C 27 %
1431 14-04-2019 22:10:17 4.1 C 28 %
1432 14-04-2019 22:22:17 4 C 29 %
1433 14-04-2019 22:34:17 3.7 C 31 %
1434 14-04-2019 22:46:17 3.4 C 31 %
1435 14-04-2019 22:58:17 3.4 C 31 %
1436 14-04-2019 23:10:17 3.4 C 32 %
1437 14-04-2019 23:22:17 3.2 C 32 %
1438 14-04-2019 23:34:17 3.2 C 33 %
1439 14-04-2019 23:46:17 3.4 C 34 %
1440 14-04-2019 23:58:17 3.3 C 33 %
1441 15-04-2019 00:10:17 3.3 C 33 %
1442 15-04-2019 00:22:17 3.5 C 33 %
1443 15-04-2019 00:34:17 3.3 C 34 %
1444 15-04-2019 00:46:17 3.6 C 35 %
1445 15-04-2019 00:58:17 4.1 C 35 %
1446 15-04-2019 01:10:17 4.2 C 35 %
1447 15-04-2019 01:22:17 4.7 C 32 %
1448 15-04-2019 01:34:17 4.9 C 31 %
1449 15-04-2019 01:46:17 5 C 31 %
1450 15-04-2019 01:58:17 5.2 C 30 %
Sensor: Nr:Datum:Temp:Feuchte:
Aussen-T/F 1451 15-04-2019 02:10:17 5.3 C 27 %
1452 15-04-2019 02:22:17 5.2 C 29 %
1453 15-04-2019 02:34:18 5.1 C 30 %
1454 15-04-2019 02:46:18 5 C 30 %
1455 15-04-2019 02:58:18 4.3 C 31 %
1456 15-04-2019 03:10:17 4 C 32 %
1457 15-04-2019 03:22:17 3.9 C 35 %
1458 15-04-2019 03:34:17 4.1 C 35 %
1459 15-04-2019 03:46:17 4.1 C 35 %
1460 15-04-2019 03:58:17 4.2 C 35 %
1461 15-04-2019 04:10:17 4.2 C 35 %
1462 15-04-2019 04:22:17 4.3 C 35 %
1463 15-04-2019 04:34:17 4.2 C 35 %
1464 15-04-2019 04:46:17 4 C 35 %
1465 15-04-2019 04:58:17 3.8 C 36 %
1466 15-04-2019 05:10:17 3.7 C 38 %
1467 15-04-2019 05:22:17 3.5 C 38 %
1468 15-04-2019 05:34:17 3.6 C 40 %
1469 15-04-2019 05:46:17 3.5 C 39 %
1470 15-04-2019 05:58:17 3.7 C 41 %
1471 15-04-2019 06:10:17 4 C 40 %
1472 15-04-2019 06:22:17 4.2 C 39 %
1473 15-04-2019 06:34:17 4.3 C 39 %
1474 15-04-2019 06:46:17 4.4 C 39 %
1475 15-04-2019 06:58:17 4.5 C 40 %
Sensor: Nr:Datum:Temp:Feuchte:
Aussen-T/F 1476 15-04-2019 07:10:17 4.7 C 40 %
1477 15-04-2019 07:22:17 4.9 C 40 %
1478 15-04-2019 07:34:17 5 C 38 %
1479 15-04-2019 07:46:17 5.2 C 36 %
1480 15-04-2019 07:58:17 5.3 C 35 %
1481 15-04-2019 08:10:18 5.6 C 34 %
1482 15-04-2019 08:22:17 5.8 C 33 %
1483 15-04-2019 08:34:17 6.3 C 31 %
1484 15-04-2019 08:46:17 6.5 C 30 %
1485 15-04-2019 08:58:17 7 C 29 %
1486 15-04-2019 09:10:17 7.4 C 27 %
1487 15-04-2019 09:22:17 7.3 C 27 %
1488 15-04-2019 09:34:18 7.5 C 26 %
1489 15-04-2019 09:46:17 7.3 C 26 %
1490 15-04-2019 09:58:17 8.3 C 25 %
1491 15-04-2019 10:10:17 7.9 C 21 %
1492 15-04-2019 10:22:17 8.6 C 20 %
1493 15-04-2019 10:34:17 8.6 C 21 %
1494 15-04-2019 10:46:17 9 C 20 %
1495 15-04-2019 10:58:17 9.7 C 20 %
1496 15-04-2019 11:10:17 11.4 C 20 %
1497 15-04-2019 11:22:17 12.2 C 20 %
1498 15-04-2019 11:34:17 11.7 C 20 %
1499 15-04-2019 11:46:17 11.7 C 20 %
1500 15-04-2019 11:58:17 12 C 20 %
Sensor: Nr:Datum:Temp:Feuchte:
Aussen-T/F 1501 15-04-2019 12:10:17 13 C 20 %
1502 15-04-2019 12:22:17 13.2 C 20 %
1503 15-04-2019 12:34:17 13.5 C 20 %
1504 15-04-2019 12:46:17 13.6 C 20 %
1505 15-04-2019 12:58:17 13.7 C 20 %
1506 15-04-2019 13:10:17 13.8 C 20 %
1507 15-04-2019 13:22:17 13.8 C 20 %
1508 15-04-2019 13:34:18 14.2 C 20 %
1509 15-04-2019 13:46:17 14.7 C 20 %
1510 15-04-2019 13:58:17 15.1 C 20 %
1511 15-04-2019 14:10:17 15.7 C 20 %
1512 15-04-2019 14:22:18 16.1 C 20 %
1513 15-04-2019 14:34:18 16.6 C 20 %
1514 15-04-2019 14:46:17 16.8 C 20 %
1515 15-04-2019 14:58:18 17.2 C 20 %
1516 15-04-2019 15:10:17 17.6 C 20 %
1517 15-04-2019 15:22:17 18 C 20 %
1518 15-04-2019 15:34:17 17.7 C 20 %
1519 15-04-2019 15:46:17 18.1 C 20 %
1520 15-04-2019 15:58:17 18.6 C 20 %
1521 15-04-2019 16:10:17 18.3 C 20 %
1522 15-04-2019 16:22:17 18.4 C 20 %
1523 15-04-2019 16:34:18 18.3 C 20 %
1524 15-04-2019 16:46:17 18.1 C 20 %
1525 15-04-2019 16:58:18 18.4 C 20 %
Sensor: Nr:Datum:Temp:Feuchte:
Aussen-T/F 1526 15-04-2019 17:10:18 18.8 C 20 %
1527 15-04-2019 17:22:17 19.3 C 20 %
1528 15-04-2019 17:34:17 19.7 C 20 %
1529 15-04-2019 17:46:17 19.5 C 20 %
1530 15-04-2019 17:58:17 19.8 C 20 %
1531 15-04-2019 18:10:17 19.6 C 20 %
1532 15-04-2019 18:22:17 20.4 C 20 %
1533 15-04-2019 18:34:17 20.6 C 20 %
1534 15-04-2019 18:46:17 20.3 C 20 %
1535 15-04-2019 18:58:17 20.7 C 20 %
1536 15-04-2019 19:10:17 18.8 C 20 %
1537 15-04-2019 19:22:17 17.6 C 20 %
1538 15-04-2019 19:34:18 17.5 C 20 %
1539 15-04-2019 19:46:18 16.8 C 20 %
1540 15-04-2019 19:58:18 16.5 C 20 %
1541 15-04-2019 20:10:17 13.5 C 20 %
1542 15-04-2019 20:22:17 12.7 C 20 %
1543 15-04-2019 20:34:17 12.1 C 20 %
1544 15-04-2019 20:46:17 11.8 C 20 %
1545 15-04-2019 20:58:17 11.7 C 20 %
1546 15-04-2019 21:10:17 11.3 C 20 %
1547 15-04-2019 21:22:17 10.9 C 20 %
1548 15-04-2019 21:34:17 10.4 C 20 %
1549 15-04-2019 21:46:17 10.1 C 20 %
1550 15-04-2019 21:58:17 10.1 C 20 %
Sensor: Nr:Datum:Temp:Feuchte:
Aussen-T/F 1551 15-04-2019 22:10:17 9.6 C 20 %
1552 15-04-2019 22:22:17 9.2 C 20 %
1553 15-04-2019 22:34:17 9.2 C 20 %
1554 15-04-2019 22:46:17 9.2 C 20 %
1555 15-04-2019 22:58:17 8.7 C 20 %
1556 15-04-2019 23:10:17 8.9 C 20 %
1557 15-04-2019 23:22:17 8.8 C 20 %
1558 15-04-2019 23:34:17 8.4 C 20 %
1559 15-04-2019 23:46:17 8.2 C 20 %
1560 15-04-2019 23:58:17 8 C 20 %
1561 16-04-2019 00:10:17 7.6 C 20 %
1562 16-04-2019 00:22:17 7.4 C 20 %
1563 16-04-2019 00:34:17 6.9 C 20 %
1564 16-04-2019 00:46:17 6.9 C 20 %
1565 16-04-2019 00:58:17 6.6 C 20 %
1566 16-04-2019 01:10:17 6.4 C 20 %
1567 16-04-2019 01:22:17 6.3 C 20 %
1568 16-04-2019 01:34:18 6 C 20 %
1569 16-04-2019 01:46:17 5.9 C 20 %
1570 16-04-2019 01:58:18 5.7 C 20 %
1571 16-04-2019 02:10:18 5.6 C 21 %
1572 16-04-2019 02:22:17 5.5 C 23 %
1573 16-04-2019 02:34:17 5.5 C 23 %
1574 16-04-2019 02:46:17 5.4 C 23 %
1575 16-04-2019 02:58:17 5.3 C 23 %
Sensor: Nr:Datum:Temp:Feuchte:
Aussen-T/F 1576 16-04-2019 03:10:17 5.3 C 25 %
1577 16-04-2019 03:22:17 5.4 C 20 %
1578 16-04-2019 03:34:17 5 C 23 %
1579 16-04-2019 03:46:17 4.9 C 25 %
1580 16-04-2019 03:58:17 5 C 20 %
1581 16-04-2019 04:10:17 5 C 20 %
1582 16-04-2019 04:22:17 5 C 21 %
1583 16-04-2019 04:34:18 4.6 C 25 %
1584 16-04-2019 04:46:17 4.6 C 25 %
1585 16-04-2019 04:58:17 4.8 C 21 %
1586 16-04-2019 05:10:17 4.5 C 23 %
1587 16-04-2019 05:22:17 4.6 C 23 %
1588 16-04-2019 05:34:17 4.3 C 23 %
1589 16-04-2019 05:46:17 4.3 C 25 %
1590 16-04-2019 05:58:17 5.4 C 20 %
1591 16-04-2019 06:10:17 4.8 C 20 %
1592 16-04-2019 06:22:17 3.7 C 28 %
1593 16-04-2019 06:34:17 3.3 C 30 %
1594 16-04-2019 06:46:17 2.8 C 33 %
1595 16-04-2019 06:58:17 2.8 C 34 %
1596 16-04-2019 07:10:17 2.8 C 35 %
1597 16-04-2019 07:22:17 2.8 C 36 %
1598 16-04-2019 07:34:18 2.8 C 36 %
1599 16-04-2019 07:46:17 3.3 C 35 %
1600 16-04-2019 07:58:17 3.3 C 34 %
Sensor: Nr:Datum:Temp:Feuchte:
Aussen-T/F 1601 16-04-2019 08:10:17 3.3 C 36 %
1602 16-04-2019 08:22:17 3.4 C 36 %
1603 16-04-2019 08:34:17 3.9 C 35 %
1604 16-04-2019 08:46:17 4.1 C 34 %
1605 16-04-2019 08:58:17 4.6 C 32 %
1606 16-04-2019 09:10:17 5 C 30 %
1607 16-04-2019 09:22:17 5.8 C 29 %
1608 16-04-2019 09:34:17 6.2 C 28 %
1609 16-04-2019 09:46:17 7.5 C 20 %
1610 16-04-2019 09:58:17 9 C 20 %
1611 16-04-2019 10:10:17 10.2 C 20 %
1612 16-04-2019 10:22:17 10.9 C 20 %
1613 16-04-2019 10:34:17 11.6 C 20 %
1614 16-04-2019 10:46:17 11.6 C 20 %
1615 16-04-2019 10:58:17 13.3 C 20 %
1616 16-04-2019 11:10:17 16.8 C 20 %
1617 16-04-2019 11:22:17 17.1 C 20 %
1618 16-04-2019 11:34:17 15.1 C 20 %
1619 16-04-2019 11:46:17 15.4 C 20 %
1620 16-04-2019 11:58:18 15.5 C 20 %
1621 16-04-2019 12:10:18 16 C 20 %
1622 16-04-2019 12:22:17 16.6 C 20 %
1623 16-04-2019 12:34:17 16.8 C 20 %
1624 16-04-2019 12:46:17 16.5 C 20 %
1625 16-04-2019 12:58:17 16.1 C 20 %
Sensor: Nr:Datum:Temp:Feuchte:
Aussen-T/F 1626 16-04-2019 13:10:17 16.3 C 20 %
1627 16-04-2019 13:22:17 16.9 C 20 %
1628 16-04-2019 13:34:17 17.5 C 20 %
1629 16-04-2019 13:46:17 17.3 C 20 %
1630 16-04-2019 13:58:17 17.9 C 20 %
1631 16-04-2019 14:10:18 18.1 C 20 %
1632 16-04-2019 14:22:17 18.4 C 20 %
1633 16-04-2019 14:34:17 18.8 C 20 %
1634 16-04-2019 14:46:18 19 C 20 %
1635 16-04-2019 14:58:18 19.1 C 20 %
1636 16-04-2019 15:10:17 20 C 20 %
1637 16-04-2019 15:22:17 19.8 C 20 %
1638 16-04-2019 15:34:17 19.5 C 20 %
1639 16-04-2019 15:46:17 19.1 C 20 %
1640 16-04-2019 15:58:18 18.9 C 20 %
1641 16-04-2019 16:10:17 18.5 C 20 %
1642 16-04-2019 16:22:17 18.9 C 20 %
1643 16-04-2019 16:34:17 18.9 C 20 %
1644 16-04-2019 16:46:17 20.3 C 20 %
1645 16-04-2019 16:58:17 20.3 C 20 %
1646 16-04-2019 17:10:18 20.3 C 20 %
1647 16-04-2019 17:22:17 17.9 C 20 %
1648 16-04-2019 17:34:17 17.9 C 20 %
1649 16-04-2019 17:46:17 17.1 C 20 %
1650 16-04-2019 17:58:17 16.8 C 20 %
Sensor: Nr:Datum:Temp:Feuchte:
Aussen-T/F 1651 16-04-2019 18:10:17 15.7 C 20 %
1652 16-04-2019 18:22:17 15.6 C 20 %
1653 16-04-2019 18:34:17 15.4 C 20 %
1654 16-04-2019 18:46:17 15.2 C 20 %
1655 16-04-2019 18:58:17 14.9 C 20 %
1656 16-04-2019 19:10:17 14.8 C 20 %
1657 16-04-2019 19:22:17 14.6 C 20 %
1658 16-04-2019 19:34:17 14.2 C 20 %
1659 16-04-2019 19:46:17 13.6 C 20 %
1660 16-04-2019 19:58:17 13.2 C 20 %
1661 16-04-2019 20:10:17 12.9 C 20 %
1662 16-04-2019 20:22:17 12.5 C 20 %
1663 16-04-2019 20:34:17 12.3 C 20 %
1664 16-04-2019 20:46:17 12.1 C 20 %
1665 16-04-2019 20:58:17 12 C 20 %
1666 16-04-2019 21:10:17 11.8 C 22 %
1667 16-04-2019 21:22:17 11.8 C 23 %
1668 16-04-2019 21:34:17 11.6 C 24 %
1669 16-04-2019 21:46:17 11.7 C 25 %
1670 16-04-2019 21:58:17 11.4 C 26 %
1671 16-04-2019 22:10:17 11.1 C 28 %
1672 16-04-2019 22:22:17 10.8 C 30 %
1673 16-04-2019 22:34:17 11 C 29 %
1674 16-04-2019 22:46:17 11.1 C 27 %
1675 16-04-2019 22:58:17 11.1 C 27 %
Sensor: Nr:Datum:Temp:Feuchte:
Aussen-T/F 1676 16-04-2019 23:10:17 10.7 C 30 %
1677 16-04-2019 23:22:17 10.7 C 30 %
1678 16-04-2019 23:34:17 10.7 C 30 %
1679 16-04-2019 23:46:17 10.7 C 30 %
1680 16-04-2019 23:58:17 10.5 C 30 %
1681 17-04-2019 00:10:18 10.4 C 31 %
1682 17-04-2019 00:22:17 10.5 C 31 %
1683 17-04-2019 00:34:17 10.5 C 31 %
1684 17-04-2019 00:46:17 10.5 C 31 %
1685 17-04-2019 00:58:17 10 C 36 %
1686 17-04-2019 01:10:18 9.8 C 42 %
1687 17-04-2019 01:22:17 9.8 C 44 %
1688 17-04-2019 01:34:17 9.8 C 44 %
1689 17-04-2019 01:46:17 9.6 C 46 %
1690 17-04-2019 01:58:17 9.5 C 47 %
1691 17-04-2019 02:10:17 9.5 C 48 %
1692 17-04-2019 02:22:17 9.5 C 48 %
1693 17-04-2019 02:34:17 9.4 C 49 %
1694 17-04-2019 02:46:17 9.4 C 50 %
1695 17-04-2019 02:58:17 9.3 C 50 %
1696 17-04-2019 03:10:17 9.2 C 49 %
1697 17-04-2019 03:22:17 9.2 C 50 %
1698 17-04-2019 03:34:17 9.2 C 50 %
1699 17-04-2019 03:46:17 9.2 C 50 %
1700 17-04-2019 03:58:17 9.1 C 51 %
Sensor: Nr:Datum:Temp:Feuchte:
Aussen-T/F 1701 17-04-2019 04:10:17 9.1 C 50 %
1702 17-04-2019 04:22:17 9 C 50 %
1703 17-04-2019 04:34:17 9 C 50 %
1704 17-04-2019 04:46:17 9.1 C 51 %
1705 17-04-2019 04:58:17 9 C 51 %
1706 17-04-2019 05:10:17 9 C 51 %
1707 17-04-2019 05:22:17 9 C 51 %
1708 17-04-2019 05:34:17 9 C 52 %
1709 17-04-2019 05:46:17 9 C 52 %
1710 17-04-2019 05:58:17 9 C 52 %
1711 17-04-2019 06:10:17 9 C 52 %
1712 17-04-2019 06:22:17 9.1 C 54 %
1713 17-04-2019 06:34:18 9.2 C 54 %
1714 17-04-2019 06:46:17 9.3 C 54 %
1715 17-04-2019 06:58:17 9.3 C 55 %
1716 17-04-2019 07:10:17 9.3 C 56 %
1717 17-04-2019 07:22:17 9.4 C 58 %
1718 17-04-2019 07:34:18 9.6 C 59 %
1719 17-04-2019 07:46:17 9.7 C 60 %
1720 17-04-2019 07:58:17 10 C 60 %
1721 17-04-2019 08:10:17 10.1 C 58 %
1722 17-04-2019 08:22:18 10.2 C 56 %
1723 17-04-2019 08:34:17 10.4 C 51 %
1724 17-04-2019 08:46:17 10.5 C 48 %
1725 17-04-2019 08:58:17 10.6 C 47 %
Sensor: Nr:Datum:Temp:Feuchte:
Aussen-T/F 1726 17-04-2019 09:10:17 11 C 45 %
1727 17-04-2019 09:22:17 11.3 C 42 %
1728 17-04-2019 09:34:17 11.4 C 39 %
1729 17-04-2019 09:46:17 11.9 C 39 %
1730 17-04-2019 09:58:17 12.1 C 36 %
1731 17-04-2019 10:10:18 12.3 C 36 %
1732 17-04-2019 10:22:17 12.7 C 34 %
1733 17-04-2019 10:34:17 12.9 C 32 %
1734 17-04-2019 10:46:17 12.5 C 33 %
1735 17-04-2019 10:58:17 12.8 C 34 %
1736 17-04-2019 11:10:17 13.2 C 31 %
1737 17-04-2019 11:22:17 13.5 C 32 %
1738 17-04-2019 11:34:17 13.3 C 31 %
1739 17-04-2019 11:46:17 13.2 C 31 %
1740 17-04-2019 11:58:17 14.2 C 29 %
1741 17-04-2019 12:10:17 14.1 C 29 %
1742 17-04-2019 12:22:18 14 C 29 %
1743 17-04-2019 12:34:17 13.8 C 30 %
1744 17-04-2019 12:46:17 13.7 C 30 %
1745 17-04-2019 12:58:17 14 C 30 %
1746 17-04-2019 13:10:17 15 C 26 %
1747 17-04-2019 13:22:17 16 C 25 %
1748 17-04-2019 13:34:17 16.3 C 22 %
1749 17-04-2019 13:46:17 16.2 C 22 %
1750 17-04-2019 13:58:17 16.2 C 21 %
Sensor: Nr:Datum:Temp:Feuchte:
Aussen-T/F 1751 17-04-2019 14:10:18 16.4 C 20 %
1752 17-04-2019 14:22:17 17.3 C 20 %
1753 17-04-2019 14:34:17 17 C 20 %
1754 17-04-2019 14:46:17 16.8 C 20 %
1755 17-04-2019 14:58:17 16.6 C 20 %
1756 17-04-2019 15:10:17 16.6 C 20 %
1757 17-04-2019 15:22:17 17.4 C 20 %
1758 17-04-2019 15:34:18 18.9 C 20 %
1759 17-04-2019 15:46:17 18.2 C 20 %
1760 17-04-2019 15:58:17 19.1 C 20 %
1761 17-04-2019 16:10:17 18.8 C 20 %
1762 17-04-2019 16:22:17 17.9 C 20 %
1763 17-04-2019 16:34:17 18.2 C 20 %
1764 17-04-2019 16:46:17 17.7 C 20 %
1765 17-04-2019 16:58:17 19.1 C 20 %
1766 17-04-2019 17:10:17 18.8 C 20 %
1767 17-04-2019 17:22:17 18.1 C 20 %
1768 17-04-2019 17:34:17 18.1 C 20 %
1769 17-04-2019 17:46:17 18.3 C 20 %
1770 17-04-2019 17:58:17 19 C 20 %
1771 17-04-2019 18:10:17 18.1 C 20 %
1772 17-04-2019 18:22:17 17.9 C 20 %
1773 17-04-2019 18:34:17 18.1 C 20 %
1774 17-04-2019 18:46:17 17.3 C 20 %
1775 17-04-2019 18:58:17 16 C 20 %
Sensor: Nr:Datum:Temp:Feuchte:
Aussen-T/F 1776 17-04-2019 19:10:18 15.7 C 21 %
1777 17-04-2019 19:22:17 15.8 C 20 %
1778 17-04-2019 19:34:18 15.4 C 21 %
1779 17-04-2019 19:46:17 14.5 C 24 %
1780 17-04-2019 19:58:17 14 C 25 %
1781 17-04-2019 20:10:17 13.5 C 25 %
1782 17-04-2019 20:22:17 12.8 C 27 %
1783 17-04-2019 20:34:17 12.3 C 27 %
1784 17-04-2019 20:46:17 11.8 C 29 %
1785 17-04-2019 20:58:17 11.6 C 28 %
1786 17-04-2019 21:10:17 11.2 C 28 %
1787 17-04-2019 21:22:17 10.8 C 30 %
1788 17-04-2019 21:34:17 10.4 C 31 %
1789 17-04-2019 21:46:17 10.2 C 31 %
1790 17-04-2019 21:58:17 10.1 C 31 %
1791 17-04-2019 22:10:17 9.2 C 35 %
1792 17-04-2019 22:22:17 8.9 C 37 %
1793 17-04-2019 22:34:17 8.7 C 38 %
1794 17-04-2019 22:46:17 8.6 C 40 %
1795 17-04-2019 22:58:17 8.5 C 39 %
1796 17-04-2019 23:10:18 8.5 C 38 %
1797 17-04-2019 23:22:17 8.3 C 37 %
1798 17-04-2019 23:34:17 8.4 C 38 %
1799 17-04-2019 23:46:17 8.2 C 37 %
1800 17-04-2019 23:58:17 8 C 38 %
Sensor: Nr:Datum:Temp:Feuchte:
Aussen-T/F 1801 18-04-2019 00:10:17 8 C 39 %
1802 18-04-2019 00:22:17 8 C 40 %
1803 18-04-2019 00:34:17 8.2 C 40 %
1804 18-04-2019 00:46:17 8.3 C 40 %
1805 18-04-2019 00:58:17 8 C 39 %
1806 18-04-2019 01:10:17 8.1 C 40 %
1807 18-04-2019 01:22:17 8.2 C 39 %
1808 18-04-2019 01:34:17 8 C 39 %
1809 18-04-2019 01:46:17 8.1 C 40 %
1810 18-04-2019 01:58:17 8 C 39 %
1811 18-04-2019 02:10:17 7.9 C 40 %
1812 18-04-2019 02:22:17 7.7 C 40 %
1813 18-04-2019 02:34:17 7.6 C 40 %
1814 18-04-2019 02:46:17 7.5 C 41 %
1815 18-04-2019 02:58:17 7.5 C 41 %
1816 18-04-2019 03:10:17 7.5 C 40 %
1817 18-04-2019 03:22:17 7.1 C 39 %
1818 18-04-2019 03:34:18 6.7 C 40 %
1819 18-04-2019 03:46:17 6.3 C 41 %
1820 18-04-2019 03:58:17 6.1 C 42 %
1821 18-04-2019 04:10:17 5.9 C 43 %
1822 18-04-2019 04:22:17 5.8 C 44 %
1823 18-04-2019 04:34:17 6 C 43 %
1824 18-04-2019 04:46:17 6 C 43 %
1825 18-04-2019 04:58:18 6.2 C 44 %
Sensor: Nr:Datum:Temp:Feuchte:
Aussen-T/F 1826 18-04-2019 05:10:17 6.3 C 43 %
1827 18-04-2019 05:22:17 6.1 C 42 %
1828 18-04-2019 05:34:17 6 C 43 %
1829 18-04-2019 05:46:18 5.9 C 45 %
1830 18-04-2019 05:58:18 5.8 C 46 %
1831 18-04-2019 06:10:17 5.8 C 47 %
1832 18-04-2019 06:22:17 5.9 C 48 %
1833 18-04-2019 06:34:18 6 C 47 %
1834 18-04-2019 06:46:17 6 C 45 %
1835 18-04-2019 06:58:17 6 C 45 %
1836 18-04-2019 07:10:17 6.1 C 45 %
1837 18-04-2019 07:22:18 6.5 C 44 %
1838 18-04-2019 07:34:17 6.9 C 42 %
1839 18-04-2019 07:46:17 7.3 C 40 %
1840 18-04-2019 07:58:17 7.4 C 39 %
1841 18-04-2019 08:10:17 7.6 C 38 %
1842 18-04-2019 08:22:17 7.6 C 40 %
1843 18-04-2019 08:34:17 7.8 C 40 %
1844 18-04-2019 08:46:17 7.9 C 40 %
1845 18-04-2019 08:58:17 8.2 C 39 %
1846 18-04-2019 09:10:18 8.8 C 35 %
1847 18-04-2019 09:22:17 9.5 C 30 %
1848 18-04-2019 09:34:17 9.8 C 30 %
1849 18-04-2019 09:46:17 10.5 C 28 %
1850 18-04-2019 09:58:17 10.9 C 25 %
Sensor: Nr:Datum:Temp:Feuchte:
Aussen-T/F 1851 18-04-2019 10:10:17 11.6 C 22 %
1852 18-04-2019 10:22:17 12.2 C 22 %
1853 18-04-2019 10:34:17 13.4 C 20 %
1854 18-04-2019 10:46:17 14 C 20 %
1855 18-04-2019 10:58:17 15.9 C 20 %
1856 18-04-2019 11:10:18 19.5 C 20 %
1857 18-04-2019 11:22:17 20.3 C 20 %
1858 18-04-2019 11:34:18 17.4 C 20 %
1859 18-04-2019 11:46:17 17.5 C 20 %
1860 18-04-2019 11:58:17 17.3 C 20 %
1861 18-04-2019 12:10:17 17.7 C 20 %
1862 18-04-2019 12:22:17 18.1 C 20 %
1863 18-04-2019 12:34:17 18.3 C 20 %
1864 18-04-2019 12:46:17 18 C 20 %
1865 18-04-2019 12:58:17 18.3 C 20 %
1866 18-04-2019 13:10:17 18.4 C 20 %
1867 18-04-2019 13:22:17 18.5 C 20 %
1868 18-04-2019 13:34:17 18.5 C 20 %
1869 18-04-2019 13:46:17 18.8 C 20 %
1870 18-04-2019 13:58:17 19.3 C 20 %
1871 18-04-2019 14:10:17 19.3 C 20 %
1872 18-04-2019 14:22:17 19.9 C 20 %
1873 18-04-2019 14:34:17 20.4 C 20 %
1874 18-04-2019 14:46:17 20.8 C 20 %
1875 18-04-2019 14:58:17 21 C 20 %
Sensor: Nr:Datum:Temp:Feuchte:
Aussen-T/F 1876 18-04-2019 15:10:18 21.5 C 20 %
1877 18-04-2019 15:22:17 21.6 C 20 %
1878 18-04-2019 15:34:17 21.9 C 20 %
1879 18-04-2019 15:46:18 22.1 C 20 %
1880 18-04-2019 15:58:18 22.1 C 20 %
1881 18-04-2019 16:10:17 22.4 C 20 %
1882 18-04-2019 16:22:17 22.3 C 20 %
1883 18-04-2019 16:34:18 22.3 C 20 %
1884 18-04-2019 16:46:17 23.1 C 20 %
1885 18-04-2019 16:58:17 22.9 C 20 %
1886 18-04-2019 17:10:17 23.7 C 20 %
1887 18-04-2019 17:22:17 23.5 C 20 %
1888 18-04-2019 17:34:17 23.4 C 20 %
1889 18-04-2019 17:46:17 23.6 C 20 %
1890 18-04-2019 17:58:17 23.8 C 20 %
1891 18-04-2019 18:10:17 24.2 C 20 %
1892 18-04-2019 18:22:17 24.3 C 20 %
1893 18-04-2019 18:34:17 24.4 C 20 %
1894 18-04-2019 18:46:17 23.8 C 20 %
1895 18-04-2019 18:58:18 24.3 C 20 %
1896 18-04-2019 19:10:17 23.1 C 20 %
1897 18-04-2019 19:22:17 21.9 C 20 %
1898 18-04-2019 19:34:17 21.5 C 20 %
1899 18-04-2019 19:46:17 21 C 20 %
1900 18-04-2019 19:58:17 19.1 C 20 %
Sensor: Nr:Datum:Temp:Feuchte:
Aussen-T/F 1901 18-04-2019 20:10:17 17.8 C 20 %
1902 18-04-2019 20:22:17 16.4 C 20 %
1903 18-04-2019 20:34:17 15.8 C 20 %
1904 18-04-2019 20:46:18 15.4 C 20 %
1905 18-04-2019 20:58:18 15.2 C 20 %
1906 18-04-2019 21:10:17 14.9 C 20 %
1907 18-04-2019 21:22:17 14.7 C 20 %
1908 18-04-2019 21:34:18 14.4 C 20 %
1909 18-04-2019 21:46:17 14 C 20 %
1910 18-04-2019 21:58:17 13.7 C 20 %
1911 18-04-2019 22:10:17 13.4 C 20 %
1912 18-04-2019 22:22:17 13.2 C 20 %
1913 18-04-2019 22:34:17 13 C 20 %
1914 18-04-2019 22:46:17 12.7 C 20 %
1915 18-04-2019 22:58:17 12.5 C 20 %
1916 18-04-2019 23:10:18 12.2 C 20 %
1917 18-04-2019 23:22:17 12.1 C 20 %
1918 18-04-2019 23:34:17 11.3 C 20 %
1919 18-04-2019 23:46:17 11.2 C 20 %
1920 18-04-2019 23:58:17 10.7 C 20 %
1921 19-04-2019 00:10:17 10.8 C 20 %
1922 19-04-2019 00:22:18 10.5 C 20 %
1923 19-04-2019 00:34:17 10.6 C 20 %
1924 19-04-2019 00:46:17 10 C 25 %
1925 19-04-2019 00:58:17 10 C 25 %
Sensor: Nr:Datum:Temp:Feuchte:
Aussen-T/F 1926 19-04-2019 01:10:18 9.8 C 26 %
1927 19-04-2019 01:22:17 9.6 C 26 %
1928 19-04-2019 01:34:17 9.6 C 26 %
1929 19-04-2019 01:46:17 9.7 C 25 %
1930 19-04-2019 01:58:17 9.8 C 23 %
1931 19-04-2019 02:10:18 10.2 C 20 %
1932 19-04-2019 02:22:17 10.2 C 20 %
1933 19-04-2019 02:34:17 10 C 20 %
1934 19-04-2019 02:46:17 10 C 20 %
1935 19-04-2019 02:58:17 9.4 C 23 %
1936 19-04-2019 03:10:18 9.2 C 25 %
1937 19-04-2019 03:22:17 9.1 C 25 %
1938 19-04-2019 03:34:17 9.1 C 25 %
1939 19-04-2019 03:46:17 9.1 C 23 %
1940 19-04-2019 03:58:17 8.9 C 26 %
1941 19-04-2019 04:10:17 8.9 C 26 %
1942 19-04-2019 04:22:17 8.5 C 27 %
1943 19-04-2019 04:34:17 8.4 C 27 %
1944 19-04-2019 04:46:17 8.1 C 28 %
1945 19-04-2019 04:58:17 8 C 29 %
1946 19-04-2019 05:10:17 7.1 C 32 %
1947 19-04-2019 05:22:17 7 C 33 %
1948 19-04-2019 05:34:17 7 C 34 %
1949 19-04-2019 05:46:18 7 C 34 %
1950 19-04-2019 05:58:18 6.3 C 36 %
Sensor: Nr:Datum:Temp:Feuchte:
Aussen-T/F 1951 19-04-2019 06:10:18 6 C 36 %
1952 19-04-2019 06:22:17 5.9 C 37 %
1953 19-04-2019 06:34:17 5.8 C 38 %
1954 19-04-2019 06:46:17 5.8 C 38 %
1955 19-04-2019 06:58:17 5.6 C 39 %
1956 19-04-2019 07:10:18 5.6 C 40 %
1957 19-04-2019 07:22:17 5.7 C 41 %
1958 19-04-2019 07:34:17 5.7 C 41 %
1959 19-04-2019 07:46:18 5.9 C 42 %
1960 19-04-2019 07:58:18 5.8 C 42 %
1961 19-04-2019 08:10:17 5.9 C 42 %
1962 19-04-2019 08:22:17 6 C 41 %
1963 19-04-2019 08:34:18 6.3 C 42 %
1964 19-04-2019 08:46:18 6.9 C 42 %
1965 19-04-2019 08:58:18 7.4 C 41 %
1966 19-04-2019 09:10:17 7.8 C 39 %
1967 19-04-2019 09:22:17 8.4 C 37 %
1968 19-04-2019 09:34:17 9.2 C 32 %
1969 19-04-2019 09:46:17 10 C 30 %
1970 19-04-2019 09:58:17 10.7 C 26 %
1971 19-04-2019 10:10:17 10.7 C 26 %
1972 19-04-2019 10:22:17 13.2 C 20 %
1973 19-04-2019 10:34:18 14.5 C 20 %
1974 19-04-2019 10:46:17 16.2 C 20 %
1975 19-04-2019 10:58:17 18.4 C 20 %
Sensor: Nr:Datum:Temp:Feuchte:
Aussen-T/F 1976 19-04-2019 11:10:17 19.7 C 20 %
1977 19-04-2019 11:22:18 20.2 C 20 %
1978 19-04-2019 11:34:17 18.7 C 20 %
1979 19-04-2019 11:46:17 19.4 C 20 %
1980 19-04-2019 11:58:17 19.4 C 20 %
1981 19-04-2019 12:10:17 19.4 C 20 %
1982 19-04-2019 12:22:17 20 C 20 %
1983 19-04-2019 12:34:17 20.2 C 20 %
1984 19-04-2019 12:46:17 20.4 C 20 %
1985 19-04-2019 12:58:17 20.3 C 20 %
1986 19-04-2019 13:10:17 21 C 20 %
1987 19-04-2019 13:22:17 20.9 C 20 %
1988 19-04-2019 13:34:17 21.3 C 20 %
1989 19-04-2019 13:46:17 21.6 C 20 %
1990 19-04-2019 13:58:17 21.8 C 20 %
1991 19-04-2019 14:10:17 22.1 C 20 %
1992 19-04-2019 14:22:17 22.4 C 20 %
1993 19-04-2019 14:34:17 22.8 C 20 %
1994 19-04-2019 14:46:17 23.5 C 20 %
1995 19-04-2019 14:58:17 23.8 C 20 %
1996 19-04-2019 15:10:17 23.9 C 20 %
1997 19-04-2019 15:22:17 24.1 C 20 %
1998 19-04-2019 15:34:18 24.4 C 20 %
1999 19-04-2019 15:46:17 24.3 C 20 %
2000 19-04-2019 15:58:17 24.6 C 20 %
Sensor: Nr:Datum:Temp:Feuchte:
Aussen-T/F 2001 19-04-2019 16:10:17 24.7 C 20 %
2002 19-04-2019 16:22:18 24.8 C 20 %
2003 19-04-2019 16:34:17 25.5 C 20 %
2004 19-04-2019 16:46:17 25 C 20 %
2005 19-04-2019 16:58:17 25.5 C 20 %
2006 19-04-2019 17:10:17 25.5 C 20 %
2007 19-04-2019 17:22:17 24.9 C 20 %
2008 19-04-2019 17:34:17 25.1 C 20 %
2009 19-04-2019 17:46:17 25.4 C 20 %
2010 19-04-2019 17:58:17 26.5 C 20 %
2011 19-04-2019 18:10:17 26.8 C 20 %
2012 19-04-2019 18:22:17 26.4 C 20 %
2013 19-04-2019 18:34:17 27.4 C 20 %
2014 19-04-2019 18:46:17 27.5 C 20 %
2015 19-04-2019 18:58:17 28.1 C 20 %
2016 19-04-2019 19:10:17 25.2 C 20 %
2017 19-04-2019 19:22:17 24 C 20 %
2018 19-04-2019 19:34:17 23.4 C 20 %
2019 19-04-2019 19:46:17 22.7 C 20 %
2020 19-04-2019 19:58:17 20.7 C 20 %
2021 19-04-2019 20:10:17 18.9 C 20 %
2022 19-04-2019 20:22:17 17.2 C 20 %
2023 19-04-2019 20:34:17 16.8 C 20 %
2024 19-04-2019 20:46:17 16.6 C 20 %
2025 19-04-2019 20:58:17 15.8 C 20 %
Sensor: Nr:Datum:Temp:Feuchte:
Aussen-T/F 2026 19-04-2019 21:10:17 15.2 C 20 %
2027 19-04-2019 21:22:17 14.8 C 20 %
2028 19-04-2019 21:34:17 14 C 20 %
2029 19-04-2019 21:46:17 13.2 C 20 %
2030 19-04-2019 21:58:17 12.9 C 20 %
2031 19-04-2019 22:10:17 12.2 C 20 %
2032 19-04-2019 22:22:17 11.9 C 20 %
2033 19-04-2019 22:34:17 11.6 C 20 %
2034 19-04-2019 22:46:17 12.4 C 20 %
2035 19-04-2019 22:58:17 11.1 C 20 %
2036 19-04-2019 23:10:18 11.3 C 20 %
2037 19-04-2019 23:22:17 11.1 C 20 %
2038 19-04-2019 23:34:17 10.2 C 20 %
2039 19-04-2019 23:46:17 10.4 C 20 %
2040 19-04-2019 23:58:17 9.7 C 20 %
2041 20-04-2019 00:10:17 9.6 C 20 %
2042 20-04-2019 00:22:17 9.5 C 20 %
2043 20-04-2019 00:34:17 9.4 C 20 %
2044 20-04-2019 00:46:17 9.2 C 20 %
2045 20-04-2019 00:58:18 9 C 21 %
2046 20-04-2019 01:10:17 9 C 23 %
2047 20-04-2019 01:22:17 8.7 C 25 %
2048 20-04-2019 01:34:17 8.4 C 27 %
2049 20-04-2019 01:46:17 8.3 C 27 %
2050 20-04-2019 01:58:17 8.1 C 29 %
Sensor: Nr:Datum:Temp:Feuchte:
Aussen-T/F 2051 20-04-2019 02:10:17 8.1 C 29 %
2052 20-04-2019 02:22:17 7.7 C 31 %
2053 20-04-2019 02:34:17 7.6 C 32 %
2054 20-04-2019 02:46:18 7.5 C 33 %
2055 20-04-2019 02:58:18 7.3 C 32 %
2056 20-04-2019 03:10:17 7.1 C 35 %
2057 20-04-2019 03:22:17 6.8 C 35 %
2058 20-04-2019 03:34:17 6.8 C 36 %
2059 20-04-2019 03:46:17 6.6 C 37 %
2060 20-04-2019 03:58:17 6.3 C 38 %
2061 20-04-2019 04:10:17 6.2 C 39 %
2062 20-04-2019 04:22:17 6.1 C 40 %
2063 20-04-2019 04:34:17 5.8 C 41 %
2064 20-04-2019 04:46:17 5.7 C 41 %
2065 20-04-2019 04:58:17 5.7 C 42 %
2066 20-04-2019 05:10:17 5.5 C 43 %
2067 20-04-2019 05:22:17 5.4 C 44 %
2068 20-04-2019 05:34:17 5.3 C 44 %
2069 20-04-2019 05:46:17 5.3 C 45 %
2070 20-04-2019 05:58:17 5.1 C 45 %
2071 20-04-2019 06:10:17 5 C 45 %
2072 20-04-2019 06:22:18 5 C 45 %
2073 20-04-2019 06:34:17 4.8 C 46 %
2074 20-04-2019 06:46:17 4.8 C 47 %
2075 20-04-2019 06:58:17 5 C 47 %
Sensor: Nr:Datum:Temp:Feuchte:
Aussen-T/F 2076 20-04-2019 07:10:17 5.2 C 47 %
2077 20-04-2019 07:22:17 5.3 C 47 %
2078 20-04-2019 07:34:17 5.4 C 46 %
2079 20-04-2019 07:46:17 5.4 C 46 %
2080 20-04-2019 07:58:17 5.7 C 46 %
2081 20-04-2019 08:10:17 5.8 C 46 %
2082 20-04-2019 08:22:18 6 C 45 %
2083 20-04-2019 08:34:17 6.2 C 45 %
2084 20-04-2019 08:46:17 6.6 C 45 %
2085 20-04-2019 08:58:17 6.9 C 45 %
2086 20-04-2019 09:10:17 7.3 C 44 %
2087 20-04-2019 09:22:17 7.4 C 44 %
2088 20-04-2019 09:34:17 8.4 C 41 %
2089 20-04-2019 09:46:17 9.2 C 38 %
2090 20-04-2019 09:58:17 9.9 C 35 %
2091 20-04-2019 10:10:17 10.7 C 31 %
2092 20-04-2019 10:22:17 11.6 C 27 %
2093 20-04-2019 10:34:17 12.6 C 25 %
2094 20-04-2019 10:46:17 13.4 C 23 %
2095 20-04-2019 10:58:17 16.4 C 20 %
2096 20-04-2019 11:10:18 21.6 C 20 %
2097 20-04-2019 11:22:17 21.6 C 20 %
2098 20-04-2019 11:34:17 19.1 C 20 %
2099 20-04-2019 11:46:17 19.5 C 20 %
2100 20-04-2019 11:58:17 19.4 C 20 %
Sensor: Nr:Datum:Temp:Feuchte:
Aussen-T/F 2101 20-04-2019 12:10:18 19.5 C 20 %
2102 20-04-2019 12:22:17 19.5 C 20 %
2103 20-04-2019 12:34:17 20.7 C 20 %
2104 20-04-2019 12:46:17 20.9 C 20 %
2105 20-04-2019 12:58:17 20.9 C 20 %
2106 20-04-2019 13:10:18 20.9 C 20 %
2107 20-04-2019 13:22:17 21.7 C 20 %
2108 20-04-2019 13:34:17 21.8 C 20 %
2109 20-04-2019 13:46:17 22.3 C 20 %
2110 20-04-2019 13:58:17 22.8 C 20 %
2111 20-04-2019 14:10:18 22.7 C 20 %
2112 20-04-2019 14:22:17 23.2 C 20 %
2113 20-04-2019 14:34:17 23.8 C 20 %
2114 20-04-2019 14:46:17 24.1 C 20 %
2115 20-04-2019 14:58:17 24.4 C 20 %
2116 20-04-2019 15:10:18 24.3 C 20 %
2117 20-04-2019 15:22:17 24.7 C 20 %
2118 20-04-2019 15:34:17 24.9 C 20 %
2119 20-04-2019 15:46:17 24.9 C 20 %
2120 20-04-2019 15:58:17 24.9 C 20 %
2121 20-04-2019 16:10:17 25.4 C 20 %
2122 20-04-2019 16:22:17 25.7 C 20 %
2123 20-04-2019 16:34:18 25.3 C 20 %
2124 20-04-2019 16:46:18 25.2 C 20 %
2125 20-04-2019 16:58:18 25.5 C 20 %
Sensor: Nr:Datum:Temp:Feuchte:
Aussen-T/F 2126 20-04-2019 17:10:17 25.8 C 20 %
2127 20-04-2019 17:22:17 25.5 C 20 %
2128 20-04-2019 17:34:17 25.5 C 20 %
2129 20-04-2019 17:46:17 25.5 C 20 %
2130 20-04-2019 17:58:17 25.7 C 20 %
2131 20-04-2019 18:10:18 26.4 C 20 %
2132 20-04-2019 18:22:17 25.6 C 20 %
2133 20-04-2019 18:34:17 27.1 C 20 %
2134 20-04-2019 18:46:17 26.6 C 20 %
2135 20-04-2019 18:58:17 27.7 C 20 %
2136 20-04-2019 19:10:18 26 C 20 %
2137 20-04-2019 19:22:17 24.4 C 20 %
2138 20-04-2019 19:34:17 23.6 C 20 %
2139 20-04-2019 19:46:17 22.9 C 20 %
2140 20-04-2019 19:58:17 21 C 20 %
2141 20-04-2019 20:10:17 19.2 C 20 %
2142 20-04-2019 20:22:17 18.1 C 20 %
2143 20-04-2019 20:34:17 17.5 C 20 %
2144 20-04-2019 20:46:18 17.1 C 20 %
2145 20-04-2019 20:58:18 16.9 C 20 %
2146 20-04-2019 21:10:17 15.8 C 20 %
2147 20-04-2019 21:22:17 14.8 C 20 %
2148 20-04-2019 21:34:17 14.5 C 20 %
2149 20-04-2019 21:46:17 14 C 20 %
2150 20-04-2019 21:58:17 13.6 C 20 %
Sensor: Nr:Datum:Temp:Feuchte:
Aussen-T/F 2151 20-04-2019 22:10:18 13.2 C 20 %
2152 20-04-2019 22:22:17 12.8 C 20 %
2153 20-04-2019 22:34:17 12.5 C 20 %
2154 20-04-2019 22:46:17 12.4 C 20 %
2155 20-04-2019 22:58:17 12.2 C 20 %
2156 20-04-2019 23:10:18 12 C 20 %
2157 20-04-2019 23:22:17 11.9 C 20 %
2158 20-04-2019 23:34:17 12 C 20 %
2159 20-04-2019 23:46:17 12 C 20 %
2160 20-04-2019 23:58:17 12.1 C 20 %
2161 21-04-2019 00:10:18 11.9 C 20 %
2162 21-04-2019 00:22:17 12 C 20 %
2163 21-04-2019 00:34:18 11.8 C 20 %
2164 21-04-2019 00:46:17 11.8 C 20 %
2165 21-04-2019 00:58:17 11.5 C 20 %
2166 21-04-2019 01:10:17 12 C 20 %
2167 21-04-2019 01:22:17 11.8 C 20 %
2168 21-04-2019 01:34:18 11.2 C 20 %
2169 21-04-2019 01:46:17 10.8 C 20 %
2170 21-04-2019 01:58:17 10.7 C 20 %
2171 21-04-2019 02:10:17 10.5 C 20 %
2172 21-04-2019 02:22:17 10 C 20 %
2173 21-04-2019 02:34:17 9.9 C 20 %
2174 21-04-2019 02:46:17 10 C 20 %
2175 21-04-2019 02:58:17 10.1 C 20 %
Sensor: Nr:Datum:Temp:Feuchte:
Aussen-T/F 2176 21-04-2019 03:10:17 9.9 C 20 %
2177 21-04-2019 03:22:17 9.6 C 21 %
2178 21-04-2019 03:34:17 9.3 C 23 %
2179 21-04-2019 03:46:17 9.3 C 23 %
2180 21-04-2019 03:58:17 9.1 C 21 %
2181 21-04-2019 04:10:17 8.7 C 25 %
2182 21-04-2019 04:22:17 8.5 C 26 %
2183 21-04-2019 04:34:17 7.8 C 29 %
2184 21-04-2019 04:46:17 7.4 C 30 %
2185 21-04-2019 04:58:17 6.9 C 34 %
2186 21-04-2019 05:10:17 6.7 C 36 %
2187 21-04-2019 05:22:17 6.5 C 37 %
2188 21-04-2019 05:34:17 6.3 C 38 %
2189 21-04-2019 05:46:18 6 C 39 %
2190 21-04-2019 05:58:18 5.8 C 40 %
2191 21-04-2019 06:10:18 5.7 C 40 %
2192 21-04-2019 06:22:17 5.7 C 41 %
2193 21-04-2019 06:34:17 5.8 C 41 %
2194 21-04-2019 06:46:17 5.8 C 41 %
2195 21-04-2019 06:58:17 5.7 C 42 %
2196 21-04-2019 07:10:17 5.7 C 43 %
2197 21-04-2019 07:22:17 6.3 C 42 %
2198 21-04-2019 07:34:17 6.3 C 41 %
2199 21-04-2019 07:46:17 6.3 C 41 %
2200 21-04-2019 07:58:17 6.4 C 41 %
Sensor: Nr:Datum:Temp:Feuchte:
Aussen-T/F 2201 21-04-2019 08:10:17 6.5 C 41 %
2202 21-04-2019 08:22:17 6.6 C 41 %
2203 21-04-2019 08:34:17 6.9 C 42 %
2204 21-04-2019 08:46:17 7 C 41 %
2205 21-04-2019 08:58:17 7.1 C 40 %
2206 21-04-2019 09:10:17 7.7 C 41 %
2207 21-04-2019 09:22:17 8.1 C 41 %
2208 21-04-2019 09:34:17 9 C 38 %
2209 21-04-2019 09:46:17 9.5 C 35 %
2210 21-04-2019 09:58:17 10.2 C 31 %
2211 21-04-2019 10:10:17 11.2 C 27 %
2212 21-04-2019 10:22:17 12.3 C 24 %
2213 21-04-2019 10:34:18 13.1 C 20 %
2214 21-04-2019 10:46:18 13.1 C 20 %
2215 21-04-2019 10:58:18 16.6 C 20 %
2216 21-04-2019 11:10:17 19.2 C 20 %
2217 21-04-2019 11:22:17 21 C 20 %
2218 21-04-2019 11:34:17 18.4 C 20 %
2219 21-04-2019 11:46:18 18.4 C 20 %
2220 21-04-2019 11:58:18 18.7 C 20 %
2221 21-04-2019 12:10:17 19 C 20 %
2222 21-04-2019 12:22:17 19.5 C 20 %
2223 21-04-2019 12:34:17 20.3 C 20 %
2224 21-04-2019 12:46:17 20.3 C 20 %
2225 21-04-2019 12:58:17 20.9 C 20 %
Sensor: Nr:Datum:Temp:Feuchte:
Aussen-T/F 2226 21-04-2019 13:10:17 21 C 20 %
2227 21-04-2019 13:22:17 21.3 C 20 %
2228 21-04-2019 13:34:17 21.2 C 20 %
2229 21-04-2019 13:46:17 21.2 C 20 %
2230 21-04-2019 13:58:17 22 C 20 %
2231 21-04-2019 14:10:18 22.5 C 20 %
2232 21-04-2019 14:22:17 22.9 C 20 %
2233 21-04-2019 14:34:17 23.4 C 20 %
2234 21-04-2019 14:46:17 24.1 C 20 %
2235 21-04-2019 14:58:18 24.5 C 20 %
2236 21-04-2019 15:10:17 24.5 C 20 %
2237 21-04-2019 15:22:17 25.1 C 20 %
2238 21-04-2019 15:34:17 25.4 C 20 %
2239 21-04-2019 15:46:17 26 C 20 %
2240 21-04-2019 15:58:17 25.7 C 20 %
2241 21-04-2019 16:10:17 25.9 C 20 %
2242 21-04-2019 16:22:17 25.6 C 20 %
2243 21-04-2019 16:34:17 26.1 C 20 %
2244 21-04-2019 16:46:17 26.2 C 20 %
2245 21-04-2019 16:58:17 25.9 C 20 %
2246 21-04-2019 17:10:17 26.1 C 20 %
2247 21-04-2019 17:22:17 25.6 C 20 %
2248 21-04-2019 17:34:17 26 C 20 %
2249 21-04-2019 17:46:17 26.4 C 20 %
2250 21-04-2019 17:58:17 26.5 C 20 %
Sensor: Nr:Datum:Temp:Feuchte:
Aussen-T/F 2251 21-04-2019 18:10:17 26.9 C 20 %
2252 21-04-2019 18:22:17 27.1 C 20 %
2253 21-04-2019 18:34:17 27.7 C 20 %
2254 21-04-2019 18:46:17 27.6 C 20 %
2255 21-04-2019 18:58:17 28.1 C 20 %
2256 21-04-2019 19:10:18 27.1 C 20 %
2257 21-04-2019 19:22:17 24.2 C 20 %
2258 21-04-2019 19:34:18 23.7 C 20 %
2259 21-04-2019 19:46:17 22.2 C 20 %
2260 21-04-2019 19:58:17 20.5 C 20 %
2261 21-04-2019 20:10:17 19 C 20 %
2262 21-04-2019 20:22:17 17.9 C 20 %
2263 21-04-2019 20:34:17 17.5 C 20 %
2264 21-04-2019 20:46:17 17.5 C 20 %
2265 21-04-2019 20:58:17 16.4 C 20 %
2266 21-04-2019 21:10:17 16 C 20 %
2267 21-04-2019 21:22:17 15.6 C 20 %
2268 21-04-2019 21:34:17 15.1 C 20 %
2269 21-04-2019 21:46:17 14.2 C 20 %
2270 21-04-2019 21:58:17 13.5 C 20 %
2271 21-04-2019 22:10:17 13 C 20 %
2272 21-04-2019 22:22:17 12.7 C 20 %
2273 21-04-2019 22:34:17 12.3 C 20 %
2274 21-04-2019 22:46:17 12.1 C 20 %
2275 21-04-2019 22:58:17 12.1 C 20 %
Sensor: Nr:Datum:Temp:Feuchte:
Aussen-T/F 2276 21-04-2019 23:10:18 11.4 C 20 %
2277 21-04-2019 23:22:17 11.1 C 20 %
2278 21-04-2019 23:34:17 10.7 C 20 %
2279 21-04-2019 23:46:17 10.6 C 20 %
2280 21-04-2019 23:58:17 10.2 C 20 %
2281 22-04-2019 00:10:17 9.9 C 20 %
2282 22-04-2019 00:22:17 9.6 C 20 %
2283 22-04-2019 00:34:17 9.5 C 20 %
2284 22-04-2019 00:46:17 9.2 C 20 %
2285 22-04-2019 00:58:17 9.2 C 20 %
2286 22-04-2019 01:10:18 8.7 C 25 %
2287 22-04-2019 01:22:17 8.4 C 27 %
2288 22-04-2019 01:34:17 8.2 C 29 %
2289 22-04-2019 01:46:17 8 C 29 %
2290 22-04-2019 01:58:17 7.9 C 30 %
2291 22-04-2019 02:10:18 7.8 C 31 %
2292 22-04-2019 02:22:17 7.6 C 31 %
2293 22-04-2019 02:34:17 7.3 C 33 %
2294 22-04-2019 02:46:17 7.3 C 35 %
2295 22-04-2019 02:58:17 7.2 C 35 %
2296 22-04-2019 03:10:18 7.2 C 35 %
2297 22-04-2019 03:22:17 6.9 C 35 %
2298 22-04-2019 03:34:17 6.7 C 36 %
2299 22-04-2019 03:46:17 6.4 C 38 %
2300 22-04-2019 03:58:17 6.3 C 39 %
Sensor: Nr:Datum:Temp:Feuchte:
Aussen-T/F 2301 22-04-2019 04:10:17 6 C 39 %
2302 22-04-2019 04:22:17 5.8 C 41 %
2303 22-04-2019 04:34:17 5.8 C 42 %
2304 22-04-2019 04:46:17 5.4 C 43 %
2305 22-04-2019 04:58:17 5.3 C 44 %
2306 22-04-2019 05:10:17 5.2 C 44 %
2307 22-04-2019 05:22:17 5.1 C 45 %
2308 22-04-2019 05:34:17 5 C 46 %
2309 22-04-2019 05:46:17 5 C 46 %
2310 22-04-2019 05:58:17 4.9 C 47 %
2311 22-04-2019 06:10:17 4.9 C 47 %
2312 22-04-2019 06:22:17 4.8 C 47 %
2313 22-04-2019 06:34:18 4.7 C 47 %
2314 22-04-2019 06:46:17 4.8 C 48 %
2315 22-04-2019 06:58:17 5.1 C 47 %
2316 22-04-2019 07:10:17 5.2 C 47 %
2317 22-04-2019 07:22:17 5.3 C 46 %
2318 22-04-2019 07:34:18 5.5 C 46 %
2319 22-04-2019 07:46:17 5.8 C 46 %
2320 22-04-2019 07:58:17 5.8 C 46 %
2321 22-04-2019 08:10:17 6 C 45 %
2322 22-04-2019 08:22:17 6.3 C 45 %
2323 22-04-2019 08:34:17 6.5 C 45 %
2324 22-04-2019 08:46:17 6.8 C 45 %
2325 22-04-2019 08:58:17 7.1 C 43 %
Sensor: Nr:Datum:Temp:Feuchte:
Aussen-T/F 2326 22-04-2019 09:10:17 7.5 C 42 %
2327 22-04-2019 09:22:17 8.2 C 40 %
2328 22-04-2019 09:34:17 8.8 C 38 %
2329 22-04-2019 09:46:17 9.7 C 34 %
2330 22-04-2019 09:58:17 10.7 C 30 %
2331 22-04-2019 10:10:17 11.2 C 27 %
2332 22-04-2019 10:22:17 12.3 C 22 %
2333 22-04-2019 10:34:17 13.4 C 20 %
2334 22-04-2019 10:46:17 14.6 C 20 %
2335 22-04-2019 10:58:17 17.2 C 20 %
2336 22-04-2019 11:10:17 20.6 C 20 %
2337 22-04-2019 11:22:17 20.1 C 20 %
2338 22-04-2019 11:34:17 19.3 C 20 %
2339 22-04-2019 11:46:17 19.5 C 20 %
2340 22-04-2019 11:58:17 20 C 20 %
2341 22-04-2019 12:10:17 20.6 C 20 %
2342 22-04-2019 12:22:17 20.9 C 20 %
2343 22-04-2019 12:34:17 21.5 C 20 %
2344 22-04-2019 12:46:17 21.6 C 20 %
2345 22-04-2019 12:58:17 21.9 C 20 %
2346 22-04-2019 13:10:17 22.1 C 20 %
2347 22-04-2019 13:22:17 22.2 C 20 %
2348 22-04-2019 13:34:18 22.5 C 20 %
2349 22-04-2019 13:46:17 22.8 C 20 %
2350 22-04-2019 13:58:17 23.3 C 20 %
Sensor: Nr:Datum:Temp:Feuchte:
Aussen-T/F 2351 22-04-2019 14:10:17 23.4 C 20 %
2352 22-04-2019 14:22:18 23.2 C 20 %
2353 22-04-2019 14:34:17 23.8 C 20 %
2354 22-04-2019 14:46:17 24.2 C 20 %
2355 22-04-2019 14:58:17 24.5 C 20 %
2356 22-04-2019 15:10:17 24.4 C 20 %
2357 22-04-2019 15:22:17 24.5 C 20 %
2358 22-04-2019 15:34:17 25.1 C 20 %
2359 22-04-2019 15:46:17 25.3 C 20 %
2360 22-04-2019 15:58:18 25.7 C 20 %
2361 22-04-2019 16:10:17 25.7 C 20 %
2362 22-04-2019 16:22:17 25.4 C 20 %
2363 22-04-2019 16:34:18 25.7 C 20 %
2364 22-04-2019 16:46:17 25.9 C 20 %
2365 22-04-2019 16:58:17 26.2 C 20 %
2366 22-04-2019 17:10:17 26.1 C 20 %
2367 22-04-2019 17:22:17 26.4 C 20 %
2368 22-04-2019 17:34:17 26.4 C 20 %
2369 22-04-2019 17:46:17 25 C 20 %
2370 22-04-2019 17:58:17 25.4 C 20 %
2371 22-04-2019 18:10:17 25.4 C 20 %
2372 22-04-2019 18:22:18 24.8 C 20 %
2373 22-04-2019 18:34:17 23.9 C 20 %
2374 22-04-2019 18:46:18 23.3 C 20 %
2375 22-04-2019 18:58:18 22 C 20 %
Sensor: Nr:Datum:Temp:Feuchte:
Aussen-T/F 2376 22-04-2019 19:10:17 21.3 C 20 %
2377 22-04-2019 19:22:17 20.5 C 20 %
2378 22-04-2019 19:34:17 20.9 C 20 %
2379 22-04-2019 19:46:17 20.5 C 20 %
2380 22-04-2019 19:58:17 20 C 20 %
2381 22-04-2019 20:10:17 19.2 C 20 %
2382 22-04-2019 20:22:17 19.5 C 20 %
2383 22-04-2019 20:34:17 19 C 20 %
2384 22-04-2019 20:46:17 18.3 C 20 %
2385 22-04-2019 20:58:17 17.9 C 20 %
2386 22-04-2019 21:10:17 17.6 C 20 %
2387 22-04-2019 21:22:17 16.2 C 20 %
2388 22-04-2019 21:34:18 15.7 C 20 %
2389 22-04-2019 21:46:17 14.9 C 20 %
2390 22-04-2019 21:58:17 15.5 C 20 %
2391 22-04-2019 22:10:17 14.7 C 20 %
2392 22-04-2019 22:22:17 14.4 C 20 %
2393 22-04-2019 22:34:17 14.4 C 20 %
2394 22-04-2019 22:46:17 14.8 C 20 %
2395 22-04-2019 22:58:17 14.7 C 20 %
2396 22-04-2019 23:10:17 15.4 C 20 %
2397 22-04-2019 23:22:17 15.1 C 20 %
2398 22-04-2019 23:34:17 15.1 C 20 %
2399 22-04-2019 23:46:17 13.8 C 20 %
2400 22-04-2019 23:58:17 12.9 C 20 %
Sensor: Nr:Datum:Temp:Feuchte:
Aussen-T/F 2401 23-04-2019 00:10:18 13 C 20 %
2402 23-04-2019 00:22:17 12.4 C 20 %
2403 23-04-2019 00:34:17 12.2 C 20 %
2404 23-04-2019 00:46:17 12.3 C 20 %
2405 23-04-2019 00:58:17 11.3 C 20 %
2406 23-04-2019 01:10:18 10.8 C 20 %
2407 23-04-2019 01:22:17 10.3 C 20 %
2408 23-04-2019 01:34:17 10.8 C 20 %
2409 23-04-2019 01:46:17 10.2 C 20 %
2410 23-04-2019 01:58:17 10.2 C 20 %
2411 23-04-2019 02:10:17 9.6 C 20 %
2412 23-04-2019 02:22:17 9.6 C 20 %
2413 23-04-2019 02:34:17 9.6 C 20 %
2414 23-04-2019 02:46:17 9.3 C 20 %
2415 23-04-2019 02:58:18 9.1 C 20 %
2416 23-04-2019 03:10:17 9.1 C 20 %
2417 23-04-2019 03:22:17 9 C 20 %
2418 23-04-2019 03:34:18 8.7 C 20 %
2419 23-04-2019 03:46:17 8.6 C 20 %
2420 23-04-2019 03:58:17 8.6 C 20 %
2421 23-04-2019 04:10:17 8.6 C 20 %
2422 23-04-2019 04:22:17 8.3 C 20 %
2423 23-04-2019 04:34:17 8.3 C 20 %
2424 23-04-2019 04:46:17 8.3 C 20 %
2425 23-04-2019 04:58:17 8.3 C 20 %
Sensor: Nr:Datum:Temp:Feuchte:
Aussen-T/F 2426 23-04-2019 05:10:17 8.2 C 20 %
2427 23-04-2019 05:22:17 8.4 C 20 %
2428 23-04-2019 05:34:17 8.3 C 20 %
2429 23-04-2019 05:46:17 8.2 C 20 %
2430 23-04-2019 05:58:17 7.9 C 20 %
2431 23-04-2019 06:10:17 7.6 C 20 %
2432 23-04-2019 06:22:17 7.6 C 20 %
2433 23-04-2019 06:34:17 7.5 C 23 %
2434 23-04-2019 06:46:17 7.6 C 23 %
2435 23-04-2019 06:58:17 8 C 25 %
2436 23-04-2019 07:10:17 8.2 C 21 %
2437 23-04-2019 07:22:17 8.6 C 21 %
2438 23-04-2019 07:34:17 8.9 C 20 %
2439 23-04-2019 07:46:17 9.1 C 20 %
2440 23-04-2019 07:58:17 9.6 C 20 %
2441 23-04-2019 08:10:17 10 C 20 %
2442 23-04-2019 08:22:17 10.4 C 20 %
2443 23-04-2019 08:34:18 10.6 C 20 %
2444 23-04-2019 08:46:17 11.5 C 20 %
2445 23-04-2019 08:58:17 12 C 20 %
2446 23-04-2019 09:10:17 12.4 C 20 %
2447 23-04-2019 09:22:17 12.7 C 20 %
2448 23-04-2019 09:34:17 13.2 C 20 %
2449 23-04-2019 09:46:17 13.3 C 20 %
2450 23-04-2019 09:58:17 13.7 C 20 %
Sensor: Nr:Datum:Temp:Feuchte:
Aussen-T/F 2451 23-04-2019 10:10:17 14 C 20 %
2452 23-04-2019 10:22:17 14.3 C 20 %
2453 23-04-2019 10:34:17 15.1 C 20 %
2454 23-04-2019 10:46:17 15.3 C 20 %
2455 23-04-2019 10:58:17 16 C 20 %
2456 23-04-2019 11:10:17 16 C 20 %
2457 23-04-2019 11:22:17 16.2 C 20 %
2458 23-04-2019 11:34:17 16.3 C 20 %
2459 23-04-2019 11:46:17 16.4 C 20 %
2460 23-04-2019 11:58:17 16.9 C 20 %
2461 23-04-2019 12:10:17 16.9 C 20 %
2462 23-04-2019 12:22:17 17.8 C 20 %
2463 23-04-2019 12:34:17 18.1 C 20 %
2464 23-04-2019 12:46:17 18.7 C 20 %
2465 23-04-2019 12:58:17 18.7 C 20 %
2466 23-04-2019 13:10:17 19.1 C 20 %
2467 23-04-2019 13:22:17 19.4 C 20 %
2468 23-04-2019 13:34:17 19.4 C 20 %
2469 23-04-2019 13:46:17 20.3 C 20 %
2470 23-04-2019 13:58:17 20.4 C 20 %
2471 23-04-2019 14:10:18 20.4 C 20 %
2472 23-04-2019 14:22:17 21.4 C 20 %
2473 23-04-2019 14:34:17 21.8 C 20 %
2474 23-04-2019 14:46:17 22 C 20 %
2475 23-04-2019 14:58:17 22.2 C 20 %
Sensor: Nr:Datum:Temp:Feuchte:
Aussen-T/F 2476 23-04-2019 15:10:18 22 C 20 %
2477 23-04-2019 15:22:17 22.5 C 20 %
2478 23-04-2019 15:34:17 23 C 20 %
2479 23-04-2019 15:46:17 22.8 C 20 %
2480 23-04-2019 15:58:18 23.3 C 20 %
2481 23-04-2019 16:10:17 24.1 C 20 %
2482 23-04-2019 16:22:17 24.1 C 20 %
2483 23-04-2019 16:34:17 23.9 C 20 %
2484 23-04-2019 16:46:17 23.6 C 20 %
2485 23-04-2019 16:58:17 24.1 C 20 %
2486 23-04-2019 17:10:17 24.3 C 20 %
2487 23-04-2019 17:22:17 24.2 C 20 %
2488 23-04-2019 17:34:17 23.7 C 20 %
2489 23-04-2019 17:46:17 23.2 C 20 %
2490 23-04-2019 17:58:17 22.8 C 20 %
2491 23-04-2019 18:10:18 22.3 C 20 %
2492 23-04-2019 18:22:17 22.1 C 20 %
2493 23-04-2019 18:34:17 22.1 C 20 %
2494 23-04-2019 18:46:17 22.3 C 20 %
2495 23-04-2019 18:58:17 21.7 C 20 %
2496 23-04-2019 19:10:17 21.1 C 20 %
2497 23-04-2019 19:22:17 20.4 C 20 %
2498 23-04-2019 19:34:18 19.6 C 20 %
2499 23-04-2019 19:46:17 18.7 C 20 %
2500 23-04-2019 19:58:17 18.4 C 20 %
Sensor: Nr:Datum:Temp:Feuchte:
Aussen-T/F 2501 23-04-2019 20:10:17 18.1 C 20 %
2502 23-04-2019 20:22:17 18.1 C 20 %
2503 23-04-2019 20:34:17 17.1 C 20 %
2504 23-04-2019 20:46:17 16.7 C 20 %
2505 23-04-2019 20:58:17 16.2 C 20 %
2506 23-04-2019 21:10:17 15.8 C 20 %
2507 23-04-2019 21:22:17 15.5 C 20 %
2508 23-04-2019 21:34:17 15.2 C 20 %
2509 23-04-2019 21:46:17 15.3 C 20 %
2510 23-04-2019 21:58:17 15.1 C 20 %
2511 23-04-2019 22:10:17 15.2 C 20 %
2512 23-04-2019 22:22:17 15.3 C 20 %
2513 23-04-2019 22:34:17 15.2 C 20 %
2514 23-04-2019 22:46:17 15.3 C 20 %
2515 23-04-2019 22:58:17 15.1 C 20 %
2516 23-04-2019 23:10:18 14.8 C 20 %
2517 23-04-2019 23:22:17 14.6 C 20 %
2518 23-04-2019 23:34:17 14.5 C 20 %
2519 23-04-2019 23:46:17 14.4 C 20 %
2520 23-04-2019 23:58:17 14.3 C 20 %
2521 24-04-2019 00:10:18 14.2 C 20 %
2522 24-04-2019 00:22:17 14 C 20 %
2523 24-04-2019 00:34:17 14 C 21 %
2524 24-04-2019 00:46:17 14 C 21 %
2525 24-04-2019 00:58:17 14 C 21 %
Sensor: Nr:Datum:Temp:Feuchte:
Aussen-T/F 2526 24-04-2019 01:10:18 12 C 25 %
2527 24-04-2019 01:22:17 11.8 C 26 %
2528 24-04-2019 01:34:17 11.4 C 28 %
2529 24-04-2019 01:46:17 11.1 C 30 %
2530 24-04-2019 01:58:17 11.1 C 30 %
2531 24-04-2019 02:10:18 10.7 C 31 %
2532 24-04-2019 02:22:17 10.5 C 33 %
2533 24-04-2019 02:34:17 10.3 C 35 %
2534 24-04-2019 02:46:17 10.3 C 35 %
2535 24-04-2019 02:58:17 9.9 C 36 %
2536 24-04-2019 03:10:18 9.7 C 37 %
2537 24-04-2019 03:22:17 9.5 C 38 %
2538 24-04-2019 03:34:17 9.5 C 39 %
2539 24-04-2019 03:46:17 9.4 C 39 %
2540 24-04-2019 03:58:17 9.3 C 40 %
2541 24-04-2019 04:10:18 9.1 C 40 %
2542 24-04-2019 04:22:17 9.2 C 41 %
2543 24-04-2019 04:34:17 9.2 C 41 %
2544 24-04-2019 04:46:17 9 C 42 %
2545 24-04-2019 04:58:17 8.9 C 42 %
2546 24-04-2019 05:10:17 8.7 C 42 %
2547 24-04-2019 05:22:17 8.5 C 43 %
2548 24-04-2019 05:34:18 8.4 C 44 %
2549 24-04-2019 05:46:17 8.5 C 45 %
2550 24-04-2019 05:58:17 8.6 C 45 %
Sensor: Nr:Datum:Temp:Feuchte:
Aussen-T/F 2551 24-04-2019 06:10:17 8.6 C 45 %
2552 24-04-2019 06:22:18 8.5 C 45 %
2553 24-04-2019 06:34:17 8.4 C 45 %
2554 24-04-2019 06:46:17 8.2 C 45 %
2555 24-04-2019 06:58:17 8.4 C 46 %
2556 24-04-2019 07:10:17 8.9 C 47 %
2557 24-04-2019 07:22:17 9.6 C 45 %
2558 24-04-2019 07:34:18 10.5 C 40 %
2559 24-04-2019 07:46:17 10.8 C 35 %
2560 24-04-2019 07:58:17 11.3 C 31 %
2561 24-04-2019 08:10:17 11.4 C 29 %
2562 24-04-2019 08:22:17 11.4 C 29 %
2563 24-04-2019 08:34:17 12.4 C 25 %
2564 24-04-2019 08:46:17 12.8 C 25 %
2565 24-04-2019 08:58:17 13.1 C 25 %
2566 24-04-2019 09:10:17 13.3 C 25 %
2567 24-04-2019 09:22:17 13.8 C 23 %
2568 24-04-2019 09:34:17 14.1 C 22 %
2569 24-04-2019 09:46:18 14.9 C 22 %
2570 24-04-2019 09:58:18 15.4 C 20 %
2571 24-04-2019 10:10:17 17.2 C 20 %
2572 24-04-2019 10:22:17 17.5 C 20 %
2573 24-04-2019 10:34:18 17.5 C 20 %
2574 24-04-2019 10:46:17 17.5 C 20 %
2575 24-04-2019 10:58:17 21.4 C 20 %
Sensor: Nr:Datum:Temp:Feuchte:
Aussen-T/F 2576 24-04-2019 11:10:17 19.8 C 20 %
2577 24-04-2019 11:22:18 22.5 C 20 %
2578 24-04-2019 11:34:17 20.5 C 20 %
2579 24-04-2019 11:46:17 20.8 C 20 %
2580 24-04-2019 11:58:17 20.8 C 20 %
2581 24-04-2019 12:10:17 21 C 20 %
2582 24-04-2019 12:22:17 21 C 20 %
2583 24-04-2019 12:34:17 21.8 C 20 %
2584 24-04-2019 12:46:17 21.7 C 20 %
2585 24-04-2019 12:58:17 22 C 20 %
2586 24-04-2019 13:10:18 22 C 20 %
2587 24-04-2019 13:22:17 22.2 C 20 %
2588 24-04-2019 13:34:17 22.5 C 20 %
2589 24-04-2019 13:46:17 22.6 C 20 %
2590 24-04-2019 13:58:17 23.1 C 20 %
2591 24-04-2019 14:10:17 23.6 C 20 %
2592 24-04-2019 14:22:17 23.7 C 20 %
2593 24-04-2019 14:34:18 24.3 C 20 %
2594 24-04-2019 14:46:17 24.6 C 20 %
2595 24-04-2019 14:58:17 25.1 C 20 %
2596 24-04-2019 15:10:17 25.3 C 20 %
2597 24-04-2019 15:22:17 25.8 C 20 %
2598 24-04-2019 15:34:17 25.9 C 20 %
2599 24-04-2019 15:46:17 26.3 C 20 %
2600 24-04-2019 15:58:17 26.9 C 20 %
Sensor: Nr:Datum:Temp:Feuchte:
Aussen-T/F 2601 24-04-2019 16:10:17 26.5 C 20 %
2602 24-04-2019 16:22:17 26.5 C 20 %
2603 24-04-2019 16:34:17 24.8 C 20 %
2604 24-04-2019 16:46:17 25.4 C 20 %
2605 24-04-2019 16:58:17 27.9 C 20 %
2606 24-04-2019 17:10:17 27 C 20 %
2607 24-04-2019 17:22:17 26.3 C 20 %
2608 24-04-2019 17:34:17 25.8 C 20 %
2609 24-04-2019 17:46:17 25 C 20 %
2610 24-04-2019 17:58:18 24.6 C 20 %
2611 24-04-2019 18:10:17 23.5 C 20 %
2612 24-04-2019 18:22:17 18.7 C 20 %
2613 24-04-2019 18:34:18 17.1 C 20 %
2614 24-04-2019 18:46:17 16.3 C 20 %
2615 24-04-2019 18:58:17 15.5 C 20 %
2616 24-04-2019 19:10:18 14.2 C 25 %
2617 24-04-2019 19:22:17 13.2 C 28 %
2618 24-04-2019 19:34:17 13.2 C 28 %
2619 24-04-2019 19:46:17 13.6 C 20 %
2620 24-04-2019 19:58:17 12.5 C 23 %
2621 24-04-2019 20:10:17 11.5 C 30 %
2622 24-04-2019 20:22:17 10.8 C 40 %
2623 24-04-2019 20:34:17 10.5 C 43 %
2624 24-04-2019 20:46:17 10.4 C 45 %
2625 24-04-2019 20:58:17 9.7 C 46 %
Sensor: Nr:Datum:Temp:Feuchte:
Aussen-T/F 2626 24-04-2019 21:10:18 9.6 C 47 %
2627 24-04-2019 21:22:17 9.2 C 47 %
2628 24-04-2019 21:34:17 9.3 C 49 %
2629 24-04-2019 21:46:17 9.2 C 49 %
2630 24-04-2019 21:58:17 9 C 49 %
2631 24-04-2019 22:10:17 8.9 C 50 %
2632 24-04-2019 22:22:17 8.7 C 50 %
2633 24-04-2019 22:34:17 8.8 C 51 %
2634 24-04-2019 22:46:17 8.7 C 51 %
2635 24-04-2019 22:58:17 8.5 C 51 %
2636 24-04-2019 23:10:17 8.5 C 51 %
2637 24-04-2019 23:22:17 8.9 C 53 %
2638 24-04-2019 23:34:17 8.9 C 53 %
2639 24-04-2019 23:46:17 9 C 53 %
2640 24-04-2019 23:58:17 8.9 C 54 %
2641 25-04-2019 00:10:17 8.7 C 54 %
2642 25-04-2019 00:22:17 8.5 C 54 %
2643 25-04-2019 00:34:17 8.5 C 54 %
2644 25-04-2019 00:46:17 8 C 54 %
2645 25-04-2019 00:58:17 7.8 C 53 %
2646 25-04-2019 01:10:17 7.8 C 56 %
2647 25-04-2019 01:22:18 7.8 C 56 %
2648 25-04-2019 01:34:17 7.3 C 56 %
2649 25-04-2019 01:46:17 7.2 C 58 %
2650 25-04-2019 01:58:17 6.9 C 57 %
Sensor: Nr:Datum:Temp:Feuchte:
Aussen-T/F 2651 25-04-2019 02:10:17 6.9 C 58 %
2652 25-04-2019 02:22:18 6.9 C 61 %
2653 25-04-2019 02:34:17 6.7 C 61 %
2654 25-04-2019 02:46:17 6.8 C 62 %
2655 25-04-2019 02:58:17 6.6 C 61 %
2656 25-04-2019 03:10:18 6.5 C 62 %
2657 25-04-2019 03:22:17 6.5 C 63 %
2658 25-04-2019 03:34:17 6.5 C 64 %
2659 25-04-2019 03:46:17 6.3 C 64 %
2660 25-04-2019 03:58:17 6.3 C 65 %
2661 25-04-2019 04:10:17 6.4 C 66 %
2662 25-04-2019 04:22:17 6.4 C 66 %
2663 25-04-2019 04:34:17 6.4 C 67 %
2664 25-04-2019 04:46:17 6.5 C 68 %
2665 25-04-2019 04:58:17 6.5 C 68 %
2666 25-04-2019 05:10:18 6.4 C 67 %
2667 25-04-2019 05:22:17 6.2 C 66 %
2668 25-04-2019 05:34:17 6.4 C 68 %
2669 25-04-2019 05:46:17 6.3 C 68 %
2670 25-04-2019 05:58:17 6.2 C 67 %
2671 25-04-2019 06:10:17 6.3 C 67 %
2672 25-04-2019 06:22:17 6.2 C 67 %
2673 25-04-2019 06:34:17 6.3 C 68 %
2674 25-04-2019 06:46:18 6.5 C 69 %
2675 25-04-2019 06:58:18 6.8 C 70 %
Sensor: Nr:Datum:Temp:Feuchte:
Aussen-T/F 2676 25-04-2019 07:10:17 6.8 C 70 %
2677 25-04-2019 07:22:17 7.1 C 68 %
2678 25-04-2019 07:34:18 7.7 C 70 %
2679 25-04-2019 07:46:17 8.1 C 70 %
2680 25-04-2019 07:58:17 8.3 C 68 %
2681 25-04-2019 08:10:17 8.7 C 68 %
2682 25-04-2019 08:22:17 8.7 C 64 %
2683 25-04-2019 08:34:17 9.1 C 60 %
2684 25-04-2019 08:46:17 9.7 C 53 %
2685 25-04-2019 08:58:17 10.1 C 47 %
2686 25-04-2019 09:10:17 10 C 45 %
2687 25-04-2019 09:22:17 10.1 C 45 %
2688 25-04-2019 09:34:17 11.6 C 50 %
2689 25-04-2019 09:46:17 11.6 C 48 %
2690 25-04-2019 09:58:17 11.3 C 44 %
2691 25-04-2019 10:10:18 11.1 C 40 %
2692 25-04-2019 10:22:17 11.5 C 40 %
2693 25-04-2019 10:34:17 11.6 C 40 %
2694 25-04-2019 10:46:17 11.7 C 36 %
2695 25-04-2019 10:58:17 13 C 33 %
2696 25-04-2019 11:10:17 14.8 C 26 %
2697 25-04-2019 11:22:17 15.2 C 20 %
2698 25-04-2019 11:34:17 16.3 C 20 %
2699 25-04-2019 11:46:17 17.7 C 20 %
2700 25-04-2019 11:58:17 17.6 C 20 %
Sensor: Nr:Datum:Temp:Feuchte:
Aussen-T/F 2701 25-04-2019 12:10:17 17.6 C 20 %
2702 25-04-2019 12:22:17 18.2 C 20 %
2703 25-04-2019 12:34:17 18.2 C 20 %
2704 25-04-2019 12:46:17 18 C 20 %
2705 25-04-2019 12:58:17 17.7 C 20 %
2706 25-04-2019 13:10:17 18.3 C 20 %
2707 25-04-2019 13:22:17 19.3 C 20 %
2708 25-04-2019 13:34:18 19.5 C 20 %
2709 25-04-2019 13:46:17 20 C 20 %
2710 25-04-2019 13:58:17 20.1 C 20 %
2711 25-04-2019 14:10:17 20.1 C 20 %
2712 25-04-2019 14:22:17 20.1 C 20 %
2713 25-04-2019 14:34:17 21.5 C 20 %
2714 25-04-2019 14:46:17 21.6 C 20 %
2715 25-04-2019 14:58:17 21.7 C 20 %
2716 25-04-2019 15:10:17 21.5 C 20 %
2717 25-04-2019 15:22:17 22.1 C 20 %
2718 25-04-2019 15:34:18 22.4 C 20 %
2719 25-04-2019 15:46:17 23.1 C 20 %
2720 25-04-2019 15:58:17 22.8 C 20 %
2721 25-04-2019 16:10:17 22.7 C 20 %
2722 25-04-2019 16:22:17 22.9 C 20 %
2723 25-04-2019 16:34:17 21.9 C 20 %
2724 25-04-2019 16:46:17 21.2 C 20 %
2725 25-04-2019 16:58:17 20.7 C 20 %
Sensor: Nr:Datum:Temp:Feuchte:
Aussen-T/F 2726 25-04-2019 17:10:17 21.7 C 20 %
2727 25-04-2019 17:22:17 21.3 C 20 %
2728 25-04-2019 17:34:17 21.4 C 20 %
2729 25-04-2019 17:46:17 21.6 C 20 %
2730 25-04-2019 17:58:17 21.3 C 20 %
2731 25-04-2019 18:10:18 21.4 C 20 %
2732 25-04-2019 18:22:17 20.7 C 20 %
2733 25-04-2019 18:34:17 20.9 C 20 %
2734 25-04-2019 18:46:17 19.1 C 20 %
2735 25-04-2019 18:58:17 18 C 20 %
2736 25-04-2019 19:10:17 17.4 C 20 %
2737 25-04-2019 19:22:17 16.9 C 20 %
2738 25-04-2019 19:34:18 16.4 C 20 %
2739 25-04-2019 19:46:17 16.2 C 20 %
2740 25-04-2019 19:58:17 16 C 20 %
2741 25-04-2019 20:10:17 15.5 C 20 %
2742 25-04-2019 20:22:17 15.2 C 20 %
2743 25-04-2019 20:34:18 14.6 C 20 %
2744 25-04-2019 20:46:17 14.5 C 20 %
2745 25-04-2019 20:58:17 14.2 C 20 %
2746 25-04-2019 21:10:17 14 C 20 %
2747 25-04-2019 21:22:17 13.9 C 20 %
2748 25-04-2019 21:34:17 13.6 C 20 %
2749 25-04-2019 21:46:17 13.4 C 20 %
2750 25-04-2019 21:58:17 13.3 C 20 %
Sensor: Nr:Datum:Temp:Feuchte:
Aussen-T/F 2751 25-04-2019 22:10:18 12.9 C 20 %
2752 25-04-2019 22:22:17 12.9 C 20 %
2753 25-04-2019 22:34:17 12.9 C 20 %
2754 25-04-2019 22:46:17 12.8 C 20 %
2755 25-04-2019 22:58:18 12.6 C 20 %
2756 25-04-2019 23:10:17 12.3 C 20 %
2757 25-04-2019 23:22:17 12.3 C 20 %
2758 25-04-2019 23:34:17 12 C 25 %
2759 25-04-2019 23:46:18 11.8 C 26 %
2760 25-04-2019 23:58:18 11.2 C 27 %
2761 26-04-2019 00:10:17 11 C 29 %
2762 26-04-2019 00:22:17 11 C 29 %
2763 26-04-2019 00:34:17 11 C 29 %
2764 26-04-2019 00:46:17 10.8 C 30 %
2765 26-04-2019 00:58:17 10.8 C 30 %
2766 26-04-2019 01:10:17 10.7 C 31 %
2767 26-04-2019 01:22:17 10.7 C 31 %
2768 26-04-2019 01:34:18 10.7 C 32 %
2769 26-04-2019 01:46:17 10.7 C 32 %
2770 26-04-2019 01:58:17 10.7 C 32 %
2771 26-04-2019 02:10:17 11.2 C 27 %
2772 26-04-2019 02:22:17 11.2 C 27 %
2773 26-04-2019 02:34:18 11.2 C 26 %
2774 26-04-2019 02:46:17 11.2 C 26 %
2775 26-04-2019 02:58:17 11.2 C 26 %
Sensor: Nr:Datum:Temp:Feuchte:
Aussen-T/F 2776 26-04-2019 03:10:17 11.2 C 26 %
2777 26-04-2019 03:22:17 11 C 26 %
2778 26-04-2019 03:34:18 10.9 C 27 %
2779 26-04-2019 03:46:17 10.9 C 27 %
2780 26-04-2019 03:58:17 10.9 C 27 %
2781 26-04-2019 04:10:17 10.9 C 27 %
2782 26-04-2019 04:22:17 10.9 C 27 %
2783 26-04-2019 04:34:17 10.9 C 27 %
2784 26-04-2019 04:46:17 10.5 C 29 %
2785 26-04-2019 04:58:17 10.5 C 28 %
2786 26-04-2019 05:10:17 10.6 C 28 %
2787 26-04-2019 05:22:17 10.6 C 28 %
2788 26-04-2019 05:34:17 10.6 C 28 %
2789 26-04-2019 05:46:17 9.2 C 45 %
2790 26-04-2019 05:58:17 9.1 C 45 %
2791 26-04-2019 06:10:17 9.1 C 47 %
2792 26-04-2019 06:22:17 9 C 47 %
2793 26-04-2019 06:34:18 9 C 48 %
2794 26-04-2019 06:46:18 8.9 C 49 %
2795 26-04-2019 06:58:18 9 C 50 %
2796 26-04-2019 07:10:17 9 C 50 %
2797 26-04-2019 07:22:17 8.9 C 50 %
2798 26-04-2019 07:34:17 9.1 C 50 %
2799 26-04-2019 07:46:17 9 C 49 %
2800 26-04-2019 07:58:17 9.1 C 49 %
Sensor: Nr:Datum:Temp:Feuchte:
Aussen-T/F 2801 26-04-2019 08:10:17 9.1 C 49 %
2802 26-04-2019 08:22:17 9.1 C 48 %
2803 26-04-2019 08:34:17 9 C 48 %
2804 26-04-2019 08:46:17 9.1 C 49 %
2805 26-04-2019 08:58:17 9.3 C 49 %
2806 26-04-2019 09:10:18 9.5 C 48 %
2807 26-04-2019 09:22:17 9.5 C 46 %
2808 26-04-2019 09:34:17 9.6 C 45 %
2809 26-04-2019 09:46:40 9.6 C 45 %
2810 26-04-2019 09:58:40 9.7 C 45 %
2811 26-04-2019 10:10:17 9.7 C 45 %
2812 26-04-2019 10:22:17 9.7 C 43 %
2813 26-04-2019 10:34:17 9.8 C 42 %
2814 26-04-2019 10:46:17 10 C 40 %
2815 26-04-2019 10:58:17 10.4 C 40 %
2816 26-04-2019 11:10:17 10.6 C 40 %
2817 26-04-2019 11:22:17 10.6 C 40 %
2818 26-04-2019 11:34:17 11 C 35 %
2819 26-04-2019 11:46:17 11 C 35 %
2820 26-04-2019 11:58:17 11.3 C 33 %
2821 26-04-2019 12:10:17 11.9 C 31 %
2822 26-04-2019 12:22:17 12.7 C 28 %
2823 26-04-2019 12:34:17 12.8 C 27 %
2824 26-04-2019 12:46:17 13.3 C 25 %
2825 26-04-2019 12:58:18 13.2 C 25 %
Sensor: Nr:Datum:Temp:Feuchte:
Aussen-T/F 2826 26-04-2019 13:10:17 13.6 C 24 %
2827 26-04-2019 13:22:17 13.8 C 22 %
2828 26-04-2019 13:34:17 13.8 C 20 %
2829 26-04-2019 13:46:17 13.5 C 20 %
2830 26-04-2019 13:58:17 14 C 20 %
2831 26-04-2019 14:10:17 14.1 C 20 %
2832 26-04-2019 14:22:17 14.1 C 20 %
2833 26-04-2019 14:34:17 14.6 C 20 %
2834 26-04-2019 14:46:17 14.2 C 20 %
2835 26-04-2019 14:58:17 14 C 20 %
2836 26-04-2019 15:10:17 13.7 C 20 %
2837 26-04-2019 15:22:17 13.6 C 20 %
2838 26-04-2019 15:34:17 13.8 C 20 %
2839 26-04-2019 15:46:17 14.4 C 20 %
2840 26-04-2019 15:58:17 15.2 C 20 %
2841 26-04-2019 16:10:17 15.2 C 20 %
2842 26-04-2019 16:22:17 15.7 C 20 %
2843 26-04-2019 16:34:17 16.4 C 20 %
2844 26-04-2019 16:46:17 16.3 C 20 %
2845 26-04-2019 16:58:17 15.6 C 20 %
2846 26-04-2019 17:10:17 16.4 C 20 %
2847 26-04-2019 17:22:17 16.1 C 20 %
2848 26-04-2019 17:34:17 15.4 C 20 %
2849 26-04-2019 17:46:17 17.1 C 20 %
2850 26-04-2019 17:58:17 17.5 C 20 %
Sensor: Nr:Datum:Temp:Feuchte:
Aussen-T/F 2851 26-04-2019 18:10:17 18.6 C 20 %
2852 26-04-2019 18:22:17 18.3 C 20 %
2853 26-04-2019 18:34:17 16.7 C 20 %
2854 26-04-2019 18:46:17 16.2 C 20 %
2855 26-04-2019 18:58:17 16.8 C 20 %
2856 26-04-2019 19:10:17 16.8 C 20 %
2857 26-04-2019 19:22:17 16.1 C 20 %
2858 26-04-2019 19:34:18 14.8 C 23 %
2859 26-04-2019 19:46:18 14.7 C 25 %
2860 26-04-2019 19:58:18 13.5 C 27 %
2861 26-04-2019 20:10:17 12.7 C 26 %
2862 26-04-2019 20:22:17 12.1 C 27 %
2863 26-04-2019 20:34:17 12.1 C 27 %
2864 26-04-2019 20:46:17 10.8 C 33 %
2865 26-04-2019 20:58:17 10.7 C 33 %
2866 26-04-2019 21:10:17 10.5 C 40 %
2867 26-04-2019 21:22:17 10.3 C 37 %
2868 26-04-2019 21:34:17 10.7 C 35 %
2869 26-04-2019 21:46:17 10.7 C 34 %
2870 26-04-2019 21:58:17 10.6 C 36 %
2871 26-04-2019 22:10:17 10.2 C 37 %
2872 26-04-2019 22:22:18 9.7 C 40 %
2873 26-04-2019 22:34:17 9.6 C 43 %
2874 26-04-2019 22:46:17 9.8 C 44 %
2875 26-04-2019 22:58:17 10.1 C 41 %
Sensor: Nr:Datum:Temp:Feuchte:
Aussen-T/F 2876 26-04-2019 23:10:17 9.8 C 40 %
2877 26-04-2019 23:22:17 9.3 C 41 %
2878 26-04-2019 23:34:17 9.2 C 43 %
2879 26-04-2019 23:46:17 9.2 C 45 %
2880 26-04-2019 23:58:17 8.9 C 45 %
2881 27-04-2019 00:10:17 8.5 C 46 %
2882 27-04-2019 00:22:17 8.5 C 47 %
2883 27-04-2019 00:34:17 8.7 C 48 %
2884 27-04-2019 00:46:17 8.7 C 47 %
2885 27-04-2019 00:58:17 8.7 C 47 %
2886 27-04-2019 01:10:17 9 C 47 %
2887 27-04-2019 01:22:17 8.9 C 47 %
2888 27-04-2019 01:34:17 8.7 C 46 %
2889 27-04-2019 01:46:17 8.5 C 47 %
2890 27-04-2019 01:58:17 8.4 C 47 %
2891 27-04-2019 02:10:17 8.3 C 48 %
2892 27-04-2019 02:22:17 8.1 C 48 %
2893 27-04-2019 02:34:18 8.1 C 48 %
2894 27-04-2019 02:46:17 7.6 C 49 %
2895 27-04-2019 02:58:18 7.5 C 50 %
2896 27-04-2019 03:10:18 7.4 C 50 %
2897 27-04-2019 03:22:17 7.1 C 50 %
2898 27-04-2019 03:34:17 6.9 C 51 %
2899 27-04-2019 03:46:17 6.9 C 51 %
2900 27-04-2019 03:58:17 6.8 C 51 %
Sensor: Nr:Datum:Temp:Feuchte:
Aussen-T/F 2901 27-04-2019 04:10:17 6.7 C 51 %
2902 27-04-2019 04:22:17 6.3 C 51 %
2903 27-04-2019 04:34:17 6.1 C 51 %
2904 27-04-2019 04:46:17 6.3 C 52 %
2905 27-04-2019 04:58:17 6.4 C 52 %
2906 27-04-2019 05:10:18 6 C 51 %
2907 27-04-2019 05:22:17 5.8 C 52 %
2908 27-04-2019 05:34:17 5.7 C 52 %
2909 27-04-2019 05:46:17 5.6 C 52 %
2910 27-04-2019 05:58:17 5.5 C 53 %
2911 27-04-2019 06:10:18 5.5 C 54 %
2912 27-04-2019 06:22:17 5.7 C 55 %
2913 27-04-2019 06:34:17 5.7 C 55 %
2914 27-04-2019 06:46:17 6 C 55 %
2915 27-04-2019 06:58:17 6.3 C 56 %
2916 27-04-2019 07:10:17 6.5 C 54 %
2917 27-04-2019 07:22:17 6.7 C 55 %
2918 27-04-2019 07:34:17 7.3 C 56 %
2919 27-04-2019 07:46:17 7.5 C 57 %
2920 27-04-2019 07:58:17 8 C 56 %
2921 27-04-2019 08:10:17 8.4 C 55 %
2922 27-04-2019 08:22:17 8.7 C 52 %
2923 27-04-2019 08:34:17 8.9 C 50 %
2924 27-04-2019 08:46:17 9.3 C 48 %
2925 27-04-2019 08:58:17 9.8 C 44 %
Sensor: Nr:Datum:Temp:Feuchte:
Aussen-T/F 2926 27-04-2019 09:10:17 10.4 C 41 %
2927 27-04-2019 09:22:17 10.4 C 41 %
2928 27-04-2019 09:34:17 11.1 C 32 %
2929 27-04-2019 09:46:17 11.4 C 31 %
2930 27-04-2019 09:58:17 11.2 C 30 %
2931 27-04-2019 10:10:17 11.1 C 30 %
2932 27-04-2019 10:23:17 11.1 C 31 %
2933 27-04-2019 10:35:17 11.3 C 31 %
2934 27-04-2019 10:47:17 12.1 C 29 %
2935 27-04-2019 10:58:17 12.2 C 25 %
2936 27-04-2019 11:11:17 13.4 C 20 %
2937 27-04-2019 11:23:17 13.5 C 20 %
2938 27-04-2019 11:34:17 12.8 C 20 %
2939 27-04-2019 11:46:17 12.7 C 20 %
2940 27-04-2019 11:58:17 12.6 C 20 %
2941 27-04-2019 12:11:17 11.8 C 28 %
2942 27-04-2019 12:23:17 12.2 C 27 %
2943 27-04-2019 12:34:17 12.4 C 26 %
2944 27-04-2019 12:46:17 13.1 C 25 %
2945 27-04-2019 12:58:17 13.9 C 21 %
2946 27-04-2019 13:10:17 14.4 C 21 %
2947 27-04-2019 13:22:17 14.1 C 20 %
2948 27-04-2019 13:34:17 13.7 C 20 %
2949 27-04-2019 13:46:17 11.6 C 20 %
2950 27-04-2019 13:58:17 8.6 C 33 %
Sensor: Nr:Datum:Temp:Feuchte:
Aussen-T/F 2951 27-04-2019 14:10:17 8.2 C 38 %
2952 27-04-2019 14:22:18 8.7 C 40 %
2953 27-04-2019 14:35:17 8.7 C 41 %
2954 27-04-2019 14:46:18 9.8 C 35 %
2955 27-04-2019 14:58:18 9.6 C 35 %
2956 27-04-2019 15:10:18 9.6 C 40 %
2957 27-04-2019 15:23:17 9.5 C 41 %
2958 27-04-2019 15:35:17 10.8 C 37 %
2959 27-04-2019 15:47:17 10.4 C 32 %
2960 27-04-2019 15:59:17 10.8 C 32 %
2961 27-04-2019 16:11:17 10.8 C 32 %
2962 27-04-2019 16:23:17 12.2 C 23 %
2963 27-04-2019 16:35:17 13.4 C 20 %
2964 27-04-2019 16:47:17 12.5 C 20 %
2965 27-04-2019 16:59:17 12.7 C 20 %
2966 27-04-2019 17:11:17 11.8 C 25 %
2967 27-04-2019 17:23:17 11.8 C 21 %
2968 27-04-2019 17:35:17 12.6 C 20 %
2969 27-04-2019 17:47:17 11.8 C 20 %
2970 27-04-2019 17:59:17 13.3 C 20 %
2971 27-04-2019 18:11:17 12 C 20 %
2972 27-04-2019 18:23:17 11.2 C 22 %
2973 27-04-2019 18:35:17 9.2 C 34 %
2974 27-04-2019 18:47:17 8.9 C 42 %
2975 27-04-2019 18:59:17 9 C 43 %
Sensor: Nr:Datum:Temp:Feuchte:
Aussen-T/F 2976 27-04-2019 19:11:17 9.2 C 44 %
2977 27-04-2019 19:23:17 9.2 C 41 %
2978 27-04-2019 19:35:17 8.7 C 42 %
2979 27-04-2019 19:47:17 7.8 C 40 %
2980 27-04-2019 19:59:17 7.4 C 43 %
2981 27-04-2019 20:11:17 7.2 C 44 %
2982 27-04-2019 20:23:17 7.1 C 46 %
2983 27-04-2019 20:35:17 7 C 46 %
2984 27-04-2019 20:47:17 7 C 47 %
2985 27-04-2019 20:59:18 7 C 46 %
2986 27-04-2019 21:10:18 7 C 47 %
2987 27-04-2019 21:23:17 7 C 47 %
2988 27-04-2019 21:35:17 7 C 48 %
2989 27-04-2019 21:47:17 6.8 C 49 %
2990 27-04-2019 21:59:17 6.3 C 50 %
2991 27-04-2019 22:11:17 6.2 C 51 %
2992 27-04-2019 22:23:17 6.5 C 51 %
2993 27-04-2019 22:35:17 6.5 C 49 %
2994 27-04-2019 22:47:17 6.4 C 48 %
2995 27-04-2019 22:59:17 6.6 C 49 %
2996 27-04-2019 23:11:17 6.6 C 49 %
2997 27-04-2019 23:23:18 6.6 C 46 %
2998 27-04-2019 23:35:18 6.8 C 42 %
2999 27-04-2019 23:47:17 6.8 C 40 %
3000 27-04-2019 23:59:17 6.8 C 40 %
Sensor: Nr:Datum:Temp:Feuchte:
Aussen-T/F 3001 28-04-2019 00:11:17 7 C 36 %
3002 28-04-2019 00:23:17 7 C 36 %
3003 28-04-2019 00:35:17 7 C 36 %
3004 28-04-2019 00:47:17 7 C 36 %
3005 28-04-2019 00:59:17 7.1 C 35 %
3006 28-04-2019 01:11:17 6.9 C 36 %
3007 28-04-2019 01:23:17 6.9 C 36 %
3008 28-04-2019 01:35:17 6.9 C 36 %
3009 28-04-2019 01:47:17 6.9 C 36 %
3010 28-04-2019 01:59:17 6.9 C 36 %
3011 28-04-2019 02:11:17 6.9 C 36 %
3012 28-04-2019 02:23:17 6.9 C 36 %
3013 28-04-2019 02:35:17 6.9 C 36 %
3014 28-04-2019 02:47:17 6.9 C 36 %
3015 28-04-2019 02:59:17 6.9 C 36 %
3016 28-04-2019 03:11:17 6.9 C 36 %
3017 28-04-2019 03:23:17 6.9 C 36 %
3018 28-04-2019 03:35:18 6.9 C 36 %
3019 28-04-2019 03:47:17 6.9 C 36 %
3020 28-04-2019 03:59:17 6.9 C 36 %
3021 28-04-2019 04:11:17 6.9 C 36 %
3022 28-04-2019 04:23:17 6.9 C 36 %
3023 28-04-2019 04:35:17 6.9 C 36 %
3024 28-04-2019 04:47:17 6.9 C 36 %
3025 28-04-2019 04:59:17 6.9 C 36 %
Sensor: Nr:Datum:Temp:Feuchte:
Aussen-T/F 3026 28-04-2019 05:11:17 6.9 C 36 %
3027 28-04-2019 05:23:17 6.9 C 36 %
3028 28-04-2019 05:35:17 6.9 C 36 %
3029 28-04-2019 05:47:17 6.9 C 36 %
3030 28-04-2019 05:59:17 5.9 C 34 %
3031 28-04-2019 06:11:17 5.8 C 35 %
3032 28-04-2019 06:23:17 5.8 C 35 %
3033 28-04-2019 06:35:17 5.9 C 35 %
3034 28-04-2019 06:47:17 5.8 C 35 %
3035 28-04-2019 06:59:17 6 C 35 %
3036 28-04-2019 07:11:17 6.3 C 33 %
3037 28-04-2019 07:23:17 6.7 C 32 %
3038 28-04-2019 07:35:17 7.1 C 30 %
3039 28-04-2019 07:47:17 7.3 C 30 %
3040 28-04-2019 07:59:17 7.3 C 30 %
3041 28-04-2019 08:11:18 7.4 C 30 %
3042 28-04-2019 08:23:17 7.3 C 29 %
3043 28-04-2019 08:35:17 7.4 C 30 %
3044 28-04-2019 08:47:17 7.4 C 30 %
3045 28-04-2019 08:59:17 7.5 C 30 %
3046 28-04-2019 09:11:18 7.6 C 31 %
3047 28-04-2019 09:23:17 7.8 C 30 %
3048 28-04-2019 09:35:17 7.7 C 31 %
3049 28-04-2019 09:47:17 7.6 C 33 %
3050 28-04-2019 09:59:17 8.5 C 32 %
Sensor: Nr:Datum:Temp:Feuchte:
Aussen-T/F 3051 28-04-2019 10:11:17 8.4 C 30 %
3052 28-04-2019 10:23:17 9.4 C 26 %
3053 28-04-2019 10:35:17 9.6 C 25 %
3054 28-04-2019 10:47:17 10 C 21 %
3055 28-04-2019 10:59:17 10.5 C 20 %
3056 28-04-2019 11:11:17 10.9 C 20 %
3057 28-04-2019 11:23:17 11.8 C 20 %
3058 28-04-2019 11:35:17 11.4 C 20 %
3059 28-04-2019 11:47:18 10.6 C 20 %
3060 28-04-2019 11:59:18 10.9 C 20 %
3061 28-04-2019 12:11:17 10.9 C 20 %
3062 28-04-2019 12:23:17 10.4 C 20 %
3063 28-04-2019 12:35:17 10.4 C 20 %
3064 28-04-2019 12:47:17 10.5 C 20 %
3065 28-04-2019 12:59:17 11 C 20 %
3066 28-04-2019 13:11:17 11.1 C 20 %
3067 28-04-2019 13:23:17 11.2 C 20 %
3068 28-04-2019 13:35:17 11.4 C 20 %
3069 28-04-2019 13:47:17 12.1 C 20 %
3070 28-04-2019 13:59:17 12.3 C 20 %
3071 28-04-2019 14:11:17 12.2 C 20 %
3072 28-04-2019 14:23:17 12.2 C 20 %
3073 28-04-2019 14:35:17 12.9 C 20 %
3074 28-04-2019 14:47:17 13.2 C 20 %
3075 28-04-2019 14:59:17 13.1 C 20 %
Sensor: Nr:Datum:Temp:Feuchte:
Aussen-T/F 3076 28-04-2019 15:11:17 12 C 20 %
3077 28-04-2019 15:23:18 11.4 C 20 %
3078 28-04-2019 15:35:17 10.4 C 20 %
3079 28-04-2019 15:47:17 9.8 C 27 %
3080 28-04-2019 15:59:17 9.1 C 35 %
3081 28-04-2019 16:11:17 9.1 C 35 %
3082 28-04-2019 16:23:17 9.3 C 35 %
3083 28-04-2019 16:35:17 9.6 C 33 %
3084 28-04-2019 16:47:17 11.2 C 28 %
3085 28-04-2019 16:59:17 11.2 C 28 %
3086 28-04-2019 17:11:17 11.5 C 22 %
3087 28-04-2019 17:23:17 11.5 C 25 %
3088 28-04-2019 17:35:17 11.4 C 24 %
3089 28-04-2019 17:47:17 11.1 C 25 %
3090 28-04-2019 17:59:17 11.3 C 28 %
3091 28-04-2019 18:11:17 11.1 C 26 %
3092 28-04-2019 18:23:17 11.7 C 20 %
3093 28-04-2019 18:35:17 11.7 C 20 %
3094 28-04-2019 18:47:17 11.2 C 20 %
3095 28-04-2019 18:59:17 11.1 C 20 %
3096 28-04-2019 19:11:17 10.5 C 20 %
3097 28-04-2019 19:23:17 10.4 C 20 %
3098 28-04-2019 19:35:17 10.5 C 21 %
3099 28-04-2019 19:47:17 10.8 C 20 %
3100 28-04-2019 19:59:18 10.5 C 20 %
Sensor: Nr:Datum:Temp:Feuchte:
Aussen-T/F 3101 28-04-2019 20:11:18 9.6 C 25 %
3102 28-04-2019 20:23:17 8.7 C 30 %
3103 28-04-2019 20:35:17 7.9 C 36 %
3104 28-04-2019 20:47:17 8 C 35 %
3105 28-04-2019 20:59:18 7.1 C 39 %
3106 28-04-2019 21:11:18 6.6 C 41 %
3107 28-04-2019 21:23:17 6.5 C 42 %
3108 28-04-2019 21:35:17 6.2 C 42 %
3109 28-04-2019 21:47:17 6.2 C 42 %
3110 28-04-2019 21:59:17 5.7 C 46 %
3111 28-04-2019 22:11:17 5.2 C 46 %
3112 28-04-2019 22:23:17 5.2 C 46 %
3113 28-04-2019 22:35:17 5.2 C 46 %
3114 28-04-2019 22:47:17 4.7 C 50 %
3115 28-04-2019 22:59:17 4.5 C 50 %
3116 28-04-2019 23:11:17 4.2 C 50 %
3117 28-04-2019 23:23:17 4.1 C 50 %
3118 28-04-2019 23:35:17 4 C 50 %
3119 28-04-2019 23:47:17 3.9 C 52 %
3120 28-04-2019 23:59:17 3.9 C 52 %
3121 29-04-2019 00:11:17 3.7 C 52 %
3122 29-04-2019 00:23:17 3.6 C 52 %
3123 29-04-2019 00:35:17 3.5 C 52 %
3124 29-04-2019 00:47:17 3.4 C 52 %
3125 29-04-2019 00:59:17 3.5 C 53 %
Sensor: Nr:Datum:Temp:Feuchte:
Aussen-T/F 3126 29-04-2019 01:11:17 3.5 C 53 %
3127 29-04-2019 01:23:17 3.3 C 52 %
3128 29-04-2019 01:35:17 3 C 52 %
3129 29-04-2019 01:47:17 2.8 C 53 %
3130 29-04-2019 01:59:17 2.8 C 53 %
3131 29-04-2019 02:11:17 2.9 C 54 %
3132 29-04-2019 02:23:17 2.9 C 54 %
3133 29-04-2019 02:35:18 2.7 C 54 %
3134 29-04-2019 02:47:18 3.2 C 55 %
3135 29-04-2019 02:59:18 3.2 C 55 %
3136 29-04-2019 03:11:17 3.1 C 54 %
3137 29-04-2019 03:23:17 3.4 C 56 %
3138 29-04-2019 03:35:17 3.4 C 55 %
3139 29-04-2019 03:47:17 3.3 C 55 %
3140 29-04-2019 03:59:17 3.3 C 55 %
3141 29-04-2019 04:11:17 3.3 C 55 %
3142 29-04-2019 04:23:17 3.2 C 55 %
3143 29-04-2019 04:35:17 3.2 C 55 %
3144 29-04-2019 04:47:17 3 C 53 %
3145 29-04-2019 04:59:17 3.2 C 53 %
3146 29-04-2019 05:11:17 3.3 C 53 %
3147 29-04-2019 05:23:17 3.1 C 53 %
3148 29-04-2019 05:35:17 3 C 52 %
3149 29-04-2019 05:47:17 3 C 53 %
3150 29-04-2019 05:59:17 3 C 53 %
Sensor: Nr:Datum:Temp:Feuchte:
Aussen-T/F 3151 29-04-2019 06:11:17 2.8 C 53 %
3152 29-04-2019 06:23:17 2.7 C 52 %
3153 29-04-2019 06:35:17 2.7 C 51 %
3154 29-04-2019 06:47:17 2.8 C 51 %
3155 29-04-2019 06:59:17 2.9 C 51 %
3156 29-04-2019 07:11:17 2.8 C 50 %
3157 29-04-2019 07:23:17 3 C 48 %
3158 29-04-2019 07:35:17 3.1 C 47 %
3159 29-04-2019 07:47:17 3.4 C 47 %
3160 29-04-2019 07:59:17 3.6 C 46 %
3161 29-04-2019 08:11:17 3.7 C 46 %
3162 29-04-2019 08:23:17 3.8 C 45 %
3163 29-04-2019 08:35:17 4.5 C 42 %
3164 29-04-2019 08:47:17 4.5 C 40 %
3165 29-04-2019 08:59:17 5 C 40 %
3166 29-04-2019 09:11:17 5.2 C 39 %
3167 29-04-2019 09:23:18 5.7 C 37 %
3168 29-04-2019 09:35:17 6 C 36 %
3169 29-04-2019 09:47:17 6 C 36 %
3170 29-04-2019 09:59:17 7 C 33 %
3171 29-04-2019 10:11:17 7.8 C 32 %
3172 29-04-2019 10:23:17 8.2 C 30 %
3173 29-04-2019 10:35:17 8.6 C 31 %
3174 29-04-2019 10:47:17 9.1 C 30 %
3175 29-04-2019 10:59:17 11.7 C 23 %
Sensor: Nr:Datum:Temp:Feuchte:
Aussen-T/F 3176 29-04-2019 11:11:17 11.3 C 22 %
3177 29-04-2019 11:23:17 12.5 C 20 %
3178 29-04-2019 11:35:18 11.5 C 24 %
3179 29-04-2019 11:47:17 11.3 C 25 %
3180 29-04-2019 11:59:17 11.4 C 25 %
3181 29-04-2019 12:11:17 11.9 C 24 %
3182 29-04-2019 12:23:17 12.4 C 20 %
3183 29-04-2019 12:35:17 12.7 C 20 %
3184 29-04-2019 12:47:17 12.7 C 20 %
3185 29-04-2019 12:59:17 14.2 C 20 %
3186 29-04-2019 13:11:17 14.3 C 20 %
3187 29-04-2019 13:23:17 14.3 C 20 %
3188 29-04-2019 13:35:18 14.9 C 20 %
3189 29-04-2019 13:47:18 15 C 20 %
3190 29-04-2019 13:59:18 14.6 C 20 %
3191 29-04-2019 14:11:18 15.4 C 20 %
3192 29-04-2019 14:23:17 15.5 C 20 %
3193 29-04-2019 14:35:17 15.5 C 20 %
3194 29-04-2019 14:47:17 16.7 C 20 %
3195 29-04-2019 14:59:17 15.5 C 20 %
3196 29-04-2019 15:11:17 16.5 C 20 %
3197 29-04-2019 15:23:17 15.8 C 20 %
3198 29-04-2019 15:35:17 15.8 C 20 %
3199 29-04-2019 15:47:17 16 C 20 %
3200 29-04-2019 15:59:17 15.4 C 20 %
Sensor: Nr:Datum:Temp:Feuchte:
Aussen-T/F 3201 29-04-2019 16:11:17 15.8 C 20 %
3202 29-04-2019 16:23:17 15.8 C 20 %
3203 29-04-2019 16:35:17 15.4 C 20 %
3204 29-04-2019 16:47:17 15.6 C 20 %
3205 29-04-2019 16:59:17 15.8 C 20 %
3206 29-04-2019 17:11:17 15.8 C 20 %
3207 29-04-2019 17:23:17 15.6 C 20 %
3208 29-04-2019 17:35:17 15.4 C 20 %
3209 29-04-2019 17:47:17 15.4 C 20 %
3210 29-04-2019 17:59:17 15.4 C 20 %
3211 29-04-2019 18:11:17 13.8 C 20 %
3212 29-04-2019 18:23:17 13.2 C 20 %
3213 29-04-2019 18:35:17 12.8 C 20 %
3214 29-04-2019 18:47:17 11.2 C 33 %
3215 29-04-2019 18:59:17 10.7 C 37 %
3216 29-04-2019 19:11:18 10.4 C 40 %
3217 29-04-2019 19:23:17 10.1 C 43 %
3218 29-04-2019 19:35:17 9.8 C 45 %
3219 29-04-2019 19:47:17 9.7 C 46 %
3220 29-04-2019 19:59:17 9.7 C 47 %
3221 29-04-2019 20:11:18 9.5 C 47 %
3222 29-04-2019 20:23:17 9.6 C 47 %
3223 29-04-2019 20:35:17 9.6 C 48 %
3224 29-04-2019 20:47:17 9.5 C 48 %
3225 29-04-2019 20:59:17 9.5 C 48 %
Sensor: Nr:Datum:Temp:Feuchte:
Aussen-T/F 3226 29-04-2019 21:11:18 9.4 C 48 %
3227 29-04-2019 21:23:17 9.4 C 47 %
3228 29-04-2019 21:35:17 9.4 C 46 %
3229 29-04-2019 21:47:17 9.5 C 45 %
3230 29-04-2019 21:59:17 9.5 C 45 %
3231 29-04-2019 22:11:17 9.4 C 45 %
3232 29-04-2019 22:23:17 9.4 C 46 %
3233 29-04-2019 22:35:17 9.5 C 45 %
3234 29-04-2019 22:47:17 9.4 C 45 %
3235 29-04-2019 22:59:17 9.7 C 44 %
3236 29-04-2019 23:11:17 9.7 C 43 %
3237 29-04-2019 23:23:17 9.9 C 40 %
3238 29-04-2019 23:35:17 10.1 C 39 %
3239 29-04-2019 23:47:17 10 C 40 %
3240 29-04-2019 23:59:17 10 C 40 %
3241 30-04-2019 00:11:17 10 C 40 %
3242 30-04-2019 00:23:17 10.6 C 34 %
3243 30-04-2019 00:35:17 10.5 C 35 %
3244 30-04-2019 00:47:17 10.5 C 35 %
3245 30-04-2019 00:59:17 10.7 C 33 %
3246 30-04-2019 01:11:17 10.7 C 32 %
3247 30-04-2019 01:23:17 10.6 C 33 %
3248 30-04-2019 01:35:17 10.5 C 35 %
3249 30-04-2019 01:47:17 10.5 C 35 %
3250 30-04-2019 01:59:17 10.5 C 35 %
Sensor: Nr:Datum:Temp:Feuchte:
Aussen-T/F 3251 30-04-2019 02:11:17 10.5 C 36 %
3252 30-04-2019 02:23:17 10.5 C 36 %
3253 30-04-2019 02:35:18 10.4 C 37 %
3254 30-04-2019 02:47:17 10.3 C 37 %
3255 30-04-2019 02:59:18 10.2 C 37 %
3256 30-04-2019 03:11:18 10.2 C 37 %
3257 30-04-2019 03:23:17 10.2 C 37 %
3258 30-04-2019 03:35:17 10.1 C 36 %
3259 30-04-2019 03:47:17 10 C 36 %
3260 30-04-2019 03:59:17 10 C 37 %
3261 30-04-2019 04:11:17 9.9 C 38 %
3262 30-04-2019 04:23:17 9.8 C 38 %
3263 30-04-2019 04:35:17 9.8 C 38 %
3264 30-04-2019 04:47:17 9.8 C 38 %
3265 30-04-2019 04:59:17 9.6 C 39 %
3266 30-04-2019 05:11:17 9.7 C 37 %
3267 30-04-2019 05:23:17 9.7 C 37 %
3268 30-04-2019 05:35:17 9.7 C 36 %
3269 30-04-2019 05:47:17 9.7 C 36 %
3270 30-04-2019 05:59:17 9.6 C 37 %
3271 30-04-2019 06:11:18 9.6 C 38 %
3272 30-04-2019 06:23:18 9.6 C 39 %
3273 30-04-2019 06:35:18 9.5 C 39 %
3274 30-04-2019 06:47:18 9.5 C 40 %
3275 30-04-2019 06:59:18 9.5 C 40 %
Sensor: Nr:Datum:Temp:Feuchte:
Aussen-T/F 3276 30-04-2019 07:11:17 9.6 C 40 %
3277 30-04-2019 07:23:17 9.8 C 36 %
3278 30-04-2019 07:35:17 10 C 35 %
3279 30-04-2019 07:47:17 10 C 35 %
3280 30-04-2019 07:59:17 10.3 C 32 %
3281 30-04-2019 08:11:17 10.5 C 31 %
3282 30-04-2019 08:23:17 10.5 C 31 %
3283 30-04-2019 08:35:17 10.9 C 26 %
3284 30-04-2019 08:47:17 11 C 25 %
3285 30-04-2019 08:59:17 10.8 C 22 %
3286 30-04-2019 09:11:17 10.8 C 20 %
3287 30-04-2019 09:23:17 10.8 C 20 %
3288 30-04-2019 09:35:17 11.7 C 20 %
3289 30-04-2019 09:47:17 12.1 C 20 %
3290 30-04-2019 09:59:17 12.3 C 20 %
3291 30-04-2019 10:11:17 12.3 C 20 %
3292 30-04-2019 10:23:17 12.3 C 20 %
3293 30-04-2019 10:35:18 12.3 C 20 %
3294 30-04-2019 10:47:18 12.3 C 20 %
3295 30-04-2019 10:59:18 12.3 C 20 %
3296 30-04-2019 11:11:17 12.3 C 20 %
3297 30-04-2019 11:23:17 12.3 C 20 %
3298 30-04-2019 11:35:17 14.9 C 20 %
3299 30-04-2019 11:47:17 14.9 C 20 %
3300 30-04-2019 11:59:17 14.9 C 20 %
Sensor: Nr:Datum:Temp:Feuchte:
Aussen-T/F 3301 30-04-2019 12:11:17 14.9 C 20 %
3302 30-04-2019 12:23:17 14.6 C 20 %
3303 30-04-2019 12:35:17 14.8 C 20 %
3304 30-04-2019 12:47:18 15 C 20 %
3305 30-04-2019 12:59:18 15.2 C 20 %
3306 30-04-2019 13:11:17 15.2 C 20 %
3307 30-04-2019 13:23:17 15.6 C 20 %
3308 30-04-2019 13:35:17 15.7 C 20 %
3309 30-04-2019 13:47:17 16 C 20 %
3310 30-04-2019 13:59:17 16 C 20 %
3311 30-04-2019 14:11:17 16.6 C 20 %
3312 30-04-2019 14:23:17 17.2 C 20 %
3313 30-04-2019 14:35:17 17.6 C 20 %
3314 30-04-2019 14:47:17 18 C 20 %
3315 30-04-2019 14:59:17 18.8 C 20 %
3316 30-04-2019 15:11:17 19.5 C 20 %
3317 30-04-2019 15:23:17 19.2 C 20 %
3318 30-04-2019 15:35:18 19.2 C 20 %
3319 30-04-2019 15:47:17 19.4 C 20 %
3320 30-04-2019 15:59:18 19.5 C 20 %
3321 30-04-2019 16:11:17 20 C 20 %
3322 30-04-2019 16:23:17 20.6 C 20 %
3323 30-04-2019 16:35:18 20.1 C 20 %
3324 30-04-2019 16:47:17 20.9 C 20 %
3325 30-04-2019 16:59:17 20.8 C 20 %
Sensor: Nr:Datum:Temp:Feuchte:
Aussen-T/F 3326 30-04-2019 17:11:17 20.5 C 20 %
3327 30-04-2019 17:23:18 21.2 C 20 %
3328 30-04-2019 17:35:17 21.2 C 20 %
3329 30-04-2019 17:47:17 21.2 C 20 %
3330 30-04-2019 17:59:17 21.4 C 20 %
3331 30-04-2019 18:11:17 20.5 C 20 %
3332 30-04-2019 18:23:17 20.5 C 20 %
3333 30-04-2019 18:35:17 21.4 C 20 %
3334 30-04-2019 18:47:18 21.4 C 20 %
3335 30-04-2019 18:59:18 20.6 C 20 %
3336 30-04-2019 19:11:18 20.6 C 20 %
3337 30-04-2019 19:23:17 19.2 C 20 %
3338 30-04-2019 19:35:17 18.6 C 20 %
3339 30-04-2019 19:47:17 18.2 C 20 %
3340 30-04-2019 19:59:17 17.5 C 20 %
3341 30-04-2019 20:11:17 17.2 C 20 %
3342 30-04-2019 20:23:17 17 C 20 %
3343 30-04-2019 20:35:17 16.6 C 20 %
3344 30-04-2019 20:47:17 16.6 C 20 %
3345 30-04-2019 20:59:17 16.1 C 20 %
3346 30-04-2019 21:11:17 15.4 C 20 %
3347 30-04-2019 21:23:17 15 C 20 %
3348 30-04-2019 21:35:18 15 C 20 %
3349 30-04-2019 21:47:17 14.7 C 20 %
3350 30-04-2019 21:59:17 14.1 C 20 %
Sensor: Nr:Datum:Temp:Feuchte:
Aussen-T/F 3351 30-04-2019 22:11:17 14.3 C 20 %
3352 30-04-2019 22:23:17 14.1 C 20 %
3353 30-04-2019 22:35:17 13.7 C 20 %
3354 30-04-2019 22:47:17 13.2 C 20 %
3355 30-04-2019 22:59:17 13 C 20 %
3356 30-04-2019 23:11:17 12.8 C 20 %
3357 30-04-2019 23:23:17 12 C 26 %
3358 30-04-2019 23:35:17 11.7 C 27 %
3359 30-04-2019 23:47:17 11.4 C 29 %
3360 30-04-2019 23:59:17 10.8 C 32 %
3361 01-05-2019 00:11:17 10.9 C 31 %
3362 01-05-2019 00:23:17 10.7 C 32 %
3363 01-05-2019 00:35:17 11 C 30 %
3364 01-05-2019 00:47:17 10.4 C 31 %
3365 01-05-2019 00:59:17 9.9 C 35 %
3366 01-05-2019 01:11:17 10.2 C 35 %
3367 01-05-2019 01:23:17 9.9 C 35 %
3368 01-05-2019 01:35:17 9.5 C 37 %
3369 01-05-2019 01:47:17 9.5 C 38 %
3370 01-05-2019 01:59:17 9.1 C 38 %
3371 01-05-2019 02:11:17 8.9 C 40 %
3372 01-05-2019 02:23:17 8.6 C 40 %
3373 01-05-2019 02:35:17 8.3 C 41 %
3374 01-05-2019 02:47:17 8.2 C 43 %
3375 01-05-2019 02:59:17 8.1 C 44 %
Sensor: Nr:Datum:Temp:Feuchte:
Aussen-T/F 3376 01-05-2019 03:11:17 7.8 C 45 %
3377 01-05-2019 03:23:17 7.8 C 46 %
3378 01-05-2019 03:35:17 7.8 C 46 %
3379 01-05-2019 03:47:17 7.8 C 47 %
3380 01-05-2019 03:59:17 7.6 C 46 %
3381 01-05-2019 04:11:17 7.7 C 47 %
3382 01-05-2019 04:23:17 7.5 C 47 %
3383 01-05-2019 04:35:17 7.1 C 46 %
3384 01-05-2019 04:47:17 6.9 C 47 %
3385 01-05-2019 04:59:17 6.8 C 48 %
3386 01-05-2019 05:11:17 6.4 C 48 %
3387 01-05-2019 05:23:17 6.2 C 48 %
3388 01-05-2019 05:35:17 5.9 C 49 %
3389 01-05-2019 05:47:17 5.8 C 50 %
3390 01-05-2019 05:59:17 5.4 C 50 %
3391 01-05-2019 06:11:17 5.4 C 50 %
3392 01-05-2019 06:23:17 5.5 C 51 %
3393 01-05-2019 06:35:17 5.7 C 51 %
3394 01-05-2019 06:47:17 5.7 C 51 %
3395 01-05-2019 06:59:17 5.9 C 51 %
3396 01-05-2019 07:11:17 6.4 C 51 %
3397 01-05-2019 07:23:17 6.8 C 51 %
3398 01-05-2019 07:35:17 7 C 48 %
3399 01-05-2019 07:47:17 7.5 C 46 %
3400 01-05-2019 07:59:17 7.5 C 46 %
Sensor: Nr:Datum:Temp:Feuchte:
Aussen-T/F 3401 01-05-2019 08:11:17 8.1 C 40 %
3402 01-05-2019 08:23:17 8.6 C 38 %
3403 01-05-2019 08:35:18 8.8 C 36 %
3404 01-05-2019 08:47:17 8.9 C 35 %
3405 01-05-2019 08:59:17 9.2 C 35 %
3406 01-05-2019 09:11:17 9.2 C 34 %
3407 01-05-2019 09:23:17 9.6 C 34 %
3408 01-05-2019 09:35:17 9.6 C 32 %
3409 01-05-2019 09:47:17 10.1 C 31 %
3410 01-05-2019 09:59:17 10.6 C 30 %
3411 01-05-2019 10:11:17 10.5 C 30 %
3412 01-05-2019 10:23:17 11.2 C 28 %
3413 01-05-2019 10:35:17 11.8 C 27 %
3414 01-05-2019 10:47:17 11.7 C 27 %
3415 01-05-2019 10:59:17 12.9 C 23 %
3416 01-05-2019 11:11:17 13.6 C 20 %
3417 01-05-2019 11:23:17 14.2 C 20 %
3418 01-05-2019 11:35:17 14.8 C 20 %
3419 01-05-2019 11:47:17 13.8 C 20 %
3420 01-05-2019 11:59:17 13.6 C 21 %
3421 01-05-2019 12:11:17 14.1 C 21 %
3422 01-05-2019 12:23:17 14.1 C 21 %
3423 01-05-2019 12:35:17 14.1 C 21 %
3424 01-05-2019 12:47:17 14.8 C 20 %
3425 01-05-2019 12:59:17 15.1 C 20 %
Sensor: Nr:Datum:Temp:Feuchte:
Aussen-T/F 3426 01-05-2019 13:11:18 15.9 C 20 %
3427 01-05-2019 13:23:17 16.2 C 20 %
3428 01-05-2019 13:35:17 16.5 C 20 %
3429 01-05-2019 13:47:17 16.5 C 20 %
3430 01-05-2019 13:59:17 17.1 C 20 %
3431 01-05-2019 14:11:17 17.5 C 20 %
3432 01-05-2019 14:23:17 18.2 C 20 %
3433 01-05-2019 14:35:17 18.6 C 20 %
3434 01-05-2019 14:47:17 19.2 C 20 %
3435 01-05-2019 14:59:17 19.3 C 20 %
3436 01-05-2019 15:11:17 19.9 C 20 %
3437 01-05-2019 15:23:17 19.9 C 20 %
3438 01-05-2019 15:35:17 20.7 C 20 %
3439 01-05-2019 15:47:17 21 C 20 %
3440 01-05-2019 15:59:17 21.2 C 20 %
3441 01-05-2019 16:11:17 21.2 C 20 %
3442 01-05-2019 16:23:17 21.8 C 20 %
3443 01-05-2019 16:35:17 22.4 C 20 %
3444 01-05-2019 16:47:17 21.9 C 20 %
3445 01-05-2019 16:59:17 21.9 C 20 %
3446 01-05-2019 17:11:17 22.3 C 20 %
3447 01-05-2019 17:23:17 21.7 C 20 %
3448 01-05-2019 17:35:17 21.4 C 20 %
3449 01-05-2019 17:47:17 22.1 C 20 %
3450 01-05-2019 17:59:18 21.3 C 20 %
Sensor: Nr:Datum:Temp:Feuchte:
Aussen-T/F 3451 01-05-2019 18:11:17 21.6 C 20 %
3452 01-05-2019 18:23:17 21.5 C 20 %
3453 01-05-2019 18:35:17 21.5 C 20 %
3454 01-05-2019 18:47:17 20.3 C 20 %
3455 01-05-2019 18:59:17 20.2 C 20 %
3456 01-05-2019 19:11:17 19.5 C 20 %
3457 01-05-2019 19:23:17 18.6 C 20 %
3458 01-05-2019 19:35:17 17.6 C 20 %
3459 01-05-2019 19:47:17 17.5 C 20 %
3460 01-05-2019 19:59:17 16.9 C 20 %
3461 01-05-2019 20:11:17 16.3 C 20 %
3462 01-05-2019 20:23:17 16.3 C 20 %
3463 01-05-2019 20:35:17 14.3 C 20 %
3464 01-05-2019 20:47:18 13.5 C 20 %
3465 01-05-2019 20:59:18 12.9 C 20 %
3466 01-05-2019 21:11:17 12.9 C 20 %
3467 01-05-2019 21:23:17 13.1 C 20 %
3468 01-05-2019 21:35:17 13.1 C 20 %
3469 01-05-2019 21:47:17 13.1 C 20 %
3470 01-05-2019 21:59:17 13.1 C 20 %
3471 01-05-2019 22:11:17 13.1 C 20 %
3472 01-05-2019 22:23:17 13.1 C 20 %
3473 01-05-2019 22:35:17 13.1 C 20 %
3474 01-05-2019 22:47:18 13.1 C 20 %
3475 01-05-2019 22:59:18 13.1 C 20 %
Sensor: Nr:Datum:Temp:Feuchte:
Aussen-T/F 3476 01-05-2019 23:11:17 13.1 C 20 %
3477 01-05-2019 23:23:17 13.1 C 20 %
3478 01-05-2019 23:35:18 13.1 C 20 %
3479 01-05-2019 23:47:17 13.1 C 20 %
3480 01-05-2019 23:59:17 13.1 C 20 %
Sensor: Nr:Datum:Temp:Feuchte:
G-T/H 1 03-04-2019 00:09:17 11.8 C 67 %
2 03-04-2019 00:21:17 11.8 C 67 %
3 03-04-2019 00:33:17 11.8 C 67 %
4 03-04-2019 00:45:18 11.8 C 67 %
5 03-04-2019 00:57:18 11.8 C 67 %
6 03-04-2019 01:09:17 11.8 C 67 %
7 03-04-2019 01:21:18 11.8 C 67 %
8 03-04-2019 01:33:17 11.8 C 67 %
9 03-04-2019 01:45:17 11.8 C 67 %
10 03-04-2019 01:57:17 11.8 C 67 %
11 03-04-2019 02:09:17 11.8 C 67 %
12 03-04-2019 02:21:17 11.8 C 67 %
13 03-04-2019 02:33:17 11.8 C 67 %
14 03-04-2019 02:45:18 11.7 C 67 %
15 03-04-2019 02:57:18 11.8 C 67 %
16 03-04-2019 03:09:17 11.8 C 67 %
17 03-04-2019 03:21:17 11.7 C 67 %
18 03-04-2019 03:33:17 11.8 C 67 %
19 03-04-2019 03:45:18 11.7 C 67 %
20 03-04-2019 03:57:18 11.7 C 67 %
21 03-04-2019 04:09:17 11.7 C 67 %
22 03-04-2019 04:21:17 11.7 C 67 %
23 03-04-2019 04:33:17 11.7 C 67 %
24 03-04-2019 04:45:17 11.7 C 67 %
25 03-04-2019 04:57:17 11.7 C 67 %
Sensor: Nr:Datum:Temp:Feuchte:
G-T/H 26 03-04-2019 05:09:18 11.7 C 67 %
27 03-04-2019 05:21:17 11.7 C 67 %
28 03-04-2019 05:33:17 11.7 C 67 %
29 03-04-2019 05:45:17 11.7 C 67 %
30 03-04-2019 05:57:17 11.7 C 67 %
31 03-04-2019 06:09:18 11.7 C 67 %
32 03-04-2019 06:21:17 11.6 C 67 %
33 03-04-2019 06:33:17 11.6 C 67 %
34 03-04-2019 06:45:18 11.6 C 67 %
35 03-04-2019 06:57:18 11.6 C 67 %
36 03-04-2019 07:09:17 11.6 C 67 %
37 03-04-2019 07:21:17 11.6 C 67 %
38 03-04-2019 07:33:17 11.6 C 67 %
39 03-04-2019 07:45:18 11.6 C 67 %
40 03-04-2019 07:57:18 11.6 C 67 %
41 03-04-2019 08:09:17 11.6 C 67 %
42 03-04-2019 08:21:17 11.6 C 67 %
43 03-04-2019 08:33:18 11.5 C 67 %
44 03-04-2019 08:45:17 11.6 C 67 %
45 03-04-2019 08:57:17 11.5 C 67 %
46 03-04-2019 09:09:18 11.5 C 67 %
47 03-04-2019 09:21:17 11.5 C 67 %
48 03-04-2019 09:33:18 11.5 C 67 %
49 03-04-2019 09:45:17 11.5 C 67 %
50 03-04-2019 09:57:17 11.5 C 67 %
Sensor: Nr:Datum:Temp:Feuchte:
G-T/H 51 03-04-2019 10:09:18 11.5 C 67 %
52 03-04-2019 10:21:17 11.5 C 67 %
53 03-04-2019 10:33:17 11.4 C 67 %
54 03-04-2019 10:45:17 11.5 C 67 %
55 03-04-2019 10:57:17 11.4 C 67 %
56 03-04-2019 11:09:17 11.4 C 67 %
57 03-04-2019 11:21:17 11.4 C 67 %
58 03-04-2019 11:33:18 11.4 C 67 %
59 03-04-2019 11:45:17 11.4 C 67 %
60 03-04-2019 11:57:17 11.4 C 67 %
61 03-04-2019 12:09:18 11.4 C 67 %
62 03-04-2019 12:21:17 11.4 C 67 %
63 03-04-2019 12:33:18 11.4 C 67 %
64 03-04-2019 12:45:17 11.4 C 67 %
65 03-04-2019 12:57:17 11.4 C 67 %
66 03-04-2019 13:09:18 11.4 C 67 %
67 03-04-2019 13:21:17 11.4 C 67 %
68 03-04-2019 13:33:17 11.4 C 67 %
69 03-04-2019 13:45:17 11.4 C 67 %
70 03-04-2019 13:57:17 11.4 C 67 %
71 03-04-2019 14:09:17 11.4 C 67 %
72 03-04-2019 14:21:18 11.4 C 67 %
73 03-04-2019 14:33:17 11.4 C 67 %
74 03-04-2019 14:45:17 11.4 C 67 %
75 03-04-2019 14:57:17 11.4 C 67 %
Sensor: Nr:Datum:Temp:Feuchte:
G-T/H 76 03-04-2019 15:09:17 11.4 C 67 %
77 03-04-2019 15:21:17 11.4 C 67 %
78 03-04-2019 15:33:17 11.4 C 67 %
79 03-04-2019 15:45:17 11.4 C 67 %
80 03-04-2019 15:57:17 11.4 C 67 %
81 03-04-2019 16:09:17 11.4 C 67 %
82 03-04-2019 16:21:17 11.4 C 67 %
83 03-04-2019 16:33:17 11.4 C 67 %
84 03-04-2019 16:45:17 11.4 C 67 %
85 03-04-2019 16:57:17 11.4 C 67 %
86 03-04-2019 17:09:18 11.4 C 67 %
87 03-04-2019 17:21:17 11.4 C 67 %
88 03-04-2019 17:33:18 11.4 C 67 %
89 03-04-2019 17:45:17 11.4 C 67 %
90 03-04-2019 17:57:17 11.4 C 67 %
91 03-04-2019 18:09:18 11.4 C 67 %
92 03-04-2019 18:21:17 11.4 C 67 %
93 03-04-2019 18:33:17 11.4 C 67 %
94 03-04-2019 18:45:17 11.4 C 67 %
95 03-04-2019 18:57:17 11.4 C 67 %
96 03-04-2019 19:09:17 11.4 C 67 %
97 03-04-2019 19:21:17 11.4 C 67 %
98 03-04-2019 19:33:17 11.4 C 67 %
99 03-04-2019 19:45:17 11.4 C 67 %
100 03-04-2019 19:57:17 11.4 C 67 %
Sensor: Nr:Datum:Temp:Feuchte:
G-T/H 101 03-04-2019 20:09:17 11.4 C 67 %
102 03-04-2019 20:21:17 11.4 C 67 %
103 03-04-2019 20:33:17 11.4 C 67 %
104 03-04-2019 20:45:18 11.3 C 67 %
105 03-04-2019 20:57:18 11.3 C 67 %
106 03-04-2019 21:09:17 11.3 C 67 %
107 03-04-2019 21:21:17 11.3 C 67 %
108 03-04-2019 21:33:18 11.3 C 67 %
109 03-04-2019 21:45:17 11.3 C 67 %
110 03-04-2019 21:57:17 11.3 C 67 %
111 03-04-2019 22:09:17 11.3 C 67 %
112 03-04-2019 22:21:18 11.3 C 67 %
113 03-04-2019 22:33:17 11.2 C 67 %
114 03-04-2019 22:45:17 11.2 C 67 %
115 03-04-2019 22:57:17 11.2 C 67 %
116 03-04-2019 23:09:17 11.2 C 67 %
117 03-04-2019 23:21:17 11.2 C 67 %
118 03-04-2019 23:33:18 11.2 C 67 %
119 03-04-2019 23:45:17 11.2 C 67 %
120 03-04-2019 23:57:17 11.2 C 67 %
121 04-04-2019 00:09:18 11.1 C 67 %
122 04-04-2019 00:21:17 11.1 C 67 %
123 04-04-2019 00:33:18 11.1 C 67 %
124 04-04-2019 00:45:18 11.1 C 67 %
125 04-04-2019 00:57:18 11.1 C 67 %
Sensor: Nr:Datum:Temp:Feuchte:
G-T/H 126 04-04-2019 01:09:17 11.1 C 67 %
127 04-04-2019 01:21:18 11.1 C 67 %
128 04-04-2019 01:33:17 11 C 67 %
129 04-04-2019 01:45:17 11 C 67 %
130 04-04-2019 01:57:17 11 C 67 %
131 04-04-2019 02:09:17 11 C 67 %
132 04-04-2019 02:21:18 11 C 67 %
133 04-04-2019 02:33:17 11 C 67 %
134 04-04-2019 02:45:17 11 C 67 %
135 04-04-2019 02:57:17 10.9 C 68 %
136 04-04-2019 03:09:17 10.9 C 68 %
137 04-04-2019 03:21:18 10.9 C 68 %
138 04-04-2019 03:33:17 10.9 C 68 %
139 04-04-2019 03:45:17 10.8 C 68 %
140 04-04-2019 03:57:17 10.8 C 68 %
141 04-04-2019 04:09:18 10.8 C 68 %
142 04-04-2019 04:21:17 10.8 C 68 %
143 04-04-2019 04:33:18 10.8 C 68 %
144 04-04-2019 04:45:17 10.8 C 68 %
145 04-04-2019 04:57:18 10.8 C 68 %
146 04-04-2019 05:09:17 10.7 C 68 %
147 04-04-2019 05:21:17 10.7 C 68 %
148 04-04-2019 05:33:17 10.7 C 68 %
149 04-04-2019 05:45:17 10.7 C 68 %
150 04-04-2019 05:57:17 10.7 C 68 %
Sensor: Nr:Datum:Temp:Feuchte:
G-T/H 151 04-04-2019 06:09:18 10.7 C 68 %
152 04-04-2019 06:21:18 10.7 C 68 %
153 04-04-2019 06:33:17 10.7 C 68 %
154 04-04-2019 06:45:17 10.7 C 68 %
155 04-04-2019 06:57:17 10.7 C 68 %
156 04-04-2019 07:09:17 10.7 C 68 %
157 04-04-2019 07:21:17 10.6 C 68 %
158 04-04-2019 07:33:18 10.6 C 68 %
159 04-04-2019 07:45:17 10.6 C 68 %
160 04-04-2019 07:57:17 10.6 C 68 %
161 04-04-2019 08:09:18 10.6 C 68 %
162 04-04-2019 08:21:17 10.5 C 68 %
163 04-04-2019 08:33:17 10.5 C 68 %
164 04-04-2019 08:45:17 10.5 C 68 %
165 04-04-2019 08:57:17 10.5 C 68 %
166 04-04-2019 09:09:17 10.5 C 68 %
167 04-04-2019 09:21:17 10.5 C 68 %
168 04-04-2019 09:33:17 10.5 C 68 %
169 04-04-2019 09:45:18 10.5 C 68 %
170 04-04-2019 09:57:18 10.5 C 68 %
171 04-04-2019 10:09:17 10.5 C 68 %
172 04-04-2019 10:21:17 10.5 C 68 %
173 04-04-2019 10:33:18 10.5 C 68 %
174 04-04-2019 10:45:17 10.5 C 68 %
175 04-04-2019 10:57:17 10.5 C 68 %
Sensor: Nr:Datum:Temp:Feuchte:
G-T/H 176 04-04-2019 11:09:18 10.5 C 68 %
177 04-04-2019 11:21:17 10.4 C 68 %
178 04-04-2019 11:33:17 10.5 C 68 %
179 04-04-2019 11:45:17 10.5 C 68 %
180 04-04-2019 11:57:17 10.4 C 68 %
181 04-04-2019 12:09:17 10.4 C 68 %
182 04-04-2019 12:21:17 10.4 C 68 %
183 04-04-2019 12:33:17 10.4 C 68 %
184 04-04-2019 12:45:17 10.4 C 68 %
185 04-04-2019 12:57:18 10.4 C 68 %
186 04-04-2019 13:09:17 10.4 C 68 %
187 04-04-2019 13:21:17 10.4 C 68 %
188 04-04-2019 13:33:17 10.4 C 68 %
189 04-04-2019 13:45:18 10.4 C 68 %
190 04-04-2019 13:57:18 10.4 C 68 %
191 04-04-2019 14:09:17 10.4 C 68 %
192 04-04-2019 14:21:17 10.4 C 68 %
193 04-04-2019 14:33:17 10.4 C 68 %
194 04-04-2019 14:45:17 10.4 C 68 %
195 04-04-2019 14:57:18 10.4 C 68 %
196 04-04-2019 15:09:17 10.4 C 68 %
197 04-04-2019 15:21:17 10.4 C 68 %
198 04-04-2019 15:33:18 10.4 C 68 %
199 04-04-2019 15:45:18 10.4 C 68 %
200 04-04-2019 15:57:18 10.4 C 68 %
Sensor: Nr:Datum:Temp:Feuchte:
G-T/H 201 04-04-2019 16:09:17 10.4 C 68 %
202 04-04-2019 16:21:17 10.4 C 68 %
203 04-04-2019 16:33:17 10.4 C 68 %
204 04-04-2019 16:45:17 10.4 C 68 %
205 04-04-2019 16:57:17 10.4 C 68 %
206 04-04-2019 17:09:17 10.4 C 68 %
207 04-04-2019 17:21:17 10.4 C 68 %
208 04-04-2019 17:33:17 10.4 C 68 %
209 04-04-2019 17:45:17 10.4 C 68 %
210 04-04-2019 17:57:17 10.5 C 68 %
211 04-04-2019 18:09:17 10.4 C 68 %
212 04-04-2019 18:21:17 10.5 C 68 %
213 04-04-2019 18:33:17 10.5 C 68 %
214 04-04-2019 18:45:17 10.5 C 68 %
215 04-04-2019 18:57:17 10.5 C 68 %
216 04-04-2019 19:09:18 10.4 C 68 %
217 04-04-2019 19:21:17 10.4 C 68 %
218 04-04-2019 19:33:17 10.5 C 68 %
219 04-04-2019 19:45:18 10.5 C 68 %
220 04-04-2019 19:57:18 10.4 C 68 %
221 04-04-2019 20:09:17 10.4 C 68 %
222 04-04-2019 20:21:17 10.4 C 68 %
223 04-04-2019 20:33:17 10.4 C 68 %
224 04-04-2019 20:45:17 10.4 C 68 %
225 04-04-2019 20:57:17 10.4 C 68 %
Sensor: Nr:Datum:Temp:Feuchte:
G-T/H 226 04-04-2019 21:09:17 10.4 C 68 %
227 04-04-2019 21:21:17 10.4 C 68 %
228 04-04-2019 21:33:17 10.4 C 68 %
229 04-04-2019 21:45:17 10.4 C 68 %
230 04-04-2019 21:57:18 10.4 C 68 %
231 04-04-2019 22:09:17 10.3 C 68 %
232 04-04-2019 22:21:17 10.3 C 68 %
233 04-04-2019 22:33:17 10.4 C 68 %
234 04-04-2019 22:45:17 10.3 C 68 %
235 04-04-2019 22:57:17 10.3 C 68 %
236 04-04-2019 23:09:17 10.3 C 68 %
237 04-04-2019 23:21:18 10.3 C 68 %
238 04-04-2019 23:33:17 10.3 C 68 %
239 04-04-2019 23:45:18 10.3 C 68 %
240 04-04-2019 23:57:18 10.2 C 68 %
241 05-04-2019 00:09:17 10.2 C 68 %
242 05-04-2019 00:21:18 10.2 C 68 %
243 05-04-2019 00:33:17 10.1 C 68 %
244 05-04-2019 00:45:17 10.1 C 68 %
245 05-04-2019 00:57:17 10.1 C 68 %
246 05-04-2019 01:09:17 10 C 67 %
247 05-04-2019 01:21:17 10.1 C 67 %
248 05-04-2019 01:33:18 10 C 67 %
249 05-04-2019 01:45:17 10 C 67 %
250 05-04-2019 01:57:17 10 C 67 %
Sensor: Nr:Datum:Temp:Feuchte:
G-T/H 251 05-04-2019 02:09:17 10 C 67 %
252 05-04-2019 02:21:17 10 C 67 %
253 05-04-2019 02:33:18 9.9 C 68 %
254 05-04-2019 02:45:17 9.9 C 68 %
255 05-04-2019 02:57:18 9.9 C 68 %
256 05-04-2019 03:09:17 9.8 C 67 %
257 05-04-2019 03:21:17 9.8 C 67 %
258 05-04-2019 03:33:18 9.8 C 67 %
259 05-04-2019 03:45:18 9.8 C 67 %
260 05-04-2019 03:57:18 9.8 C 67 %
261 05-04-2019 04:09:17 9.8 C 67 %
262 05-04-2019 04:21:17 9.8 C 67 %
263 05-04-2019 04:33:17 9.8 C 67 %
264 05-04-2019 04:45:17 9.8 C 67 %
265 05-04-2019 04:57:17 9.8 C 68 %
266 05-04-2019 05:09:17 9.8 C 68 %
267 05-04-2019 05:21:18 9.8 C 68 %
268 05-04-2019 05:33:17 9.8 C 68 %
269 05-04-2019 05:45:17 9.8 C 68 %
270 05-04-2019 05:57:17 9.8 C 68 %
271 05-04-2019 06:09:18 9.8 C 68 %
272 05-04-2019 06:21:17 9.8 C 68 %
273 05-04-2019 06:33:17 9.7 C 68 %
274 05-04-2019 06:45:17 9.7 C 68 %
275 05-04-2019 06:57:17 9.7 C 68 %
Sensor: Nr:Datum:Temp:Feuchte:
G-T/H 276 05-04-2019 07:09:17 9.7 C 68 %
277 05-04-2019 07:21:17 9.7 C 68 %
278 05-04-2019 07:33:17 9.7 C 68 %
279 05-04-2019 07:45:17 9.7 C 68 %
280 05-04-2019 07:57:17 9.7 C 68 %
281 05-04-2019 08:09:17 9.7 C 68 %
282 05-04-2019 08:21:17 9.7 C 68 %
283 05-04-2019 08:33:17 9.7 C 68 %
284 05-04-2019 08:45:17 9.6 C 68 %
285 05-04-2019 08:57:17 9.7 C 68 %
286 05-04-2019 09:09:18 9.7 C 68 %
287 05-04-2019 09:21:17 9.7 C 69 %
288 05-04-2019 09:33:18 9.7 C 69 %
289 05-04-2019 09:45:17 9.7 C 69 %
290 05-04-2019 09:57:17 9.6 C 69 %
291 05-04-2019 10:09:17 9.6 C 69 %
292 05-04-2019 10:21:18 9.7 C 69 %
293 05-04-2019 10:33:17 9.6 C 69 %
294 05-04-2019 10:45:18 9.7 C 69 %
295 05-04-2019 10:57:18 9.7 C 69 %
296 05-04-2019 11:09:17 9.7 C 69 %
297 05-04-2019 11:21:17 9.7 C 69 %
298 05-04-2019 11:33:18 9.7 C 69 %
299 05-04-2019 11:45:17 9.7 C 69 %
300 05-04-2019 11:57:17 9.7 C 69 %
Sensor: Nr:Datum:Temp:Feuchte:
G-T/H 301 05-04-2019 12:09:17 9.7 C 69 %
302 05-04-2019 12:21:17 9.7 C 69 %
303 05-04-2019 12:33:17 9.7 C 69 %
304 05-04-2019 12:45:17 9.7 C 69 %
305 05-04-2019 12:57:17 9.7 C 69 %
306 05-04-2019 13:09:17 9.7 C 69 %
307 05-04-2019 13:21:17 9.7 C 69 %
308 05-04-2019 13:33:17 9.7 C 69 %
309 05-04-2019 13:45:17 9.7 C 69 %
310 05-04-2019 13:57:17 9.7 C 69 %
311 05-04-2019 14:09:17 9.8 C 69 %
312 05-04-2019 14:21:17 9.8 C 69 %
313 05-04-2019 14:33:17 9.8 C 69 %
314 05-04-2019 14:45:17 9.8 C 69 %
315 05-04-2019 14:57:17 9.8 C 69 %
316 05-04-2019 15:09:18 9.8 C 69 %
317 05-04-2019 15:21:17 9.8 C 69 %
318 05-04-2019 15:33:17 9.8 C 69 %
319 05-04-2019 15:45:17 9.9 C 69 %
320 05-04-2019 15:57:17 9.9 C 69 %
321 05-04-2019 16:09:17 9.9 C 69 %
322 05-04-2019 16:21:17 9.9 C 69 %
323 05-04-2019 16:33:17 9.9 C 69 %
324 05-04-2019 16:45:17 9.9 C 69 %
325 05-04-2019 16:57:17 9.9 C 69 %
Sensor: Nr:Datum:Temp:Feuchte:
G-T/H 326 05-04-2019 17:09:17 9.9 C 70 %
327 05-04-2019 17:21:17 9.9 C 70 %
328 05-04-2019 17:33:17 9.9 C 70 %
329 05-04-2019 17:45:18 10 C 69 %
330 05-04-2019 17:57:18 10 C 69 %
331 05-04-2019 18:09:17 10 C 69 %
332 05-04-2019 18:21:17 10 C 69 %
333 05-04-2019 18:33:17 10 C 69 %
334 05-04-2019 18:45:17 10 C 69 %
335 05-04-2019 18:57:17 10 C 69 %
336 05-04-2019 19:09:17 10 C 69 %
337 05-04-2019 19:21:17 10 C 69 %
338 05-04-2019 19:33:17 10.1 C 69 %
339 05-04-2019 19:45:17 10 C 69 %
340 05-04-2019 19:57:17 10 C 69 %
341 05-04-2019 20:09:17 10.1 C 69 %
342 05-04-2019 20:21:17 10.1 C 69 %
343 05-04-2019 20:33:18 10.1 C 69 %
344 05-04-2019 20:45:17 10.1 C 69 %
345 05-04-2019 20:57:17 10.1 C 69 %
346 05-04-2019 21:09:17 10.1 C 69 %
347 05-04-2019 21:21:17 10.1 C 69 %
348 05-04-2019 21:33:17 10.1 C 69 %
349 05-04-2019 21:45:17 10.1 C 69 %
350 05-04-2019 21:57:17 10.1 C 69 %
Sensor: Nr:Datum:Temp:Feuchte:
G-T/H 351 05-04-2019 22:09:17 10.1 C 69 %
352 05-04-2019 22:21:17 10.1 C 69 %
353 05-04-2019 22:33:18 10.1 C 69 %
354 05-04-2019 22:45:18 10.1 C 69 %
355 05-04-2019 22:57:18 10.1 C 69 %
356 05-04-2019 23:09:17 10.1 C 69 %
357 05-04-2019 23:21:17 10.1 C 70 %
358 05-04-2019 23:33:17 10.1 C 70 %
359 05-04-2019 23:45:17 10.1 C 70 %
360 05-04-2019 23:57:17 10.1 C 70 %
361 06-04-2019 00:09:17 10.1 C 70 %
362 06-04-2019 00:21:17 10.1 C 70 %
363 06-04-2019 00:33:17 10.1 C 70 %
364 06-04-2019 00:45:17 10.1 C 70 %
365 06-04-2019 00:57:17 10.1 C 70 %
366 06-04-2019 01:09:18 10.1 C 70 %
367 06-04-2019 01:21:17 10.1 C 70 %
368 06-04-2019 01:33:17 10.1 C 70 %
369 06-04-2019 01:45:17 10.1 C 70 %
370 06-04-2019 01:57:17 10.1 C 70 %
371 06-04-2019 02:09:17 10.1 C 70 %
372 06-04-2019 02:21:17 10.1 C 70 %
373 06-04-2019 02:33:17 10.1 C 70 %
374 06-04-2019 02:45:17 10.1 C 70 %
375 06-04-2019 02:57:17 10.1 C 70 %
Sensor: Nr:Datum:Temp:Feuchte:
G-T/H 376 06-04-2019 03:09:17 10.1 C 70 %
377 06-04-2019 03:21:17 10.1 C 70 %
378 06-04-2019 03:33:18 10.1 C 70 %
379 06-04-2019 03:45:18 10.1 C 70 %
380 06-04-2019 03:57:18 10 C 70 %
381 06-04-2019 04:09:17 10.1 C 70 %
382 06-04-2019 04:21:17 10 C 70 %
383 06-04-2019 04:33:17 10.1 C 70 %
384 06-04-2019 04:45:17 10 C 70 %
385 06-04-2019 04:57:17 10 C 70 %
386 06-04-2019 05:09:17 10 C 70 %
387 06-04-2019 05:21:17 10 C 70 %
388 06-04-2019 05:33:17 10 C 70 %
389 06-04-2019 05:45:17 10 C 70 %
390 06-04-2019 05:57:17 10 C 70 %
391 06-04-2019 06:09:17 10 C 70 %
392 06-04-2019 06:21:17 10 C 70 %
393 06-04-2019 06:33:17 10 C 70 %
394 06-04-2019 06:45:17 9.9 C 71 %
395 06-04-2019 06:57:17 9.9 C 71 %
396 06-04-2019 07:09:17 9.9 C 71 %
397 06-04-2019 07:21:17 9.9 C 71 %
398 06-04-2019 07:33:17 9.9 C 71 %
399 06-04-2019 07:45:17 9.9 C 71 %
400 06-04-2019 07:57:17 9.9 C 71 %
Sensor: Nr:Datum:Temp:Feuchte:
G-T/H 401 06-04-2019 08:09:17 9.9 C 71 %
402 06-04-2019 08:21:17 9.9 C 71 %
403 06-04-2019 08:33:18 9.9 C 71 %
404 06-04-2019 08:45:18 9.9 C 71 %
405 06-04-2019 08:57:18 9.9 C 71 %
406 06-04-2019 09:09:17 9.9 C 71 %
407 06-04-2019 09:21:17 9.9 C 71 %
408 06-04-2019 09:33:17 9.8 C 71 %
409 06-04-2019 09:45:17 9.8 C 71 %
410 06-04-2019 09:57:17 9.8 C 71 %
411 06-04-2019 10:09:17 9.8 C 71 %
412 06-04-2019 10:21:18 9.8 C 71 %
413 06-04-2019 10:33:17 9.8 C 71 %
414 06-04-2019 10:45:17 9.8 C 71 %
415 06-04-2019 10:57:17 9.8 C 71 %
416 06-04-2019 11:09:17 9.8 C 71 %
417 06-04-2019 11:21:17 9.9 C 71 %
418 06-04-2019 11:33:17 9.9 C 71 %
419 06-04-2019 11:45:17 9.9 C 71 %
420 06-04-2019 11:57:17 10 C 70 %
421 06-04-2019 12:09:17 10.1 C 70 %
422 06-04-2019 12:21:17 10.1 C 70 %
423 06-04-2019 12:33:17 10.2 C 70 %
424 06-04-2019 12:45:17 10.2 C 70 %
425 06-04-2019 12:57:17 10.2 C 70 %
Sensor: Nr:Datum:Temp:Feuchte:
G-T/H 426 06-04-2019 13:09:17 10.2 C 70 %
427 06-04-2019 13:21:18 10.2 C 70 %
428 06-04-2019 13:33:18 10.2 C 70 %
429 06-04-2019 13:45:17 10.3 C 70 %
430 06-04-2019 13:57:18 10.3 C 70 %
431 06-04-2019 14:09:17 10.4 C 70 %
432 06-04-2019 14:21:17 10.4 C 70 %
433 06-04-2019 14:33:18 10.4 C 70 %
434 06-04-2019 14:45:18 10.4 C 70 %
435 06-04-2019 14:57:18 10.5 C 70 %
436 06-04-2019 15:09:17 10.5 C 70 %
437 06-04-2019 15:21:17 10.5 C 70 %
438 06-04-2019 15:33:17 11.2 C 69 %
439 06-04-2019 15:45:17 11.6 C 67 %
440 06-04-2019 15:57:17 11.9 C 66 %
441 06-04-2019 16:09:17 12 C 64 %
442 06-04-2019 16:21:17 12.1 C 64 %
443 06-04-2019 16:33:18 12.2 C 63 %
444 06-04-2019 16:45:17 12.5 C 63 %
445 06-04-2019 16:57:18 12.5 C 63 %
446 06-04-2019 17:09:17 12.5 C 64 %
447 06-04-2019 17:21:17 12.4 C 64 %
448 06-04-2019 17:33:18 12.4 C 64 %
449 06-04-2019 17:45:17 12.3 C 65 %
450 06-04-2019 17:57:18 12.3 C 65 %
Sensor: Nr:Datum:Temp:Feuchte:
G-T/H 451 06-04-2019 18:09:18 12.2 C 65 %
452 06-04-2019 18:21:17 12.2 C 65 %
453 06-04-2019 18:33:17 12.2 C 66 %
454 06-04-2019 18:45:17 12.2 C 66 %
455 06-04-2019 18:57:17 12.2 C 66 %
456 06-04-2019 19:09:17 12.1 C 66 %
457 06-04-2019 19:21:17 12.1 C 66 %
458 06-04-2019 19:33:17 12.1 C 66 %
459 06-04-2019 19:45:17 12.1 C 67 %
460 06-04-2019 19:57:17 12.1 C 67 %
461 06-04-2019 20:09:17 12.1 C 67 %
462 06-04-2019 20:21:17 12 C 67 %
463 06-04-2019 20:33:17 12 C 67 %
464 06-04-2019 20:45:17 12 C 67 %
465 06-04-2019 20:57:17 12 C 68 %
466 06-04-2019 21:09:17 12 C 68 %
467 06-04-2019 21:21:17 12 C 68 %
468 06-04-2019 21:33:17 12 C 68 %
469 06-04-2019 21:45:17 11.9 C 69 %
470 06-04-2019 21:57:17 11.9 C 69 %
471 06-04-2019 22:09:17 11.9 C 69 %
472 06-04-2019 22:21:18 11.9 C 69 %
473 06-04-2019 22:33:17 11.9 C 69 %
474 06-04-2019 22:45:17 11.9 C 69 %
475 06-04-2019 22:57:17 11.9 C 69 %
Sensor: Nr:Datum:Temp:Feuchte:
G-T/H 476 06-04-2019 23:09:17 11.9 C 69 %
477 06-04-2019 23:21:17 11.8 C 69 %
478 06-04-2019 23:33:17 11.8 C 69 %
479 06-04-2019 23:45:17 11.8 C 69 %
480 06-04-2019 23:57:17 11.8 C 69 %
481 07-04-2019 00:09:18 11.8 C 69 %
482 07-04-2019 00:21:17 11.8 C 69 %
483 07-04-2019 00:33:17 11.8 C 69 %
484 07-04-2019 00:45:17 11.8 C 69 %
485 07-04-2019 00:57:17 11.8 C 69 %
486 07-04-2019 01:09:17 11.8 C 69 %
487 07-04-2019 01:21:17 11.7 C 69 %
488 07-04-2019 01:33:17 11.7 C 69 %
489 07-04-2019 01:45:17 11.7 C 69 %
490 07-04-2019 01:57:17 11.7 C 69 %
491 07-04-2019 02:09:17 11.7 C 69 %
492 07-04-2019 02:21:17 11.7 C 69 %
493 07-04-2019 02:33:17 11.7 C 69 %
494 07-04-2019 02:45:17 11.6 C 69 %
495 07-04-2019 02:57:17 11.6 C 69 %
496 07-04-2019 03:09:17 11.6 C 69 %
497 07-04-2019 03:21:17 11.6 C 69 %
498 07-04-2019 03:33:18 11.6 C 69 %
499 07-04-2019 03:45:18 11.5 C 69 %
500 07-04-2019 03:57:18 11.6 C 69 %
Sensor: Nr:Datum:Temp:Feuchte:
G-T/H 501 07-04-2019 04:09:17 11.5 C 69 %
502 07-04-2019 04:21:17 11.5 C 69 %
503 07-04-2019 04:33:17 11.5 C 69 %
504 07-04-2019 04:45:17 11.5 C 69 %
505 07-04-2019 04:57:17 11.4 C 69 %
506 07-04-2019 05:09:17 11.5 C 69 %
507 07-04-2019 05:21:17 11.4 C 69 %
508 07-04-2019 05:33:17 11.4 C 69 %
509 07-04-2019 05:45:17 11.4 C 69 %
510 07-04-2019 05:57:17 11.4 C 68 %
511 07-04-2019 06:09:17 11.3 C 68 %
512 07-04-2019 06:21:17 11.2 C 68 %
513 07-04-2019 06:33:18 11.3 C 68 %
514 07-04-2019 06:45:17 11.2 C 68 %
515 07-04-2019 06:57:17 11.2 C 68 %
516 07-04-2019 07:09:17 11.2 C 68 %
517 07-04-2019 07:21:17 11.2 C 68 %
518 07-04-2019 07:33:17 11.1 C 68 %
519 07-04-2019 07:45:17 11.1 C 68 %
520 07-04-2019 07:57:17 11 C 67 %
521 07-04-2019 08:09:17 11 C 67 %
522 07-04-2019 08:21:17 11 C 67 %
523 07-04-2019 08:33:17 11 C 67 %
524 07-04-2019 08:45:17 11 C 67 %
525 07-04-2019 08:57:17 11 C 67 %
Sensor: Nr:Datum:Temp:Feuchte:
G-T/H 526 07-04-2019 09:09:17 11 C 67 %
527 07-04-2019 09:21:17 11 C 67 %
528 07-04-2019 09:33:17 11 C 68 %
529 07-04-2019 09:45:17 11 C 68 %
530 07-04-2019 09:57:17 11 C 68 %
531 07-04-2019 10:09:17 10.9 C 68 %
532 07-04-2019 10:21:17 10.9 C 69 %
533 07-04-2019 10:33:18 10.9 C 69 %
534 07-04-2019 10:45:17 10.9 C 69 %
535 07-04-2019 10:57:17 10.9 C 69 %
536 07-04-2019 11:09:17 10.9 C 69 %
537 07-04-2019 11:21:17 11 C 68 %
538 07-04-2019 11:33:17 11 C 68 %
539 07-04-2019 11:45:17 11 C 68 %
540 07-04-2019 11:57:17 11 C 68 %
541 07-04-2019 12:09:17 11 C 68 %
542 07-04-2019 12:21:17 11 C 68 %
543 07-04-2019 12:33:17 11.1 C 68 %
544 07-04-2019 12:45:17 11 C 68 %
545 07-04-2019 12:57:17 11.1 C 69 %
546 07-04-2019 13:09:17 11.1 C 69 %
547 07-04-2019 13:21:18 11.1 C 69 %
548 07-04-2019 13:33:18 11.1 C 69 %
549 07-04-2019 13:45:17 11.2 C 69 %
550 07-04-2019 13:57:17 11.8 C 66 %
Sensor: Nr:Datum:Temp:Feuchte:
G-T/H 551 07-04-2019 14:09:17 11.5 C 66 %
552 07-04-2019 14:21:17 11.5 C 66 %
553 07-04-2019 14:33:17 11.4 C 66 %
554 07-04-2019 14:45:17 11.4 C 66 %
555 07-04-2019 14:57:17 11.4 C 66 %
556 07-04-2019 15:09:18 11.4 C 66 %
557 07-04-2019 15:21:17 11.4 C 67 %
558 07-04-2019 15:33:18 11.5 C 67 %
559 07-04-2019 15:45:18 11.5 C 67 %
560 07-04-2019 15:57:18 11.5 C 67 %
561 07-04-2019 16:09:17 11.5 C 67 %
562 07-04-2019 16:21:17 11.5 C 67 %
563 07-04-2019 16:33:17 11.6 C 67 %
564 07-04-2019 16:45:17 11.5 C 67 %
565 07-04-2019 16:57:17 11.6 C 67 %
566 07-04-2019 17:09:17 11.6 C 67 %
567 07-04-2019 17:21:17 11.7 C 67 %
568 07-04-2019 17:33:17 11.7 C 67 %
569 07-04-2019 17:45:17 11.7 C 68 %
570 07-04-2019 17:57:17 11.7 C 68 %
571 07-04-2019 18:09:17 11.7 C 68 %
572 07-04-2019 18:21:17 11.7 C 68 %
573 07-04-2019 18:33:17 11.8 C 68 %
574 07-04-2019 18:45:17 11.8 C 68 %
575 07-04-2019 18:57:17 11.8 C 68 %
Sensor: Nr:Datum:Temp:Feuchte:
G-T/H 576 07-04-2019 19:09:18 11.8 C 68 %
577 07-04-2019 19:21:17 11.8 C 68 %
578 07-04-2019 19:33:17 11.8 C 68 %
579 07-04-2019 19:45:17 11.8 C 68 %
580 07-04-2019 19:57:17 11.8 C 68 %
581 07-04-2019 20:09:17 11.8 C 68 %
582 07-04-2019 20:21:17 11.9 C 68 %
583 07-04-2019 20:33:18 11.9 C 68 %
584 07-04-2019 20:45:18 11.9 C 68 %
585 07-04-2019 20:57:18 11.9 C 69 %
586 07-04-2019 21:09:17 12 C 68 %
587 07-04-2019 21:21:17 12 C 68 %
588 07-04-2019 21:33:17 11.9 C 69 %
589 07-04-2019 21:45:17 12 C 68 %
590 07-04-2019 21:57:17 12 C 68 %
591 07-04-2019 22:09:18 12 C 68 %
592 07-04-2019 22:21:17 12 C 68 %
593 07-04-2019 22:33:17 12 C 68 %
594 07-04-2019 22:45:17 12 C 68 %
595 07-04-2019 22:57:17 12 C 68 %
596 07-04-2019 23:09:18 12 C 68 %
597 07-04-2019 23:21:17 12.1 C 68 %
598 07-04-2019 23:33:17 12.1 C 68 %
599 07-04-2019 23:45:17 12.1 C 68 %
600 07-04-2019 23:57:18 12.1 C 69 %
Sensor: Nr:Datum:Temp:Feuchte:
G-T/H 601 08-04-2019 00:09:17 12.1 C 69 %
602 08-04-2019 00:21:17 12.1 C 69 %
603 08-04-2019 00:33:17 12.1 C 69 %
604 08-04-2019 00:45:17 12.1 C 69 %
605 08-04-2019 00:57:17 12.1 C 69 %
606 08-04-2019 01:09:17 12.1 C 69 %
607 08-04-2019 01:21:17 12.1 C 69 %
608 08-04-2019 01:33:17 12.1 C 69 %
609 08-04-2019 01:45:17 12.1 C 69 %
610 08-04-2019 01:57:17 12.1 C 69 %
611 08-04-2019 02:09:17 12.1 C 69 %
612 08-04-2019 02:21:17 12.1 C 69 %
613 08-04-2019 02:33:17 12.1 C 69 %
614 08-04-2019 02:45:17 12.1 C 69 %
615 08-04-2019 02:57:18 12.1 C 69 %
616 08-04-2019 03:09:17 12.1 C 69 %
617 08-04-2019 03:21:17 12.1 C 69 %
618 08-04-2019 03:33:17 12.1 C 69 %
619 08-04-2019 03:45:17 12.1 C 69 %
620 08-04-2019 03:57:17 12.1 C 69 %
621 08-04-2019 04:09:17 12.1 C 69 %
622 08-04-2019 04:21:18 12.1 C 69 %
623 08-04-2019 04:33:18 12.1 C 69 %
624 08-04-2019 04:45:18 12.1 C 69 %
625 08-04-2019 04:57:18 12.1 C 69 %
Sensor: Nr:Datum:Temp:Feuchte:
G-T/H 626 08-04-2019 05:09:18 12.1 C 69 %
627 08-04-2019 05:21:17 12.1 C 69 %
628 08-04-2019 05:33:17 12.1 C 69 %
629 08-04-2019 05:45:17 12.1 C 69 %
630 08-04-2019 05:57:17 12.1 C 69 %
631 08-04-2019 06:09:18 12.1 C 69 %
632 08-04-2019 06:21:17 12.1 C 69 %
633 08-04-2019 06:33:18 12.1 C 69 %
634 08-04-2019 06:45:17 12.1 C 69 %
635 08-04-2019 06:57:17 12.1 C 69 %
636 08-04-2019 07:09:17 12.1 C 69 %
637 08-04-2019 07:21:17 12.1 C 69 %
638 08-04-2019 07:33:17 12 C 69 %
639 08-04-2019 07:45:18 12.1 C 69 %
640 08-04-2019 07:57:18 12.1 C 69 %
641 08-04-2019 08:09:17 12.1 C 69 %
642 08-04-2019 08:21:17 12 C 69 %
643 08-04-2019 08:33:17 12.1 C 69 %
644 08-04-2019 08:45:18 12 C 69 %
645 08-04-2019 08:57:18 12 C 69 %
646 08-04-2019 09:09:17 12 C 69 %
647 08-04-2019 09:21:17 12 C 69 %
648 08-04-2019 09:33:17 12.1 C 70 %
649 08-04-2019 09:45:17 12 C 70 %
650 08-04-2019 09:57:17 12.1 C 70 %
Sensor: Nr:Datum:Temp:Feuchte:
G-T/H 651 08-04-2019 10:09:17 12.1 C 70 %
652 08-04-2019 10:21:17 12.1 C 70 %
653 08-04-2019 10:33:17 12.1 C 70 %
654 08-04-2019 10:45:17 12.1 C 70 %
655 08-04-2019 10:57:17 12.1 C 70 %
656 08-04-2019 11:09:17 12.1 C 70 %
657 08-04-2019 11:21:17 12.1 C 70 %
658 08-04-2019 11:33:17 12.1 C 70 %
659 08-04-2019 11:45:17 12.1 C 70 %
660 08-04-2019 11:57:17 12.1 C 70 %
661 08-04-2019 12:09:17 12.1 C 70 %
662 08-04-2019 12:21:18 12.1 C 70 %
663 08-04-2019 12:33:18 12.1 C 70 %
664 08-04-2019 12:45:17 12.1 C 70 %
665 08-04-2019 12:57:17 12.1 C 70 %
666 08-04-2019 13:09:17 12.1 C 70 %
667 08-04-2019 13:21:17 12.1 C 70 %
668 08-04-2019 13:33:17 12.1 C 70 %
669 08-04-2019 13:45:17 12.1 C 70 %
670 08-04-2019 13:57:17 12.1 C 70 %
671 08-04-2019 14:09:17 12.2 C 70 %
672 08-04-2019 14:21:17 12.2 C 70 %
673 08-04-2019 14:33:17 12.2 C 70 %
674 08-04-2019 14:45:17 12.2 C 70 %
675 08-04-2019 14:57:17 12.2 C 70 %
Sensor: Nr:Datum:Temp:Feuchte:
G-T/H 676 08-04-2019 15:09:17 12.2 C 70 %
677 08-04-2019 15:21:17 12.3 C 70 %
678 08-04-2019 15:33:18 12.3 C 70 %
679 08-04-2019 15:45:18 12.3 C 70 %
680 08-04-2019 15:57:18 12.3 C 70 %
681 08-04-2019 16:09:17 12.3 C 70 %
682 08-04-2019 16:21:17 12.3 C 70 %
683 08-04-2019 16:33:17 12.4 C 70 %
684 08-04-2019 16:45:17 12.4 C 70 %
685 08-04-2019 16:57:17 13.1 C 69 %
686 08-04-2019 17:09:17 13.1 C 70 %
687 08-04-2019 17:21:17 13.1 C 70 %
688 08-04-2019 17:33:18 13.1 C 72 %
689 08-04-2019 17:45:17 13.1 C 72 %
690 08-04-2019 17:57:17 13.1 C 73 %
691 08-04-2019 18:09:17 13.2 C 74 %
692 08-04-2019 18:21:17 13.3 C 74 %
693 08-04-2019 18:33:17 13.3 C 74 %
694 08-04-2019 18:45:17 13.3 C 74 %
695 08-04-2019 18:57:17 13.4 C 74 %
696 08-04-2019 19:09:18 13.4 C 74 %
697 08-04-2019 19:21:17 13.3 C 74 %
698 08-04-2019 19:33:17 13.2 C 73 %
699 08-04-2019 19:45:17 13.1 C 73 %
700 08-04-2019 19:57:17 13.1 C 73 %
Sensor: Nr:Datum:Temp:Feuchte:
G-T/H 701 08-04-2019 20:09:17 13.1 C 73 %
702 08-04-2019 20:21:17 13 C 73 %
703 08-04-2019 20:33:17 13 C 73 %
704 08-04-2019 20:45:17 13 C 73 %
705 08-04-2019 20:57:17 12.8 C 74 %
706 08-04-2019 21:09:17 12.6 C 74 %
707 08-04-2019 21:21:17 12.4 C 74 %
708 08-04-2019 21:33:18 12.4 C 74 %
709 08-04-2019 21:45:18 12.3 C 74 %
710 08-04-2019 21:57:18 12.3 C 74 %
711 08-04-2019 22:09:18 12.2 C 75 %
712 08-04-2019 22:21:17 12.2 C 75 %
713 08-04-2019 22:33:17 12.1 C 75 %
714 08-04-2019 22:45:17 12.1 C 75 %
715 08-04-2019 22:57:17 12.1 C 75 %
716 08-04-2019 23:09:17 12.1 C 75 %
717 08-04-2019 23:21:17 12 C 75 %
718 08-04-2019 23:33:17 12.1 C 75 %
719 08-04-2019 23:45:17 12 C 75 %
720 08-04-2019 23:57:17 12 C 75 %
721 09-04-2019 00:09:17 11.8 C 76 %
722 09-04-2019 00:21:17 11.8 C 75 %
723 09-04-2019 00:33:17 11.8 C 75 %
724 09-04-2019 00:45:18 11.7 C 75 %
725 09-04-2019 00:57:18 11.6 C 75 %
Sensor: Nr:Datum:Temp:Feuchte:
G-T/H 726 09-04-2019 01:09:18 11.6 C 75 %
727 09-04-2019 01:21:17 11.6 C 75 %
728 09-04-2019 01:33:17 11.6 C 75 %
729 09-04-2019 01:45:17 11.6 C 75 %
730 09-04-2019 01:57:17 11.6 C 75 %
731 09-04-2019 02:09:17 11.6 C 76 %
732 09-04-2019 02:21:17 11.6 C 76 %
733 09-04-2019 02:33:17 11.6 C 76 %
734 09-04-2019 02:45:17 11.6 C 76 %
735 09-04-2019 02:57:17 11.6 C 77 %
736 09-04-2019 03:09:17 11.6 C 77 %
737 09-04-2019 03:21:17 11.5 C 77 %
738 09-04-2019 03:33:17 11.5 C 77 %
739 09-04-2019 03:45:17 11.4 C 77 %
740 09-04-2019 03:57:17 11.3 C 77 %
741 09-04-2019 04:09:18 11.4 C 77 %
742 09-04-2019 04:21:17 11.3 C 77 %
743 09-04-2019 04:33:17 11.2 C 77 %
744 09-04-2019 04:45:17 11.1 C 76 %
745 09-04-2019 04:57:17 11 C 76 %
746 09-04-2019 05:09:17 10.9 C 77 %
747 09-04-2019 05:21:17 10.8 C 76 %
748 09-04-2019 05:33:18 10.8 C 76 %
749 09-04-2019 05:45:18 10.8 C 76 %
750 09-04-2019 05:57:18 10.8 C 76 %
Sensor: Nr:Datum:Temp:Feuchte:
G-T/H 751 09-04-2019 06:09:18 10.8 C 76 %
752 09-04-2019 06:21:18 10.7 C 76 %
753 09-04-2019 06:33:18 10.7 C 76 %
754 09-04-2019 06:45:18 10.7 C 76 %
755 09-04-2019 06:57:18 10.7 C 76 %
756 09-04-2019 07:09:17 10.7 C 76 %
757 09-04-2019 07:21:17 10.7 C 77 %
758 09-04-2019 07:33:18 10.7 C 77 %
759 09-04-2019 07:45:18 10.8 C 77 %
760 09-04-2019 07:57:18 10.9 C 77 %
761 09-04-2019 08:09:17 10.9 C 77 %
762 09-04-2019 08:21:17 10.8 C 77 %
763 09-04-2019 08:33:17 11 C 76 %
764 09-04-2019 08:45:17 11 C 76 %
765 09-04-2019 08:57:17 11.1 C 76 %
766 09-04-2019 09:09:17 11.2 C 76 %
767 09-04-2019 09:21:17 11.3 C 76 %
768 09-04-2019 09:33:17 11.4 C 76 %
769 09-04-2019 09:45:17 11.4 C 76 %
770 09-04-2019 09:57:17 11.4 C 76 %
771 09-04-2019 10:09:17 11.5 C 76 %
772 09-04-2019 10:21:17 11.6 C 76 %
773 09-04-2019 10:33:17 11.6 C 76 %
774 09-04-2019 10:45:17 11.7 C 76 %
775 09-04-2019 10:57:17 11.7 C 76 %
Sensor: Nr:Datum:Temp:Feuchte:
G-T/H 776 09-04-2019 11:09:17 11.7 C 76 %
777 09-04-2019 11:21:17 11.9 C 76 %
778 09-04-2019 11:33:18 11.9 C 77 %
779 09-04-2019 11:45:17 12 C 76 %
780 09-04-2019 11:57:17 12 C 76 %
781 09-04-2019 12:09:17 12 C 76 %
782 09-04-2019 12:21:17 12.1 C 76 %
783 09-04-2019 12:33:17 12.2 C 76 %
784 09-04-2019 12:45:17 12.4 C 76 %
785 09-04-2019 12:57:17 12.4 C 76 %
786 09-04-2019 13:09:17 12.5 C 76 %
787 09-04-2019 13:21:17 12.6 C 76 %
788 09-04-2019 13:33:17 12.8 C 76 %
789 09-04-2019 13:45:17 12.9 C 76 %
790 09-04-2019 13:57:17 13.1 C 75 %
791 09-04-2019 14:09:17 13.2 C 75 %
792 09-04-2019 14:21:17 13.4 C 74 %
793 09-04-2019 14:33:17 13.5 C 74 %
794 09-04-2019 14:45:17 13.7 C 74 %
795 09-04-2019 14:57:17 13.8 C 73 %
796 09-04-2019 15:09:17 13.8 C 73 %
797 09-04-2019 15:21:18 13.8 C 73 %
798 09-04-2019 15:33:17 13.8 C 73 %
799 09-04-2019 15:45:17 13.8 C 73 %
800 09-04-2019 15:57:17 13.8 C 73 %
Sensor: Nr:Datum:Temp:Feuchte:
G-T/H 801 09-04-2019 16:09:17 13.8 C 73 %
802 09-04-2019 16:21:17 13.8 C 73 %
803 09-04-2019 16:33:17 13.9 C 73 %
804 09-04-2019 16:45:17 14 C 72 %
805 09-04-2019 16:57:17 14 C 72 %
806 09-04-2019 17:09:17 14 C 72 %
807 09-04-2019 17:21:17 14 C 72 %
808 09-04-2019 17:33:17 14 C 72 %
809 09-04-2019 17:45:17 14 C 72 %
810 09-04-2019 17:57:18 13.7 C 72 %
811 09-04-2019 18:09:17 13.6 C 72 %
812 09-04-2019 18:21:17 13.5 C 73 %
813 09-04-2019 18:33:17 13.4 C 73 %
814 09-04-2019 18:45:17 13.4 C 73 %
815 09-04-2019 18:57:17 13.4 C 73 %
816 09-04-2019 19:09:17 13.3 C 73 %
817 09-04-2019 19:21:17 13.3 C 73 %
818 09-04-2019 19:33:18 13.3 C 73 %
819 09-04-2019 19:45:17 13.2 C 73 %
820 09-04-2019 19:57:17 13.2 C 73 %
821 09-04-2019 20:09:17 13.2 C 73 %
822 09-04-2019 20:21:17 13.2 C 73 %
823 09-04-2019 20:33:17 13.2 C 73 %
824 09-04-2019 20:45:17 13.1 C 73 %
825 09-04-2019 20:57:17 13.1 C 73 %
Sensor: Nr:Datum:Temp:Feuchte:
G-T/H 826 09-04-2019 21:09:17 13.1 C 73 %
827 09-04-2019 21:21:17 13.1 C 73 %
828 09-04-2019 21:33:17 13.1 C 73 %
829 09-04-2019 21:45:17 13.1 C 73 %
830 09-04-2019 21:57:17 13.1 C 73 %
831 09-04-2019 22:09:17 13.1 C 73 %
832 09-04-2019 22:21:18 13.1 C 73 %
833 09-04-2019 22:33:18 13.1 C 73 %
834 09-04-2019 22:45:18 13 C 73 %
835 09-04-2019 22:57:18 13 C 73 %
836 09-04-2019 23:09:18 13 C 73 %
837 09-04-2019 23:21:17 13 C 72 %
838 09-04-2019 23:33:17 13 C 72 %
839 09-04-2019 23:45:17 13 C 71 %
840 09-04-2019 23:57:17 12.9 C 71 %
841 10-04-2019 00:09:17 12.9 C 70 %
842 10-04-2019 00:21:17 12.9 C 69 %
843 10-04-2019 00:33:18 12.9 C 69 %
844 10-04-2019 00:45:17 12.8 C 68 %
845 10-04-2019 00:57:17 12.8 C 68 %
846 10-04-2019 01:09:17 12.8 C 68 %
847 10-04-2019 01:21:17 12.8 C 67 %
848 10-04-2019 01:33:17 12.8 C 67 %
849 10-04-2019 01:45:17 12.7 C 66 %
850 10-04-2019 01:57:17 12.7 C 66 %
Sensor: Nr:Datum:Temp:Feuchte:
G-T/H 851 10-04-2019 02:09:17 12.7 C 66 %
852 10-04-2019 02:21:17 12.7 C 66 %
853 10-04-2019 02:33:18 12.7 C 66 %
854 10-04-2019 02:45:17 12.6 C 66 %
855 10-04-2019 02:57:17 12.6 C 65 %
856 10-04-2019 03:09:17 12.6 C 65 %
857 10-04-2019 03:21:17 12.6 C 65 %
858 10-04-2019 03:33:17 12.6 C 65 %
859 10-04-2019 03:45:17 12.5 C 64 %
860 10-04-2019 03:57:17 12.6 C 64 %
861 10-04-2019 04:09:17 12.5 C 64 %
862 10-04-2019 04:21:17 12.5 C 64 %
863 10-04-2019 04:33:17 12.5 C 65 %
864 10-04-2019 04:45:17 12.5 C 65 %
865 10-04-2019 04:57:17 12.6 C 66 %
866 10-04-2019 05:09:17 12.5 C 66 %
867 10-04-2019 05:21:17 12.5 C 66 %
868 10-04-2019 05:33:17 12.5 C 66 %
869 10-04-2019 05:45:17 12.5 C 66 %
870 10-04-2019 05:57:17 12.4 C 66 %
871 10-04-2019 06:09:18 12.4 C 66 %
872 10-04-2019 06:21:17 12.4 C 66 %
873 10-04-2019 06:33:17 12.3 C 65 %
874 10-04-2019 06:45:17 12.3 C 65 %
875 10-04-2019 06:57:17 12.2 C 65 %
Sensor: Nr:Datum:Temp:Feuchte:
G-T/H 876 10-04-2019 07:09:17 12.2 C 64 %
877 10-04-2019 07:21:17 12.1 C 64 %
878 10-04-2019 07:33:17 11.8 C 63 %
879 10-04-2019 07:45:17 11.4 C 61 %
880 10-04-2019 07:57:17 10.4 C 60 %
881 10-04-2019 08:09:17 10.3 C 60 %
882 10-04-2019 08:21:17 10.3 C 59 %
883 10-04-2019 08:33:18 10.3 C 58 %
884 10-04-2019 08:45:17 10.3 C 57 %
885 10-04-2019 08:57:18 10.3 C 56 %
886 10-04-2019 09:09:18 10.2 C 56 %
887 10-04-2019 09:21:17 10.2 C 56 %
888 10-04-2019 09:33:17 10.3 C 55 %
889 10-04-2019 09:45:17 10.3 C 55 %
890 10-04-2019 09:57:17 10.4 C 55 %
891 10-04-2019 10:09:17 10.4 C 55 %
892 10-04-2019 10:21:17 10.6 C 55 %
893 10-04-2019 10:33:17 10.7 C 55 %
894 10-04-2019 10:45:17 10.7 C 55 %
895 10-04-2019 10:57:17 11 C 54 %
896 10-04-2019 11:09:17 11.1 C 54 %
897 10-04-2019 11:21:17 11.2 C 53 %
898 10-04-2019 11:33:18 11.3 C 53 %
899 10-04-2019 11:45:18 11.5 C 53 %
900 10-04-2019 11:57:18 11.6 C 53 %
Sensor: Nr:Datum:Temp:Feuchte:
G-T/H 901 10-04-2019 12:09:17 11.7 C 52 %
902 10-04-2019 12:21:17 11.7 C 52 %
903 10-04-2019 12:33:17 11.8 C 52 %
904 10-04-2019 12:45:17 11.8 C 52 %
905 10-04-2019 12:57:17 12 C 51 %
906 10-04-2019 13:09:17 12.1 C 51 %
907 10-04-2019 13:21:17 12.1 C 51 %
908 10-04-2019 13:33:18 12.3 C 51 %
909 10-04-2019 13:45:17 12.5 C 51 %
910 10-04-2019 13:57:17 12.5 C 51 %
911 10-04-2019 14:09:17 12.6 C 51 %
912 10-04-2019 14:21:17 12.6 C 50 %
913 10-04-2019 14:33:17 12.7 C 50 %
914 10-04-2019 14:45:17 12.7 C 50 %
915 10-04-2019 14:57:17 12.8 C 50 %
916 10-04-2019 15:09:17 12.9 C 49 %
917 10-04-2019 15:21:17 12.9 C 49 %
918 10-04-2019 15:33:17 13 C 47 %
919 10-04-2019 15:45:17 13.1 C 47 %
920 10-04-2019 15:57:17 13.2 C 46 %
921 10-04-2019 16:09:17 13.2 C 46 %
922 10-04-2019 16:21:17 13.3 C 46 %
923 10-04-2019 16:33:17 13.3 C 46 %
924 10-04-2019 16:45:17 13.7 C 44 %
925 10-04-2019 16:57:17 13.8 C 43 %
Sensor: Nr:Datum:Temp:Feuchte:
G-T/H 926 10-04-2019 17:09:18 13.7 C 44 %
927 10-04-2019 17:21:17 13.5 C 45 %
928 10-04-2019 17:33:17 13.4 C 46 %
929 10-04-2019 17:45:17 13.4 C 46 %
930 10-04-2019 17:57:17 13.3 C 48 %
931 10-04-2019 18:09:17 13.3 C 49 %
932 10-04-2019 18:21:17 13.2 C 50 %
933 10-04-2019 18:33:17 13.2 C 50 %
934 10-04-2019 18:45:17 13.2 C 51 %
935 10-04-2019 18:57:18 13.2 C 52 %
936 10-04-2019 19:09:17 13.2 C 53 %
937 10-04-2019 19:21:17 13.1 C 53 %
938 10-04-2019 19:33:17 13.1 C 53 %
939 10-04-2019 19:45:17 13.1 C 54 %
940 10-04-2019 19:57:17 13.1 C 54 %
941 10-04-2019 20:09:17 13 C 55 %
942 10-04-2019 20:21:17 13 C 55 %
943 10-04-2019 20:33:17 13 C 55 %
944 10-04-2019 20:45:17 13 C 56 %
945 10-04-2019 20:57:17 12.9 C 57 %
946 10-04-2019 21:09:17 12.9 C 57 %
947 10-04-2019 21:21:18 12.9 C 57 %
948 10-04-2019 21:33:17 12.8 C 57 %
949 10-04-2019 21:45:17 12.8 C 57 %
950 10-04-2019 21:57:17 12.8 C 57 %
Sensor: Nr:Datum:Temp:Feuchte:
G-T/H 951 10-04-2019 22:09:17 12.7 C 57 %
952 10-04-2019 22:21:17 12.8 C 57 %
953 10-04-2019 22:33:18 12.8 C 57 %
954 10-04-2019 22:45:17 12.7 C 57 %
955 10-04-2019 22:57:17 12.7 C 57 %
956 10-04-2019 23:09:17 12.7 C 57 %
957 10-04-2019 23:21:18 12.7 C 57 %
958 10-04-2019 23:33:18 12.6 C 57 %
959 10-04-2019 23:45:17 12.6 C 57 %
960 10-04-2019 23:57:17 12.6 C 57 %
961 11-04-2019 00:09:17 12.5 C 57 %
962 11-04-2019 00:21:17 12.5 C 57 %
963 11-04-2019 00:33:17 12.5 C 57 %
964 11-04-2019 00:45:17 12.5 C 57 %
965 11-04-2019 00:57:18 12.4 C 57 %
966 11-04-2019 01:09:18 12.4 C 57 %
967 11-04-2019 01:21:17 12.4 C 57 %
968 11-04-2019 01:33:17 12.4 C 57 %
969 11-04-2019 01:45:17 12.4 C 57 %
970 11-04-2019 01:57:17 12.3 C 57 %
971 11-04-2019 02:09:17 12.3 C 57 %
972 11-04-2019 02:21:17 12.3 C 57 %
973 11-04-2019 02:33:17 12.2 C 57 %
974 11-04-2019 02:45:17 12.2 C 57 %
975 11-04-2019 02:57:17 12.2 C 57 %
Sensor: Nr:Datum:Temp:Feuchte:
G-T/H 976 11-04-2019 03:09:17 12.2 C 57 %
977 11-04-2019 03:21:17 12.1 C 57 %
978 11-04-2019 03:33:17 12.1 C 57 %
979 11-04-2019 03:45:17 12.1 C 57 %
980 11-04-2019 03:57:17 12.1 C 57 %
981 11-04-2019 04:09:17 12 C 57 %
982 11-04-2019 04:21:17 12 C 57 %
983 11-04-2019 04:33:17 12 C 57 %
984 11-04-2019 04:45:17 11.9 C 58 %
985 11-04-2019 04:57:17 11.9 C 58 %
986 11-04-2019 05:09:18 11.9 C 58 %
987 11-04-2019 05:21:17 11.8 C 58 %
988 11-04-2019 05:33:17 11.8 C 58 %
989 11-04-2019 05:45:18 11.8 C 58 %
990 11-04-2019 05:57:18 11.7 C 58 %
991 11-04-2019 06:09:17 11.7 C 58 %
992 11-04-2019 06:21:17 11.7 C 58 %
993 11-04-2019 06:33:17 11.6 C 58 %
994 11-04-2019 06:45:17 11.6 C 58 %
995 11-04-2019 06:57:17 11.5 C 58 %
996 11-04-2019 07:09:17 11.5 C 58 %
997 11-04-2019 07:21:17 11.5 C 58 %
998 11-04-2019 07:33:17 11.5 C 59 %
999 11-04-2019 07:45:17 9.2 C 51 %
1000 11-04-2019 07:57:17 8 C 50 %
Sensor: Nr:Datum:Temp:Feuchte:
G-T/H 1001 11-04-2019 08:09:17 7.4 C 51 %
1002 11-04-2019 08:21:18 7.1 C 51 %
1003 11-04-2019 08:33:18 6.9 C 52 %
1004 11-04-2019 08:45:18 6.7 C 53 %
1005 11-04-2019 08:57:18 6.7 C 53 %
1006 11-04-2019 09:09:17 6.8 C 53 %
1007 11-04-2019 09:21:17 7 C 52 %
1008 11-04-2019 09:33:17 7.4 C 51 %
1009 11-04-2019 09:45:17 7.6 C 50 %
1010 11-04-2019 09:57:17 7.9 C 50 %
1011 11-04-2019 10:09:17 8.1 C 48 %
1012 11-04-2019 10:21:17 8.3 C 47 %
1013 11-04-2019 10:33:17 8.5 C 45 %
1014 11-04-2019 10:45:17 8.5 C 44 %
1015 11-04-2019 10:57:17 8.7 C 43 %
1016 11-04-2019 11:09:17 8.8 C 43 %
1017 11-04-2019 11:21:17 8.9 C 42 %
1018 11-04-2019 11:33:17 9 C 41 %
1019 11-04-2019 11:45:17 9.1 C 40 %
1020 11-04-2019 11:57:17 9.2 C 40 %
1021 11-04-2019 12:09:17 9.3 C 40 %
1022 11-04-2019 12:21:17 9.4 C 40 %
1023 11-04-2019 12:33:17 9.5 C 40 %
1024 11-04-2019 12:45:17 9.6 C 38 %
1025 11-04-2019 12:57:17 9.7 C 38 %
Sensor: Nr:Datum:Temp:Feuchte:
G-T/H 1026 11-04-2019 13:09:17 9.8 C 38 %
1027 11-04-2019 13:21:18 9.9 C 38 %
1028 11-04-2019 13:33:18 10 C 37 %
1029 11-04-2019 13:45:18 10.1 C 37 %
1030 11-04-2019 13:57:18 10.2 C 38 %
1031 11-04-2019 14:09:18 10.3 C 37 %
1032 11-04-2019 14:21:17 10.4 C 37 %
1033 11-04-2019 14:33:17 10.4 C 37 %
1034 11-04-2019 14:45:17 10.5 C 37 %
1035 11-04-2019 14:57:17 10.6 C 37 %
1036 11-04-2019 15:09:17 10.7 C 37 %
1037 11-04-2019 15:21:17 10.8 C 37 %
1038 11-04-2019 15:33:17 10.8 C 38 %
1039 11-04-2019 15:45:17 11 C 37 %
1040 11-04-2019 15:57:17 11 C 37 %
1041 11-04-2019 16:09:17 11.1 C 37 %
1042 11-04-2019 16:21:18 11.1 C 36 %
1043 11-04-2019 16:33:18 11.2 C 36 %
1044 11-04-2019 16:45:18 11.4 C 36 %
1045 11-04-2019 16:57:18 11.5 C 38 %
1046 11-04-2019 17:09:17 11.5 C 39 %
1047 11-04-2019 17:21:17 11.5 C 40 %
1048 11-04-2019 17:33:18 11.4 C 40 %
1049 11-04-2019 17:45:17 11.4 C 42 %
1050 11-04-2019 17:57:18 11.4 C 42 %
Sensor: Nr:Datum:Temp:Feuchte:
G-T/H 1051 11-04-2019 18:09:17 11.4 C 43 %
1052 11-04-2019 18:21:17 11.4 C 44 %
1053 11-04-2019 18:33:17 11.4 C 44 %
1054 11-04-2019 18:45:17 11.4 C 45 %
1055 11-04-2019 18:57:17 11.4 C 45 %
1056 11-04-2019 19:09:17 11.4 C 46 %
1057 11-04-2019 19:21:17 11.4 C 46 %
1058 11-04-2019 19:33:17 11.4 C 47 %
1059 11-04-2019 19:45:17 11.4 C 47 %
1060 11-04-2019 19:57:17 11.4 C 47 %
1061 11-04-2019 20:09:18 11.3 C 48 %
1062 11-04-2019 20:21:17 11.3 C 48 %
1063 11-04-2019 20:33:17 11.3 C 48 %
1064 11-04-2019 20:45:17 11.2 C 48 %
1065 11-04-2019 20:57:17 11.2 C 49 %
1066 11-04-2019 21:09:17 11.2 C 49 %
1067 11-04-2019 21:21:17 11.2 C 49 %
1068 11-04-2019 21:33:18 11.2 C 49 %
1069 11-04-2019 21:45:17 11.2 C 50 %
1070 11-04-2019 21:57:18 11.1 C 50 %
1071 11-04-2019 22:09:18 11.1 C 50 %
1072 11-04-2019 22:21:17 11.1 C 50 %
1073 11-04-2019 22:33:17 11.1 C 50 %
1074 11-04-2019 22:45:17 11.1 C 50 %
1075 11-04-2019 22:57:17 11.1 C 50 %
Sensor: Nr:Datum:Temp:Feuchte:
G-T/H 1076 11-04-2019 23:09:17 11.1 C 50 %
1077 11-04-2019 23:21:17 11.1 C 51 %
1078 11-04-2019 23:33:17 11 C 51 %
1079 11-04-2019 23:45:17 11 C 51 %
1080 11-04-2019 23:57:17 11 C 51 %
1081 12-04-2019 00:09:17 11 C 51 %
1082 12-04-2019 00:21:17 11 C 51 %
1083 12-04-2019 00:33:17 11 C 51 %
1084 12-04-2019 00:45:17 10.9 C 52 %
1085 12-04-2019 00:57:17 10.9 C 52 %
1086 12-04-2019 01:09:17 10.9 C 52 %
1087 12-04-2019 01:21:17 10.9 C 53 %
1088 12-04-2019 01:33:18 10.8 C 53 %
1089 12-04-2019 01:45:17 10.8 C 53 %
1090 12-04-2019 01:57:17 10.8 C 53 %
1091 12-04-2019 02:09:17 10.7 C 53 %
1092 12-04-2019 02:21:17 10.7 C 53 %
1093 12-04-2019 02:33:18 10.7 C 53 %
1094 12-04-2019 02:45:17 10.7 C 53 %
1095 12-04-2019 02:57:18 10.6 C 53 %
1096 12-04-2019 03:09:18 10.6 C 53 %
1097 12-04-2019 03:21:17 10.5 C 53 %
1098 12-04-2019 03:33:17 10.6 C 54 %
1099 12-04-2019 03:45:17 10.5 C 54 %
1100 12-04-2019 03:57:17 10.5 C 54 %
Sensor: Nr:Datum:Temp:Feuchte:
G-T/H 1101 12-04-2019 04:09:17 10.5 C 54 %
1102 12-04-2019 04:21:17 10.4 C 54 %
1103 12-04-2019 04:33:17 10.4 C 54 %
1104 12-04-2019 04:45:18 10.4 C 54 %
1105 12-04-2019 04:57:18 10.4 C 54 %
1106 12-04-2019 05:09:17 10.4 C 54 %
1107 12-04-2019 05:21:17 10.3 C 55 %
1108 12-04-2019 05:33:17 10.3 C 55 %
1109 12-04-2019 05:45:17 10.3 C 55 %
1110 12-04-2019 05:57:17 10.3 C 55 %
1111 12-04-2019 06:09:18 10.3 C 55 %
1112 12-04-2019 06:21:17 10.2 C 55 %
1113 12-04-2019 06:33:18 10.2 C 55 %
1114 12-04-2019 06:45:17 10.2 C 55 %
1115 12-04-2019 06:57:17 10.2 C 55 %
1116 12-04-2019 07:09:17 10.1 C 55 %
1117 12-04-2019 07:21:17 10.1 C 55 %
1118 12-04-2019 07:33:17 10.1 C 55 %
1119 12-04-2019 07:45:17 10.1 C 55 %
1120 12-04-2019 07:57:17 10.1 C 55 %
1121 12-04-2019 08:09:17 10 C 55 %
1122 12-04-2019 08:21:18 9.1 C 48 %
1123 12-04-2019 08:33:18 8.3 C 44 %
1124 12-04-2019 08:45:17 8 C 42 %
1125 12-04-2019 08:57:17 7.9 C 42 %
Sensor: Nr:Datum:Temp:Feuchte:
G-T/H 1126 12-04-2019 09:09:17 7.8 C 42 %
1127 12-04-2019 09:21:17 7.7 C 41 %
1128 12-04-2019 09:33:18 7.6 C 41 %
1129 12-04-2019 09:45:17 7.5 C 40 %
1130 12-04-2019 09:57:17 7.5 C 40 %
1131 12-04-2019 10:09:17 7.6 C 40 %
1132 12-04-2019 10:21:17 7.6 C 39 %
1133 12-04-2019 10:33:17 7.5 C 38 %
1134 12-04-2019 10:45:17 7.5 C 38 %
1135 12-04-2019 10:57:17 7.6 C 38 %
1136 12-04-2019 11:09:17 7.5 C 37 %
1137 12-04-2019 11:21:17 7.6 C 37 %
1138 12-04-2019 11:33:18 7.6 C 37 %
1139 12-04-2019 11:45:17 7.7 C 37 %
1140 12-04-2019 11:57:17 7.8 C 37 %
1141 12-04-2019 12:09:17 7.9 C 38 %
1142 12-04-2019 12:21:17 8 C 37 %
1143 12-04-2019 12:33:17 8.1 C 37 %
1144 12-04-2019 12:45:17 8.2 C 37 %
1145 12-04-2019 12:57:17 8.2 C 37 %
1146 12-04-2019 13:09:17 8.2 C 36 %
1147 12-04-2019 13:21:17 8.3 C 36 %
1148 12-04-2019 13:33:18 8.4 C 36 %
1149 12-04-2019 13:45:18 8.4 C 36 %
1150 12-04-2019 13:57:18 8.4 C 36 %
Sensor: Nr:Datum:Temp:Feuchte:
G-T/H 1151 12-04-2019 14:09:17 8.4 C 36 %
1152 12-04-2019 14:21:17 8.5 C 36 %
1153 12-04-2019 14:33:17 8.5 C 36 %
1154 12-04-2019 14:45:17 8.8 C 36 %
1155 12-04-2019 14:57:17 9.3 C 37 %
1156 12-04-2019 15:09:17 9.5 C 38 %
1157 12-04-2019 15:21:17 9.6 C 40 %
1158 12-04-2019 15:33:18 9.7 C 40 %
1159 12-04-2019 15:45:18 9.7 C 41 %
1160 12-04-2019 15:57:18 9.8 C 42 %
1161 12-04-2019 16:09:17 9.8 C 43 %
1162 12-04-2019 16:21:17 9.8 C 43 %
1163 12-04-2019 16:33:17 9.8 C 44 %
1164 12-04-2019 16:45:17 9.8 C 44 %
1165 12-04-2019 16:57:17 9.8 C 44 %
1166 12-04-2019 17:09:17 9.9 C 45 %
1167 12-04-2019 17:21:18 9.9 C 45 %
1168 12-04-2019 17:33:17 9.9 C 45 %
1169 12-04-2019 17:45:17 9.9 C 45 %
1170 12-04-2019 17:57:17 9.9 C 45 %
1171 12-04-2019 18:09:17 9.9 C 45 %
1172 12-04-2019 18:21:17 10 C 45 %
1173 12-04-2019 18:33:17 9.9 C 46 %
1174 12-04-2019 18:45:17 10 C 45 %
1175 12-04-2019 18:57:17 10 C 46 %
Sensor: Nr:Datum:Temp:Feuchte:
G-T/H 1176 12-04-2019 19:09:17 10 C 46 %
1177 12-04-2019 19:21:17 10 C 46 %
1178 12-04-2019 19:33:18 10 C 46 %
1179 12-04-2019 19:45:17 10 C 47 %
1180 12-04-2019 19:57:17 10 C